Wetterdaten: Sonntag, 16.07.2017
Datum Zeit Temp. A. Pool Temp. Feuchte A. Luftdruck Regen Wind Richtung Richtung Sonnenschein ET UV Solar Taupunkt Windchill Windben Empfang
16.07.2017 00:00 14,3 C 21,1 C 76 % 1022,8 hPa 0,0 l/m 7,8 km/h (2 Bft) W-SW 250 0 min 0,000 mm 0,0 UV-I 0 W/m 10,1 C 13,5 C 11,3 km/h (2 Bft) 95,45 %
16.07.2017 00:02 14,3 C 21,1 C 76 % 1022,8 hPa 0,0 l/m 8,4 km/h (2 Bft) W-SW 243 0 min 0,000 mm 0,0 UV-I 0 W/m 10,1 C 13,1 C 12,9 km/h (3 Bft) 9,52 %
16.07.2017 00:04 14,3 C 21,1 C 77 % 1022,8 hPa 0,0 l/m 7,9 km/h (2 Bft) SW 230 0 min 0,000 mm 0,0 UV-I 0 W/m 10,3 C 13,4 C 11,3 km/h (2 Bft) 91,67 %
16.07.2017 00:06 14,3 C 21,1 C 77 % 1022,8 hPa 0,0 l/m 8,3 km/h (2 Bft) SW 232 0 min 0,000 mm 0,0 UV-I 0 W/m 10,3 C 13,2 C 12,9 km/h (3 Bft) 98,00 %
16.07.2017 00:08 14,2 C 21,1 C 77 % 1022,8 hPa 0,0 l/m 7,9 km/h (2 Bft) SW 222 0 min 0,000 mm 0,0 UV-I 0 W/m 10,2 C 13,3 C 11,3 km/h (2 Bft) 100,00 %
16.07.2017 00:10 14,2 C 21,1 C 77 % 1022,8 hPa 0,0 l/m 9,5 km/h (2 Bft) SW 231 0 min 0,000 mm 0,0 UV-I 0 W/m 10,2 C 12,5 C 14,5 km/h (3 Bft) 96,00 %
16.07.2017 00:12 14,2 C 21,1 C 77 % 1022,9 hPa 0,0 l/m 9,3 km/h (2 Bft) W-SW 237 0 min 0,000 mm 0,0 UV-I 0 W/m 10,2 C 12,6 C 12,9 km/h (3 Bft) 100,00 %
16.07.2017 00:14 14,2 C 21,1 C 78 % 1022,9 hPa 0,0 l/m 8,6 km/h (2 Bft) SW 236 0 min 0,000 mm 0,0 UV-I 0 W/m 10,4 C 12,9 C 12,9 km/h (3 Bft) 97,62 %
16.07.2017 00:16 14,2 C 21,1 C 78 % 1022,9 hPa 0,0 l/m 7,3 km/h (2 Bft) SW 230 0 min 0,000 mm 0,0 UV-I 0 W/m 10,4 C 13,7 C 11,3 km/h (2 Bft) 100,00 %
16.07.2017 00:18 14,2 C 21,1 C 78 % 1022,9 hPa 0,0 l/m 6,5 km/h (2 Bft) SW 226 0 min 0,000 mm 0,0 UV-I 0 W/m 10,4 C 14,2 C 9,7 km/h (2 Bft) 96,88 %
16.07.2017 00:20 14,1 C 21,1 C 78 % 1022,9 hPa 0,0 l/m 6,7 km/h (2 Bft) SW 224 0 min 0,000 mm 0,0 UV-I 0 W/m 10,3 C 13,9 C 9,7 km/h (2 Bft) 94,87 %
16.07.2017 00:22 14,1 C 21,1 C 78 % 1023,0 hPa 0,0 l/m 7,3 km/h (2 Bft) SW 214 0 min 0,000 mm 0,0 UV-I 0 W/m 10,3 C 13,6 C 9,7 km/h (2 Bft) 96,00 %
16.07.2017 00:24 14,1 C 21,1 C 79 % 1023,0 hPa 0,0 l/m 8,3 km/h (2 Bft) SW 227 0 min 0,000 mm 0,0 UV-I 0 W/m 10,5 C 13,0 C 12,9 km/h (3 Bft) 97,87 %
16.07.2017 00:26 14,0 C 21,1 C 79 % 1022,9 hPa 0,0 l/m 8,3 km/h (2 Bft) SW 227 0 min 0,000 mm 0,0 UV-I 0 W/m 10,4 C 12,9 C 12,9 km/h (3 Bft) 98,00 %
16.07.2017 00:28 13,9 C 21,1 C 79 % 1023,0 hPa 0,0 l/m 8,8 km/h (2 Bft) SW 221 0 min 0,000 mm 0,0 UV-I 0 W/m 10,3 C 12,5 C 11,3 km/h (2 Bft) 96,00 %
16.07.2017 00:30 13,9 C 21,1 C 79 % 1023,0 hPa 0,0 l/m 9,0 km/h (2 Bft) SW 217 0 min 0,000 mm 0,0 UV-I 0 W/m 10,3 C 12,4 C 11,3 km/h (2 Bft) 97,37 %
16.07.2017 00:32 13,9 C 21,1 C 80 % 1023,0 hPa 0,0 l/m 8,9 km/h (2 Bft) SW 236 0 min 0,000 mm 0,0 UV-I 0 W/m 10,5 C 12,5 C 11,3 km/h (2 Bft) 98,11 %
16.07.2017 00:34 13,9 C 21,1 C 80 % 1022,9 hPa 0,0 l/m 7,9 km/h (2 Bft) SW 221 0 min 0,000 mm 0,0 UV-I 0 W/m 10,5 C 13,0 C 9,7 km/h (2 Bft) 97,56 %
16.07.2017 00:36 13,8 C 21,1 C 80 % 1023,0 hPa 0,0 l/m 9,2 km/h (2 Bft) SW 232 0 min 0,000 mm 0,0 UV-I 0 W/m 10,4 C 12,2 C 11,3 km/h (2 Bft) 98,11 %
16.07.2017 00:38 13,8 C 21,1 C 80 % 1023,0 hPa 0,0 l/m 9,0 km/h (2 Bft) SW 220 0 min 0,000 mm 0,0 UV-I 0 W/m 10,4 C 12,3 C 11,3 km/h (2 Bft) 97,37 %
16.07.2017 00:40 13,8 C 21,1 C 80 % 1023,0 hPa 0,0 l/m 7,1 km/h (2 Bft) W-SW 240 0 min 0,000 mm 0,0 UV-I 0 W/m 10,4 C 13,4 C 11,3 km/h (2 Bft) 97,87 %
16.07.2017 00:42 13,7 C 21,1 C 80 % 1023,0 hPa 0,0 l/m 6,6 km/h (2 Bft) W-SW 241 0 min 0,000 mm 0,0 UV-I 0 W/m 10,3 C 13,6 C 11,3 km/h (2 Bft) 100,00 %
16.07.2017 00:44 13,7 C 21,1 C 80 % 1022,9 hPa 0,0 l/m 4,9 km/h (1 Bft) SW 222 0 min 0,000 mm 0,0 UV-I 0 W/m 10,3 C 13,7 C 9,7 km/h (2 Bft) 97,56 %
16.07.2017 00:46 13,7 C 21,1 C 80 % 1022,9 hPa 0,0 l/m 7,1 km/h (2 Bft) S-SW 209 0 min 0,000 mm 0,0 UV-I 0 W/m 10,3 C 13,3 C 12,9 km/h (3 Bft) 100,00 %
16.07.2017 00:48 13,7 C 21,1 C 80 % 1023,0 hPa 0,0 l/m 6,4 km/h (2 Bft) SW 215 0 min 0,000 mm 0,0 UV-I 0 W/m 10,3 C 13,7 C 8,0 km/h (2 Bft) 98,11 %
16.07.2017 00:50 13,6 C 21,1 C 81 % 1022,9 hPa 0,0 l/m 8,1 km/h (2 Bft) SW 235 0 min 0,000 mm 0,0 UV-I 0 W/m 10,4 C 12,6 C 12,9 km/h (3 Bft) 98,21 %
16.07.2017 00:52 13,6 C 21,1 C 80 % 1022,9 hPa 0,0 l/m 6,9 km/h (2 Bft) SW 225 0 min 0,000 mm 0,0 UV-I 0 W/m 10,2 C 13,3 C 9,7 km/h (2 Bft) 100,00 %
16.07.2017 00:54 13,6 C 21,1 C 81 % 1022,9 hPa 0,0 l/m 7,4 km/h (2 Bft) SW 234 0 min 0,000 mm 0,0 UV-I 0 W/m 10,4 C 13,0 C 9,7 km/h (2 Bft) 98,11 %
16.07.2017 00:56 13,5 C 21,1 C 81 % 1022,9 hPa 0,0 l/m 7,2 km/h (2 Bft) W-SW 237 0 min 0,000 mm 0,0 UV-I 0 W/m 10,3 C 13,0 C 11,3 km/h (2 Bft) 100,00 %
16.07.2017 00:58 13,4 C 21,1 C 81 % 1023,0 hPa 0,0 l/m 8,2 km/h (2 Bft) SW 215 0 min 0,000 mm 0,0 UV-I 0 W/m 10,2 C 12,3 C 11,3 km/h (2 Bft) 97,73 %
16.07.2017 01:00 13,4 C 21,1 C 81 % 1023,0 hPa 0,0 l/m 7,8 km/h (2 Bft) SW 223 0 min 0,025 mm 0,0 UV-I 0 W/m 10,2 C 12,5 C 11,3 km/h (2 Bft) 96,43 %
16.07.2017 01:01 13,4 C 21,1 C 81 % 1023,0 hPa 0,0 l/m 8,6 km/h (2 Bft) SW 231 0 min 0,000 mm 0,0 UV-I 0 W/m 10,2 C 12,1 C 12,9 km/h (3 Bft) 100,00 %
16.07.2017 01:04 13,3 C 21,1 C 82 % 1023,0 hPa 0,0 l/m 8,3 km/h (2 Bft) SW 233 0 min 0,000 mm 0,0 UV-I 0 W/m 10,3 C 12,1 C 12,9 km/h (3 Bft) 97,87 %
16.07.2017 01:06 13,3 C 21,1 C 82 % 1023,0 hPa 0,0 l/m 8,2 km/h (2 Bft) SW 234 0 min 0,000 mm 0,0 UV-I 0 W/m 10,3 C 12,2 C 11,3 km/h (2 Bft) 100,00 %
16.07.2017 01:08 13,2 C 21,1 C 82 % 1023,0 hPa 0,0 l/m 6,7 km/h (2 Bft) SW 225 0 min 0,000 mm 0,0 UV-I 0 W/m 10,2 C 13,0 C 9,7 km/h (2 Bft) 100,00 %
16.07.2017 01:10 13,2 C 21,1 C 82 % 1023,0 hPa 0,0 l/m 6,5 km/h (2 Bft) SW 234 0 min 0,000 mm 0,0 UV-I 0 W/m 10,2 C 13,2 C 9,7 km/h (2 Bft) 96,23 %
16.07.2017 01:12 13,2 C 21,1 C 82 % 1023,0 hPa 0,0 l/m 6,5 km/h (2 Bft) SW 236 0 min 0,000 mm 0,0 UV-I 0 W/m 10,2 C 13,2 C 9,7 km/h (2 Bft) 98,00 %
16.07.2017 01:14 13,2 C 21,1 C 82 % 1023,0 hPa 0,0 l/m 6,4 km/h (2 Bft) W-SW 248 0 min 0,000 mm 0,0 UV-I 0 W/m 10,2 C 13,2 C 9,7 km/h (2 Bft) 97,14 %
16.07.2017 01:16 13,2 C 21,1 C 81 % 1023,0 hPa 0,0 l/m 6,6 km/h (2 Bft) W 267 0 min 0,000 mm 0,0 UV-I 0 W/m 10,0 C 13,1 C 12,9 km/h (3 Bft) 100,00 %
16.07.2017 01:18 13,2 C 21,1 C 81 % 1023,1 hPa 0,0 l/m 5,7 km/h (1 Bft) W-SW 249 0 min 0,000 mm 0,0 UV-I 0 W/m 10,0 C 13,2 C 9,7 km/h (2 Bft) 98,46 %
16.07.2017 01:20 13,2 C 21,1 C 81 % 1023,0 hPa 0,0 l/m 6,0 km/h (2 Bft) W-SW 245 0 min 0,000 mm 0,0 UV-I 0 W/m 10,0 C 13,2 C 8,0 km/h (2 Bft) 97,56 %
16.07.2017 01:22 13,2 C 21,1 C 81 % 1023,0 hPa 0,0 l/m 6,8 km/h (2 Bft) SW 236 0 min 0,000 mm 0,0 UV-I 0 W/m 10,0 C 13,0 C 11,3 km/h (2 Bft) 97,87 %
16.07.2017 01:24 13,2 C 21,1 C 81 % 1023,0 hPa 0,0 l/m 7,3 km/h (2 Bft) SW 232 0 min 0,000 mm 0,0 UV-I 0 W/m 10,0 C 12,6 C 9,7 km/h (2 Bft) 97,73 %
16.07.2017 01:26 13,2 C 21,1 C 81 % 1023,0 hPa 0,0 l/m 7,1 km/h (2 Bft) S 187 0 min 0,000 mm 0,0 UV-I 0 W/m 10,0 C 12,8 C 9,7 km/h (2 Bft) 100,00 %
16.07.2017 01:28 13,2 C 21,1 C 81 % 1023,1 hPa 0,0 l/m 6,2 km/h (2 Bft) W-SW 250 0 min 0,000 mm 0,0 UV-I 0 W/m 10,0 C 13,2 C 9,7 km/h (2 Bft) 98,00 %
16.07.2017 01:30 13,2 C 21,1 C 81 % 1023,1 hPa 0,0 l/m 5,9 km/h (2 Bft) W-SW 250 0 min 0,000 mm 0,0 UV-I 0 W/m 10,0 C 13,2 C 9,7 km/h (2 Bft) 98,00 %
16.07.2017 01:32 13,2 C 21,1 C 81 % 1023,1 hPa 0,0 l/m 6,6 km/h (2 Bft) W-SW 257 0 min 0,000 mm 0,0 UV-I 0 W/m 10,0 C 13,1 C 11,3 km/h (2 Bft) 97,56 %
16.07.2017 01:34 13,2 C 21,1 C 81 % 1023,1 hPa 0,0 l/m 6,4 km/h (2 Bft) SW 221 0 min 0,000 mm 0,0 UV-I 0 W/m 10,0 C 13,2 C 9,7 km/h (2 Bft) 96,00 %
16.07.2017 01:36 13,2 C 21,1 C 82 % 1023,1 hPa 0,0 l/m 7,4 km/h (2 Bft) S 191 0 min 0,000 mm 0,0 UV-I 0 W/m 10,2 C 12,6 C 11,3 km/h (2 Bft) 97,56 %
16.07.2017 01:38 13,2 C 21,1 C 82 % 1023,1 hPa 0,0 l/m 9,0 km/h (2 Bft) SW 220 0 min 0,000 mm 0,0 UV-I 0 W/m 10,2 C 11,6 C 12,9 km/h (3 Bft) 96,00 %
16.07.2017 01:40 13,1 C 21,1 C 82 % 1023,1 hPa 0,0 l/m 7,9 km/h (2 Bft) SW 221 0 min 0,000 mm 0,0 UV-I 0 W/m 10,1 C 12,2 C 11,3 km/h (2 Bft) 95,83 %
16.07.2017 01:42 13,2 C 21,1 C 82 % 1023,0 hPa 0,0 l/m 7,6 km/h (2 Bft) W-SW 250 0 min 0,000 mm 0,0 UV-I 0 W/m 10,2 C 12,5 C 11,3 km/h (2 Bft) 97,37 %
16.07.2017 01:44 13,1 C 21,1 C 82 % 1023,0 hPa 0,0 l/m 7,1 km/h (2 Bft) W-SW 241 0 min 0,000 mm 0,0 UV-I 0 W/m 10,1 C 12,7 C 12,9 km/h (3 Bft) 94,34 %
16.07.2017 01:46 13,1 C 21,1 C 82 % 1023,0 hPa 0,0 l/m 8,6 km/h (2 Bft) SW 223 0 min 0,000 mm 0,0 UV-I 0 W/m 10,1 C 11,8 C 12,9 km/h (3 Bft) 97,56 %
16.07.2017 01:48 13,1 C 21,1 C 82 % 1023,0 hPa 0,0 l/m 9,8 km/h (2 Bft) SW 215 0 min 0,000 mm 0,0 UV-I 0 W/m 10,1 C 11,1 C 16,1 km/h (3 Bft) 98,21 %
16.07.2017 01:50 13,0 C 21,1 C 82 % 1023,0 hPa 0,0 l/m 9,8 km/h (2 Bft) SW 232 0 min 0,000 mm 0,0 UV-I 0 W/m 10,0 C 11,0 C 12,9 km/h (3 Bft) 94,74 %
16.07.2017 01:52 13,0 C 21,1 C 82 % 1023,0 hPa 0,0 l/m 9,2 km/h (2 Bft) SW 232 0 min 0,000 mm 0,0 UV-I 0 W/m 10,0 C 11,3 C 16,1 km/h (3 Bft) 96,00 %
16.07.2017 01:54 13,0 C 21,1 C 82 % 1023,0 hPa 0,0 l/m 10,3 km/h (2 Bft) SW 227 0 min 0,000 mm 0,0 UV-I 0 W/m 10,0 C 10,8 C 14,5 km/h (3 Bft) 94,34 %
16.07.2017 01:56 13,0 C 21,1 C 82 % 1022,9 hPa 0,0 l/m 9,6 km/h (2 Bft) W-SW 250 0 min 0,000 mm 0,0 UV-I 0 W/m 10,0 C 11,1 C 12,9 km/h (3 Bft) 96,00 %
16.07.2017 01:58 12,9 C 21,1 C 82 % 1023,0 hPa 0,0 l/m 9,0 km/h (2 Bft) SW 234 0 min 0,000 mm 0,0 UV-I 0 W/m 9,9 C 11,3 C 14,5 km/h (3 Bft) 95,12 %
16.07.2017 02:00 12,9 C 21,1 C 83 % 1023,0 hPa 0,0 l/m 9,7 km/h (2 Bft) W-SW 244 0 min 0,026 mm 0,0 UV-I 0 W/m 10,1 C 11,0 C 12,9 km/h (3 Bft) 94,00 %
16.07.2017 02:02 12,8 C 21,1 C 83 % 1023,0 hPa 0,0 l/m 8,3 km/h (2 Bft) SW 227 0 min 0,000 mm 0,0 UV-I 0 W/m 10,0 C 11,6 C 11,3 km/h (2 Bft) 97,37 %
16.07.2017 02:04 12,8 C 21,1 C 83 % 1023,0 hPa 0,0 l/m 8,8 km/h (2 Bft) SW 234 0 min 0,000 mm 0,0 UV-I 0 W/m 10,0 C 11,3 C 11,3 km/h (2 Bft) 94,34 %
16.07.2017 02:06 12,7 C 21,1 C 83 % 1023,0 hPa 0,0 l/m 7,7 km/h (2 Bft) SW 232 0 min 0,000 mm 0,0 UV-I 0 W/m 9,9 C 11,9 C 9,7 km/h (2 Bft) 92,00 %
16.07.2017 02:08 12,7 C 21,1 C 84 % 1023,0 hPa 0,0 l/m 7,3 km/h (2 Bft) S-SW 207 0 min 0,000 mm 0,0 UV-I 0 W/m 10,1 C 12,1 C 9,7 km/h (2 Bft) 97,06 %
16.07.2017 02:10 12,6 C 21,1 C 84 % 1022,9 hPa 0,0 l/m 8,0 km/h (2 Bft) W-SW 240 0 min 0,000 mm 0,0 UV-I 0 W/m 10,0 C 11,6 C 11,3 km/h (2 Bft) 95,56 %
16.07.2017 02:12 12,6 C 21,1 C 84 % 1023,0 hPa 0,0 l/m 7,5 km/h (2 Bft) SW 215 0 min 0,000 mm 0,0 UV-I 0 W/m 10,0 C 11,9 C 12,9 km/h (3 Bft) 98,21 %
16.07.2017 02:14 12,6 C 21,1 C 84 % 1023,0 hPa 0,0 l/m 6,7 km/h (2 Bft) S-SW 211 0 min 0,000 mm 0,0 UV-I 0 W/m 10,0 C 12,4 C 9,7 km/h (2 Bft) 100,00 %
16.07.2017 02:16 12,6 C 21,1 C 84 % 1023,0 hPa 0,0 l/m 6,7 km/h (2 Bft) SW 234 0 min 0,000 mm 0,0 UV-I 0 W/m 10,0 C 12,4 C 9,7 km/h (2 Bft) 95,56 %
16.07.2017 02:18 12,5 C 21,1 C 84 % 1023,0 hPa 0,0 l/m 6,8 km/h (2 Bft) SW 215 0 min 0,000 mm 0,0 UV-I 0 W/m 9,9 C 12,2 C 11,3 km/h (2 Bft) 100,00 %
16.07.2017 02:20 12,5 C 21,1 C 84 % 1022,9 hPa 0,0 l/m 6,9 km/h (2 Bft) W-SW 246 0 min 0,000 mm 0,0 UV-I 0 W/m 9,9 C 12,2 C 11,3 km/h (2 Bft) 98,00 %
16.07.2017 02:22 12,4 C 21,1 C 84 % 1022,9 hPa 0,0 l/m 6,2 km/h (2 Bft) W-SW 250 0 min 0,000 mm 0,0 UV-I 0 W/m 9,8 C 12,4 C 8,0 km/h (2 Bft) 97,87 %
16.07.2017 02:24 12,4 C 21,1 C 84 % 1022,9 hPa 0,0 l/m 6,2 km/h (2 Bft) SW 223 0 min 0,000 mm 0,0 UV-I 0 W/m 9,8 C 12,4 C 11,3 km/h (2 Bft) 95,45 %
16.07.2017 02:26 12,3 C 21,1 C 85 % 1022,9 hPa 0,0 l/m 6,0 km/h (2 Bft) S-SW 211 0 min 0,000 mm 0,0 UV-I 0 W/m 9,9 C 12,3 C 9,7 km/h (2 Bft) 95,74 %
16.07.2017 02:28 12,3 C 21,1 C 85 % 1022,9 hPa 0,0 l/m 5,3 km/h (1 Bft) SW 219 0 min 0,000 mm 0,0 UV-I 0 W/m 9,9 C 12,3 C 8,0 km/h (2 Bft) 97,87 %
16.07.2017 02:30 12,3 C 21,1 C 85 % 1022,9 hPa 0,0 l/m 5,7 km/h (1 Bft) SW 227 0 min 0,000 mm 0,0 UV-I 0 W/m 9,9 C 12,3 C 8,0 km/h (2 Bft) 94,00 %
16.07.2017 02:32 12,2 C 21,1 C 85 % 1022,9 hPa 0,0 l/m 6,8 km/h (2 Bft) S-SW 205 0 min 0,000 mm 0,0 UV-I 0 W/m 9,8 C 11,9 C 11,3 km/h (2 Bft) 96,00 %
16.07.2017 02:34 12,2 C 21,1 C 85 % 1022,9 hPa 0,0 l/m 6,5 km/h (2 Bft) W-SW 240 0 min 0,000 mm 0,0 UV-I 0 W/m 9,8 C 12,2 C 9,7 km/h (2 Bft) 97,87 %
16.07.2017 02:36 12,3 C 21,1 C 85 % 1022,9 hPa 0,0 l/m 7,2 km/h (2 Bft) SW 220 0 min 0,000 mm 0,0 UV-I 0 W/m 9,9 C 11,8 C 9,7 km/h (2 Bft) 95,45 %
16.07.2017 02:38 12,2 C 21,1 C 85 % 1022,9 hPa 0,0 l/m 6,8 km/h (2 Bft) S-SW 194 0 min 0,000 mm 0,0 UV-I 0 W/m 9,8 C 11,9 C 8,0 km/h (2 Bft) 97,87 %
16.07.2017 02:40 12,2 C 21,1 C 85 % 1022,9 hPa 0,0 l/m 6,6 km/h (2 Bft) S-SW 196 0 min 0,000 mm 0,0 UV-I 0 W/m 9,8 C 12,1 C 9,7 km/h (2 Bft) 97,37 %
16.07.2017 02:42 12,2 C 21,1 C 85 % 1022,9 hPa 0,0 l/m 7,9 km/h (2 Bft) SW 221 0 min 0,000 mm 0,0 UV-I 0 W/m 9,8 C 11,2 C 12,9 km/h (3 Bft) 98,00 %
16.07.2017 02:44 12,2 C 21,1 C 85 % 1022,9 hPa 0,0 l/m 6,4 km/h (2 Bft) SW 215 0 min 0,000 mm 0,0 UV-I 0 W/m 9,8 C 12,2 C 9,7 km/h (2 Bft) 96,00 %
16.07.2017 02:46 12,2 C 21,1 C 85 % 1022,9 hPa 0,0 l/m 6,3 km/h (2 Bft) SW 236 0 min 0,000 mm 0,0 UV-I 0 W/m 9,8 C 12,2 C 9,7 km/h (2 Bft) 90,91 %
16.07.2017 02:48 12,2 C 21,1 C 85 % 1022,9 hPa 0,0 l/m 6,2 km/h (2 Bft) SW 222 0 min 0,000 mm 0,0 UV-I 0 W/m 9,8 C 12,2 C 8,0 km/h (2 Bft) 95,45 %
16.07.2017 02:50 12,1 C 21,1 C 85 % 1022,9 hPa 0,0 l/m 6,2 km/h (2 Bft) SW 221 0 min 0,000 mm 0,0 UV-I 0 W/m 9,7 C 12,1 C 8,0 km/h (2 Bft) 97,44 %
16.07.2017 02:52 12,1 C 21,1 C 85 % 1022,9 hPa 0,0 l/m 7,3 km/h (2 Bft) S-SW 204 0 min 0,000 mm 0,0 UV-I 0 W/m 9,7 C 11,5 C 9,7 km/h (2 Bft) 94,83 %
16.07.2017 02:54 12,1 C 21,1 C 86 % 1022,9 hPa 0,0 l/m 6,6 km/h (2 Bft) S-SW 204 0 min 0,000 mm 0,0 UV-I 0 W/m 9,8 C 12,0 C 9,7 km/h (2 Bft) 96,23 %
16.07.2017 02:56 12,1 C 21,1 C 86 % 1022,9 hPa 0,0 l/m 6,1 km/h (2 Bft) S-SW 205 0 min 0,000 mm 0,0 UV-I 0 W/m 9,8 C 12,1 C 8,0 km/h (2 Bft) 97,22 %
16.07.2017 02:58 12,1 C 20,6 C 86 % 1022,9 hPa 0,0 l/m 6,2 km/h (2 Bft) S-SW 210 0 min 0,000 mm 0,0 UV-I 0 W/m 9,8 C 12,1 C 8,0 km/h (2 Bft) 94,64 %
16.07.2017 03:00 12,0 C 21,1 C 86 % 1022,9 hPa 0,0 l/m 6,1 km/h (2 Bft) SW 227 0 min 0,025 mm 0,0 UV-I 0 W/m 9,7 C 12,0 C 9,7 km/h (2 Bft) 98,00 %
16.07.2017 03:02 12,0 C 21,1 C 86 % 1022,9 hPa 0,0 l/m 5,7 km/h (1 Bft) S-SW 212 0 min 0,000 mm 0,0 UV-I 0 W/m 9,7 C 12,0 C 8,0 km/h (2 Bft) 97,87 %
16.07.2017 03:04 12,0 C 21,1 C 86 % 1022,9 hPa 0,0 l/m 5,9 km/h (2 Bft) S-SW 209 0 min 0,000 mm 0,0 UV-I 0 W/m 9,7 C 12,0 C 9,7 km/h (2 Bft) 95,74 %
16.07.2017 03:06 11,9 C 20,6 C 86 % 1022,9 hPa 0,0 l/m 7,3 km/h (2 Bft) S-SW 209 0 min 0,000 mm 0,0 UV-I 0 W/m 9,6 C 11,3 C 9,7 km/h (2 Bft) 95,12 %
16.07.2017 03:08 11,9 C 20,6 C 86 % 1022,9 hPa 0,0 l/m 5,4 km/h (1 Bft) SW 215 0 min 0,000 mm 0,0 UV-I 0 W/m 9,6 C 11,9 C 8,0 km/h (2 Bft) 95,74 %
16.07.2017 03:10 11,9 C 20,6 C 86 % 1022,9 hPa 0,0 l/m 5,4 km/h (1 Bft) SW 215 0 min 0,000 mm 0,0 UV-I 0 W/m 9,6 C 11,9 C 8,0 km/h (2 Bft) 94,00 %
16.07.2017 03:12 11,9 C 20,6 C 87 % 1022,9 hPa 0,0 l/m 5,1 km/h (1 Bft) SW 217 0 min 0,000 mm 0,0 UV-I 0 W/m 9,8 C 11,9 C 6,4 km/h (2 Bft) 94,87 %
16.07.2017 03:14 11,8 C 20,6 C 87 % 1023,0 hPa 0,0 l/m 6,3 km/h (2 Bft) SW 215 0 min 0,000 mm 0,0 UV-I 0 W/m 9,7 C 11,8 C 9,7 km/h (2 Bft) 94,34 %
16.07.2017 03:16 11,8 C 20,6 C 87 % 1022,9 hPa 0,0 l/m 6,0 km/h (2 Bft) SW 225 0 min 0,000 mm 0,0 UV-I 0 W/m 9,7 C 11,8 C 8,0 km/h (2 Bft) 97,87 %
16.07.2017 03:18 11,8 C 20,6 C 87 % 1022,9 hPa 0,0 l/m 5,4 km/h (1 Bft) SW 226 0 min 0,000 mm 0,0 UV-I 0 W/m 9,7 C 11,8 C 8,0 km/h (2 Bft) 93,62 %
16.07.2017 03:20 11,7 C 20,6 C 87 % 1022,9 hPa 0,0 l/m 4,6 km/h (1 Bft) SW 227 0 min 0,000 mm 0,0 UV-I 0 W/m 9,6 C 11,7 C 8,0 km/h (2 Bft) 100,00 %
16.07.2017 03:22 11,7 C 20,6 C 88 % 1022,9 hPa 0,0 l/m 5,6 km/h (1 Bft) SW 217 0 min 0,000 mm 0,0 UV-I 0 W/m 9,8 C 11,7 C 8,0 km/h (2 Bft) 94,74 %
16.07.2017 03:24 11,7 C 20,6 C 88 % 1022,9 hPa 0,0 l/m 4,5 km/h (1 Bft) W-SW 250 0 min 0,000 mm 0,0 UV-I 0 W/m 9,8 C 11,7 C 8,0 km/h (2 Bft) 98,21 %
16.07.2017 03:26 11,7 C 20,6 C 88 % 1022,9 hPa 0,0 l/m 4,5 km/h (1 Bft) SW 234 0 min 0,000 mm 0,0 UV-I 0 W/m 9,8 C 11,7 C 6,4 km/h (2 Bft) 100,00 %
16.07.2017 03:28 11,7 C 20,6 C 88 % 1022,9 hPa 0,0 l/m 3,6 km/h (1 Bft) SW 234 0 min 0,000 mm 0,0 UV-I 0 W/m 9,8 C 11,7 C 6,4 km/h (2 Bft) 100,00 %
16.07.2017 03:30 11,6 C 20,6 C 88 % 1022,9 hPa 0,0 l/m 4,6 km/h (1 Bft) SW 234 0 min 0,000 mm 0,0 UV-I 0 W/m 9,7 C 11,6 C 6,4 km/h (2 Bft) 98,11 %
16.07.2017 03:32 11,6 C 20,6 C 88 % 1022,9 hPa 0,0 l/m 4,9 km/h (1 Bft) SW 234 0 min 0,000 mm 0,0 UV-I 0 W/m 9,7 C 11,6 C 8,0 km/h (2 Bft) 97,56 %
16.07.2017 03:34 11,6 C 20,6 C 88 % 1022,9 hPa 0,0 l/m 3,4 km/h (1 Bft) SW 235 0 min 0,000 mm 0,0 UV-I 0 W/m 9,7 C 11,6 C 6,4 km/h (2 Bft) 97,92 %
16.07.2017 03:36 11,6 C 20,6 C 89 % 1022,9 hPa 0,0 l/m 4,9 km/h (1 Bft) SW 235 0 min 0,000 mm 0,0 UV-I 0 W/m 9,8 C 11,6 C 6,4 km/h (2 Bft) 96,15 %
16.07.2017 03:38 11,6 C 20,6 C 89 % 1022,9 hPa 0,0 l/m 6,5 km/h (2 Bft) SW 219 0 min 0,000 mm 0,0 UV-I 0 W/m 9,8 C 11,6 C 8,0 km/h (2 Bft) 97,87 %
16.07.2017 03:40 11,5 C 20,6 C 89 % 1022,9 hPa 0,0 l/m 5,1 km/h (1 Bft) SW 216 0 min 0,000 mm 0,0 UV-I 0 W/m 9,8 C 11,5 C 8,0 km/h (2 Bft) 97,62 %
16.07.2017 03:42 11,5 C 20,6 C 89 % 1022,9 hPa 0,0 l/m 5,6 km/h (1 Bft) SW 233 0 min 0,000 mm 0,0 UV-I 0 W/m 9,8 C 11,5 C 8,0 km/h (2 Bft) 95,74 %
16.07.2017 03:44 11,5 C 20,6 C 89 % 1022,9 hPa 0,0 l/m 5,5 km/h (1 Bft) SW 227 0 min 0,000 mm 0,0 UV-I 0 W/m 9,8 C 11,5 C 6,4 km/h (2 Bft) 92,68 %
16.07.2017 03:46 11,5 C 20,6 C 89 % 1022,9 hPa 0,0 l/m 5,4 km/h (1 Bft) SW 227 0 min 0,000 mm 0,0 UV-I 0 W/m 9,8 C 11,5 C 8,0 km/h (2 Bft) 94,34 %
16.07.2017 03:48 11,5 C 20,6 C 89 % 1022,9 hPa 0,0 l/m 5,0 km/h (1 Bft) SW 227 0 min 0,000 mm 0,0 UV-I 0 W/m 9,8 C 11,5 C 8,0 km/h (2 Bft) 97,87 %
16.07.2017 03:50 11,4 C 20,6 C 89 % 1022,9 hPa 0,0 l/m 4,5 km/h (1 Bft) SW 227 0 min 0,000 mm 0,0 UV-I 0 W/m 9,7 C 11,4 C 6,4 km/h (2 Bft) 96,23 %
16.07.2017 03:52 11,4 C 20,6 C 89 % 1022,9 hPa 0,0 l/m 5,7 km/h (1 Bft) SW 227 0 min 0,000 mm 0,0 UV-I 0 W/m 9,7 C 11,4 C 8,0 km/h (2 Bft) 97,37 %
16.07.2017 03:54 11,4 C 20,6 C 89 % 1022,9 hPa 0,0 l/m 6,1 km/h (2 Bft) SW 227 0 min 0,000 mm 0,0 UV-I 0 W/m 9,7 C 11,4 C 8,0 km/h (2 Bft) 96,00 %
16.07.2017 03:56 11,3 C 20,6 C 90 % 1022,8 hPa 0,0 l/m 5,4 km/h (1 Bft) SW 227 0 min 0,000 mm 0,0 UV-I 0 W/m 9,7 C 11,3 C 6,4 km/h (2 Bft) 95,12 %
16.07.2017 03:58 11,3 C 20,6 C 90 % 1022,9 hPa 0,0 l/m 5,8 km/h (2 Bft) S-SW 211 0 min 0,000 mm 0,0 UV-I 0 W/m 9,7 C 11,3 C 8,0 km/h (2 Bft) 96,43 %
16.07.2017 04:00 11,3 C 20,6 C 90 % 1022,8 hPa 0,0 l/m 6,0 km/h (2 Bft) SW 229 0 min 0,000 mm 0,0 UV-I 0 W/m 9,7 C 11,3 C 9,7 km/h (2 Bft) 94,74 %
16.07.2017 04:02 11,3 C 20,6 C 90 % 1022,8 hPa 0,0 l/m 7,2 km/h (2 Bft) S-SW 208 0 min 0,000 mm 0,0 UV-I 0 W/m 9,7 C 10,8 C 9,7 km/h (2 Bft) 92,00 %
16.07.2017 04:04 11,3 C 20,6 C 90 % 1022,8 hPa 0,0 l/m 7,9 km/h (2 Bft) SW 221 0 min 0,000 mm 0,0 UV-I 0 W/m 9,7 C 10,3 C 11,3 km/h (2 Bft) 96,43 %
16.07.2017 04:06 11,3 C 20,6 C 91 % 1022,8 hPa 0,0 l/m 6,8 km/h (2 Bft) S-SW 209 0 min 0,000 mm 0,0 UV-I 0 W/m 9,9 C 11,0 C 9,7 km/h (2 Bft) 95,12 %
16.07.2017 04:08 11,4 C 20,6 C 91 % 1022,9 hPa 0,0 l/m 6,6 km/h (2 Bft) S-SW 209 0 min 0,000 mm 0,0 UV-I 0 W/m 10,0 C 11,3 C 9,7 km/h (2 Bft) 100,00 %
16.07.2017 04:10 11,4 C 20,6 C 90 % 1022,9 hPa 0,0 l/m 6,3 km/h (2 Bft) SW 226 0 min 0,000 mm 0,0 UV-I 0 W/m 9,8 C 11,4 C 9,7 km/h (2 Bft) 96,23 %
16.07.2017 04:12 11,4 C 20,6 C 90 % 1022,9 hPa 0,0 l/m 4,8 km/h (1 Bft) S-SW 210 0 min 0,000 mm 0,0 UV-I 0 W/m 9,8 C 11,4 C 9,7 km/h (2 Bft) 95,24 %
16.07.2017 04:14 11,4 C 20,6 C 90 % 1022,8 hPa 0,0 l/m 4,9 km/h (1 Bft) S-SW 207 0 min 0,000 mm 0,0 UV-I 0 W/m 9,8 C 11,4 C 8,0 km/h (2 Bft) 97,87 %
16.07.2017 04:16 11,4 C 20,6 C 90 % 1022,9 hPa 0,0 l/m 5,9 km/h (2 Bft) SW 215 0 min 0,000 mm 0,0 UV-I 0 W/m 9,8 C 11,4 C 8,0 km/h (2 Bft) 96,15 %
16.07.2017 04:18 11,4 C 20,6 C 90 % 1022,9 hPa 0,0 l/m 6,3 km/h (2 Bft) S-SW 201 0 min 0,000 mm 0,0 UV-I 0 W/m 9,8 C 11,4 C 9,7 km/h (2 Bft) 97,44 %
16.07.2017 04:20 11,4 C 20,6 C 90 % 1022,9 hPa 0,0 l/m 4,8 km/h (1 Bft) S-SW 213 0 min 0,000 mm 0,0 UV-I 0 W/m 9,8 C 11,4 C 8,0 km/h (2 Bft) 96,00 %
16.07.2017 04:22 11,4 C 20,6 C 90 % 1022,9 hPa 0,0 l/m 4,8 km/h (1 Bft) SW 214 0 min 0,000 mm 0,0 UV-I 0 W/m 9,8 C 11,4 C 8,0 km/h (2 Bft) 94,00 %
16.07.2017 04:24 11,4 C 20,6 C 90 % 1022,9 hPa 0,0 l/m 4,2 km/h (1 Bft) SW 226 0 min 0,000 mm 0,0 UV-I 0 W/m 9,8 C 11,4 C 6,4 km/h (2 Bft) 100,00 %
16.07.2017 04:26 11,4 C 20,6 C 90 % 1022,9 hPa 0,0 l/m 4,4 km/h (1 Bft) SW 226 0 min 0,000 mm 0,0 UV-I 0 W/m 9,8 C 11,4 C 6,4 km/h (2 Bft) 98,00 %
16.07.2017 04:28 11,4 C 20,6 C 90 % 1022,9 hPa 0,0 l/m 3,2 km/h (1 Bft) SW 226 0 min 0,000 mm 0,0 UV-I 0 W/m 9,8 C 11,4 C 8,0 km/h (2 Bft) 100,00 %
16.07.2017 04:30 11,4 C 20,6 C 90 % 1022,9 hPa 0,0 l/m 5,1 km/h (1 Bft) SW 224 0 min 0,000 mm 0,0 UV-I 0 W/m 9,8 C 11,4 C 8,0 km/h (2 Bft) 94,00 %
16.07.2017 04:32 11,4 C 20,6 C 89 % 1022,9 hPa 0,0 l/m 4,6 km/h (1 Bft) SW 224 0 min 0,000 mm 0,0 UV-I 0 W/m 9,7 C 11,4 C 6,4 km/h (2 Bft) 97,87 %
16.07.2017 04:34 11,5 C 20,6 C 90 % 1023,0 hPa 0,0 l/m 5,3 km/h (1 Bft) S-SW 209 0 min 0,000 mm 0,0 UV-I 0 W/m 9,9 C 11,5 C 8,0 km/h (2 Bft) 95,74 %
16.07.2017 04:36 11,5 C 20,6 C 89 % 1022,9 hPa 0,0 l/m 4,9 km/h (1 Bft) S-SW 210 0 min 0,000 mm 0,0 UV-I 0 W/m 9,8 C 11,5 C 6,4 km/h (2 Bft) 89,36 %
16.07.2017 04:38 11,4 C 20,6 C 89 % 1022,9 hPa 0,0 l/m 5,2 km/h (1 Bft) S-SW 210 0 min 0,000 mm 0,0 UV-I 0 W/m 9,7 C 11,4 C 8,0 km/h (2 Bft) 97,56 %
16.07.2017 04:40 11,4 C 20,6 C 89 % 1022,9 hPa 0,0 l/m 4,6 km/h (1 Bft) S-SW 209 0 min 0,000 mm 0,0 UV-I 0 W/m 9,7 C 11,4 C 8,0 km/h (2 Bft) 96,00 %
16.07.2017 04:42 11,4 C 20,6 C 89 % 1022,9 hPa 0,0 l/m 4,7 km/h (1 Bft) S-SW 209 0 min 0,000 mm 0,0 UV-I 0 W/m 9,7 C 11,4 C 6,4 km/h (2 Bft) 100,00 %
16.07.2017 04:44 11,4 C 20,6 C 89 % 1022,9 hPa 0,0 l/m 5,0 km/h (1 Bft) S-SW 209 0 min 0,000 mm 0,0 UV-I 0 W/m 9,7 C 11,4 C 6,4 km/h (2 Bft) 100,00 %
16.07.2017 04:46 11,4 C 20,6 C 89 % 1023,0 hPa 0,0 l/m 4,3 km/h (1 Bft) S-SW 209 0 min 0,000 mm 0,0 UV-I 0 W/m 9,7 C 11,4 C 6,4 km/h (2 Bft) 98,11 %
16.07.2017 04:48 11,4 C 20,6 C 89 % 1022,9 hPa 0,0 l/m 4,5 km/h (1 Bft) S-SW 209 0 min 0,000 mm 0,0 UV-I 0 W/m 9,7 C 11,4 C 6,4 km/h (2 Bft) 100,00 %
16.07.2017 04:50 11,3 C 20,6 C 89 % 1023,0 hPa 0,0 l/m 4,6 km/h (1 Bft) S-SW 209 0 min 0,000 mm 0,0 UV-I 0 W/m 9,6 C 11,3 C 6,4 km/h (2 Bft) 97,22 %
16.07.2017 04:52 11,3 C 20,6 C 89 % 1023,0 hPa 0,0 l/m 4,6 km/h (1 Bft) S-SW 210 0 min 0,000 mm 0,0 UV-I 0 W/m 9,6 C 11,3 C 8,0 km/h (2 Bft) 95,74 %
16.07.2017 04:54 11,3 C 20,6 C 89 % 1022,9 hPa 0,0 l/m 3,7 km/h (1 Bft) S-SW 194 0 min 0,000 mm 0,0 UV-I 0 W/m 9,6 C 11,3 C 6,4 km/h (2 Bft) 98,00 %
16.07.2017 04:56 11,3 C 20,6 C 89 % 1022,9 hPa 0,0 l/m 3,1 km/h (1 Bft) S-SW 194 0 min 0,000 mm 0,0 UV-I 0 W/m 9,6 C 11,3 C 4,8 km/h (1 Bft) 98,08 %
16.07.2017 04:58 11,2 C 20,6 C 89 % 1023,0 hPa 0,0 l/m 4,6 km/h (1 Bft) S-SW 194 0 min 0,000 mm 0,0 UV-I 0 W/m 9,5 C 11,2 C 6,4 km/h (2 Bft) 100,00 %
16.07.2017 05:00 11,2 C 20,6 C 89 % 1022,9 hPa 0,0 l/m 4,8 km/h (1 Bft) S-SW 195 0 min 0,000 mm 0,0 UV-I 0 W/m 9,5 C 11,2 C 8,0 km/h (2 Bft) 97,87 %
16.07.2017 05:02 11,2 C 20,6 C 89 % 1023,0 hPa 0,0 l/m 4,8 km/h (1 Bft) S-SW 195 0 min 0,000 mm 0,0 UV-I 0 W/m 9,5 C 11,2 C 6,4 km/h (2 Bft) 100,00 %
16.07.2017 05:04 11,2 C 20,6 C 90 % 1023,0 hPa 0,0 l/m 4,9 km/h (1 Bft) S-SW 195 0 min 0,000 mm 0,0 UV-I 0 W/m 9,6 C 11,2 C 8,0 km/h (2 Bft) 97,14 %
16.07.2017 05:06 11,1 C 20,6 C 90 % 1023,0 hPa 0,0 l/m 5,1 km/h (1 Bft) S-SW 195 0 min 0,000 mm 0,0 UV-I 3 W/m 9,5 C 11,1 C 6,4 km/h (2 Bft) 100,00 %
16.07.2017 05:08 11,1 C 20,6 C 90 % 1023,0 hPa 0,0 l/m 3,8 km/h (1 Bft) S-SW 195 0 min 0,000 mm 0,0 UV-I 5 W/m 9,5 C 11,1 C 4,8 km/h (1 Bft) 97,87 %
16.07.2017 05:10 11,1 C 20,6 C 90 % 1023,0 hPa 0,0 l/m 4,6 km/h (1 Bft) S-SW 195 0 min 0,000 mm 0,0 UV-I 5 W/m 9,5 C 11,1 C 6,4 km/h (2 Bft) 98,21 %
16.07.2017 05:12 11,1 C 20,6 C 90 % 1023,0 hPa 0,0 l/m 4,3 km/h (1 Bft) S-SW 195 0 min 0,000 mm 0,0 UV-I 5 W/m 9,5 C 11,1 C 4,8 km/h (1 Bft) 100,00 %
16.07.2017 05:14 11,0 C 20,6 C 90 % 1023,0 hPa 0,0 l/m 4,0 km/h (1 Bft) S-SW 195 0 min 0,000 mm 0,0 UV-I 5 W/m 9,4 C 11,0 C 4,8 km/h (1 Bft) 98,00 %
16.07.2017 05:16 11,0 C 20,6 C 90 % 1023,0 hPa 0,0 l/m 3,3 km/h (1 Bft) S-SW 195 0 min 0,000 mm 0,0 UV-I 6 W/m 9,4 C 11,0 C 4,8 km/h (1 Bft) 100,00 %
16.07.2017 05:18 10,9 C 20,6 C 90 % 1023,0 hPa 0,0 l/m 3,5 km/h (1 Bft) S-SW 195 0 min 0,000 mm 0,0 UV-I 7 W/m 9,3 C 10,9 C 6,4 km/h (2 Bft) 97,14 %
16.07.2017 05:20 10,9 C 20,6 C 90 % 1023,0 hPa 0,0 l/m 3,6 km/h (1 Bft) S-SW 196 0 min 0,000 mm 0,0 UV-I 7 W/m 9,3 C 10,9 C 6,4 km/h (2 Bft) 100,00 %
16.07.2017 05:22 10,8 C 20,6 C 90 % 1023,0 hPa 0,0 l/m 3,6 km/h (1 Bft) S-SW 196 0 min 0,000 mm 0,0 UV-I 7 W/m 9,2 C 10,8 C 4,8 km/h (1 Bft) 97,56 %
16.07.2017 05:24 10,7 C 20,6 C 90 % 1023,0 hPa 0,0 l/m 3,5 km/h (1 Bft) S-SW 196 0 min 0,000 mm 0,0 UV-I 7 W/m 9,1 C 10,7 C 6,4 km/h (2 Bft) 96,61 %
16.07.2017 05:26 10,7 C 20,6 C 91 % 1023,0 hPa 0,0 l/m 3,2 km/h (1 Bft) S-SW 196 0 min 0,000 mm 0,0 UV-I 9 W/m 9,3 C 10,7 C 4,8 km/h (1 Bft) 100,00 %
16.07.2017 05:28 10,7 C 20,6 C 91 % 1023,0 hPa 0,0 l/m 3,9 km/h (1 Bft) S-SW 196 0 min 0,000 mm 0,0 UV-I 9 W/m 9,3 C 10,7 C 4,8 km/h (1 Bft) 100,00 %
16.07.2017 05:30 10,7 C 20,6 C 91 % 1023,0 hPa 0,0 l/m 4,0 km/h (1 Bft) S-SW 196 0 min 0,000 mm 0,0 UV-I 11 W/m 9,3 C 10,7 C 6,4 km/h (2 Bft) 98,51 %
16.07.2017 05:32 10,8 C 20,6 C 91 % 1023,0 hPa 0,0 l/m 4,8 km/h (1 Bft) S-SW 196 0 min 0,000 mm 0,0 UV-I 11 W/m 9,4 C 10,8 C 8,0 km/h (2 Bft) 96,23 %
16.07.2017 05:34 10,8 C 20,6 C 91 % 1023,0 hPa 0,0 l/m 5,1 km/h (1 Bft) SW 218 2 min 0,000 mm 0,0 UV-I 12 W/m 9,4 C 10,8 C 8,0 km/h (2 Bft) 100,00 %
16.07.2017 05:36 10,8 C 20,6 C 91 % 1023,1 hPa 0,0 l/m 4,0 km/h (1 Bft) S-SW 209 2 min 0,000 mm 0,0 UV-I 13 W/m 9,4 C 10,8 C 6,4 km/h (2 Bft) 96,23 %
16.07.2017 05:38 10,9 C 20,6 C 91 % 1023,1 hPa 0,0 l/m 4,0 km/h (1 Bft) S-SW 211 0 min 0,000 mm 0,0 UV-I 14 W/m 9,5 C 10,9 C 6,4 km/h (2 Bft) 100,00 %
16.07.2017 05:40 10,9 C 20,6 C 91 % 1023,0 hPa 0,0 l/m 4,9 km/h (1 Bft) SW 216 0 min 0,000 mm 0,0 UV-I 16 W/m 9,5 C 10,9 C 6,4 km/h (2 Bft) 100,00 %
16.07.2017 05:42 10,9 C 20,6 C 91 % 1023,1 hPa 0,0 l/m 4,4 km/h (1 Bft) SW 216 0 min 0,000 mm 0,0 UV-I 16 W/m 9,5 C 10,9 C 6,4 km/h (2 Bft) 100,00 %
16.07.2017 05:44 10,9 C 20,6 C 91 % 1023,2 hPa 0,0 l/m 4,6 km/h (1 Bft) SW 217 0 min 0,000 mm 0,0 UV-I 17 W/m 9,5 C 10,9 C 6,4 km/h (2 Bft) 96,00 %
16.07.2017 05:46 10,9 C 20,6 C 91 % 1023,2 hPa 0,0 l/m 4,8 km/h (1 Bft) SW 218 0 min 0,000 mm 0,0 UV-I 19 W/m 9,5 C 10,9 C 6,4 km/h (2 Bft) 89,47 %
16.07.2017 05:48 10,9 C 20,6 C 91 % 1023,2 hPa 0,0 l/m 3,5 km/h (1 Bft) SW 218 0 min 0,000 mm 0,0 UV-I 19 W/m 9,5 C 10,9 C 4,8 km/h (1 Bft) 92,00 %
16.07.2017 05:50 10,9 C 20,6 C 91 % 1023,2 hPa 0,0 l/m 2,4 km/h (1 Bft) SW 218 0 min 0,000 mm 0,0 UV-I 20 W/m 9,5 C 10,9 C 4,8 km/h (1 Bft) 94,74 %
16.07.2017 05:52 10,9 C 20,6 C 91 % 1023,3 hPa 0,0 l/m 0,5 km/h (0 Bft) SW 218 0 min 0,000 mm 0,0 UV-I 21 W/m 9,5 C 10,9 C 1,6 km/h (1 Bft) 92,45 %
16.07.2017 05:54 10,9 C 20,6 C 91 % 1023,3 hPa 0,0 l/m 0,3 km/h (0 Bft) SW 218 0 min 0,000 mm 0,0 UV-I 23 W/m 9,5 C 10,9 C 1,6 km/h (1 Bft) 93,62 %
16.07.2017 05:56 10,8 C 20,6 C 91 % 1023,4 hPa 0,0 l/m 1,9 km/h (1 Bft) SW 218 0 min 0,000 mm 0,0 UV-I 25 W/m 9,4 C 10,8 C 4,8 km/h (1 Bft) 93,18 %
16.07.2017 05:58 10,8 C 20,6 C 91 % 1023,4 hPa 0,0 l/m 2,5 km/h (1 Bft) SW 218 0 min 0,000 mm 0,0 UV-I 26 W/m 9,4 C 10,8 C 3,2 km/h (1 Bft) 94,00 %
16.07.2017 06:00 10,8 C 20,6 C 91 % 1023,4 hPa 0,0 l/m 2,9 km/h (1 Bft) SW 218 0 min 0,000 mm 0,0 UV-I 27 W/m 9,4 C 10,8 C 4,8 km/h (1 Bft) 94,00 %
16.07.2017 06:02 10,8 C 20,6 C 92 % 1023,4 hPa 0,0 l/m 3,0 km/h (1 Bft) SW 218 0 min 0,000 mm 0,0 UV-I 30 W/m 9,6 C 10,8 C 4,8 km/h (1 Bft) 92,11 %
16.07.2017 06:04 10,8 C 20,6 C 92 % 1023,4 hPa 0,0 l/m 3,1 km/h (1 Bft) SW 218 0 min 0,000 mm 0,0 UV-I 33 W/m 9,6 C 10,8 C 4,8 km/h (1 Bft) 89,29 %
16.07.2017 06:06 10,8 C 20,6 C 92 % 1023,4 hPa 0,0 l/m 1,2 km/h (1 Bft) SW 218 0 min 0,000 mm 0,0 UV-I 36 W/m 9,6 C 10,8 C 3,2 km/h (1 Bft) 95,12 %
16.07.2017 06:08 10,8 C 20,6 C 92 % 1023,4 hPa 0,0 l/m 0,1 km/h (0 Bft) SW 218 0 min 0,000 mm 0,0 UV-I 39 W/m 9,6 C 10,8 C 1,6 km/h (1 Bft) 93,62 %
16.07.2017 06:10 10,9 C 20,6 C 92 % 1023,4 hPa 0,0 l/m 0,0 km/h (0 Bft) SW 218 0 min 0,000 mm 0,0 UV-I 40 W/m 9,7 C 10,9 C 0,0 km/h (0 Bft) 95,74 %
16.07.2017 06:12 10,9 C 20,6 C 92 % 1023,4 hPa 0,0 l/m 0,2 km/h (0 Bft) SW 218 0 min 0,000 mm 0,0 UV-I 40 W/m 9,7 C 10,9 C 1,6 km/h (1 Bft) 93,75 %
16.07.2017 06:14 11,0 C 20,6 C 91 % 1023,4 hPa 0,0 l/m 1,4 km/h (1 Bft) SW 218 0 min 0,000 mm 0,0 UV-I 44 W/m 9,6 C 11,0 C 3,2 km/h (1 Bft) 91,49 %
16.07.2017 06:16 11,1 C 20,6 C 91 % 1023,4 hPa 0,0 l/m 0,9 km/h (0 Bft) SW 218 0 min 0,000 mm 0,0 UV-I 48 W/m 9,7 C 11,1 C 1,6 km/h (1 Bft) 95,74 %
16.07.2017 06:18 11,2 C 20,6 C 92 % 1023,4 hPa 0,0 l/m 0,5 km/h (0 Bft) SW 218 0 min 0,000 mm 0,0 UV-I 52 W/m 9,9 C 11,2 C 3,2 km/h (1 Bft) 91,49 %
16.07.2017 06:20 11,3 C 20,6 C 91 % 1023,5 hPa 0,0 l/m 0,0 km/h (0 Bft) SW 218 0 min 0,000 mm 0,0 UV-I 53 W/m 9,9 C 11,3 C 0,0 km/h (0 Bft) 93,62 %
16.07.2017 06:22 11,3 C 20,6 C 91 % 1023,5 hPa 0,0 l/m 0,0 km/h (0 Bft) SW 218 0 min 0,000 mm 0,0 UV-I 54 W/m 9,9 C 11,3 C 0,0 km/h (0 Bft) 91,67 %
16.07.2017 06:24 11,3 C 20,6 C 91 % 1023,5 hPa 0,0 l/m 1,0 km/h (0 Bft) SW 218 0 min 0,000 mm 0,0 UV-I 55 W/m 9,9 C 11,3 C 3,2 km/h (1 Bft) 97,87 %
16.07.2017 06:26 11,3 C 20,6 C 91 % 1023,5 hPa 0,0 l/m 1,8 km/h (1 Bft) W 263 0 min 0,000 mm 0,0 UV-I 58 W/m 9,9 C 11,3 C 4,8 km/h (1 Bft) 92,00 %
16.07.2017 06:28 11,3 C 20,6 C 90 % 1023,6 hPa 0,0 l/m 1,5 km/h (1 Bft) W 263 0 min 0,000 mm 0,0 UV-I 62 W/m 9,7 C 11,3 C 3,2 km/h (1 Bft) 96,00 %
16.07.2017 06:30 11,4 C 20,6 C 90 % 1023,5 hPa 0,0 l/m 2,7 km/h (1 Bft) W 263 0 min 0,000 mm 0,0 UV-I 63 W/m 9,8 C 11,4 C 4,8 km/h (1 Bft) 91,43 %
16.07.2017 06:32 11,5 C 20,6 C 90 % 1023,6 hPa 0,0 l/m 3,3 km/h (1 Bft) W 263 0 min 0,000 mm 0,0 UV-I 65 W/m 9,9 C 11,5 C 4,8 km/h (1 Bft) 98,00 %
16.07.2017 06:34 11,5 C 20,6 C 89 % 1023,6 hPa 0,0 l/m 3,3 km/h (1 Bft) W 263 0 min 0,000 mm 0,0 UV-I 68 W/m 9,8 C 11,5 C 4,8 km/h (1 Bft) 97,56 %
16.07.2017 06:36 11,6 C 20,6 C 89 % 1023,5 hPa 0,0 l/m 5,0 km/h (1 Bft) W-SW 257 0 min 0,000 mm 0,0 UV-I 71 W/m 9,8 C 11,6 C 6,4 km/h (2 Bft) 98,00 %
16.07.2017 06:38 11,7 C 20,6 C 89 % 1023,6 hPa 0,0 l/m 4,8 km/h (1 Bft) W-SW 252 0 min 0,000 mm 0,0 UV-I 72 W/m 9,9 C 11,7 C 6,4 km/h (2 Bft) 96,00 %
16.07.2017 06:40 11,7 C 20,6 C 89 % 1023,7 hPa 0,0 l/m 4,3 km/h (1 Bft) W-SW 252 0 min 0,000 mm 0,0 UV-I 72 W/m 9,9 C 11,7 C 6,4 km/h (2 Bft) 96,23 %
16.07.2017 06:42 11,8 C 20,6 C 88 % 1023,7 hPa 0,0 l/m 4,6 km/h (1 Bft) W-SW 252 0 min 0,000 mm 0,0 UV-I 72 W/m 9,9 C 11,8 C 6,4 km/h (2 Bft) 97,37 %
16.07.2017 06:44 11,8 C 20,6 C 87 % 1023,7 hPa 0,0 l/m 4,0 km/h (1 Bft) W-SW 252 0 min 0,000 mm 0,0 UV-I 73 W/m 9,7 C 11,8 C 6,4 km/h (2 Bft) 100,00 %
16.07.2017 06:46 11,9 C 20,6 C 87 % 1023,7 hPa 0,0 l/m 4,3 km/h (1 Bft) W-SW 252 0 min 0,000 mm 0,0 UV-I 77 W/m 9,8 C 11,9 C 6,4 km/h (2 Bft) 96,23 %
16.07.2017 06:48 11,9 C 20,6 C 88 % 1023,7 hPa 0,0 l/m 4,2 km/h (1 Bft) W-SW 252 0 min 0,000 mm 0,0 UV-I 81 W/m 10,0 C 11,9 C 4,8 km/h (1 Bft) 97,67 %
16.07.2017 06:50 11,9 C 20,6 C 87 % 1023,8 hPa 0,0 l/m 4,0 km/h (1 Bft) W-SW 252 0 min 0,000 mm 0,0 UV-I 83 W/m 9,8 C 11,9 C 4,8 km/h (1 Bft) 93,62 %
16.07.2017 06:52 12,0 C 20,6 C 88 % 1023,8 hPa 0,0 l/m 4,9 km/h (1 Bft) W-SW 252 0 min 0,000 mm 0,0 UV-I 85 W/m 10,1 C 12,0 C 6,4 km/h (2 Bft) 97,22 %
16.07.2017 06:54 12,1 C 20,6 C 87 % 1023,8 hPa 0,0 l/m 4,8 km/h (1 Bft) W-SW 252 0 min 0,000 mm 0,0 UV-I 91 W/m 10,0 C 12,1 C 6,4 km/h (2 Bft) 96,43 %
16.07.2017 06:56 12,1 C 20,6 C 87 % 1023,8 hPa 0,0 l/m 5,2 km/h (1 Bft) W-SW 252 0 min 0,000 mm 0,0 UV-I 96 W/m 10,0 C 12,1 C 8,0 km/h (2 Bft) 98,00 %
16.07.2017 06:58 12,1 C 20,6 C 87 % 1023,8 hPa 0,0 l/m 4,9 km/h (1 Bft) W-SW 252 0 min 0,000 mm 0,0 UV-I 98 W/m 10,0 C 12,1 C 8,0 km/h (2 Bft) 100,00 %
16.07.2017 07:00 12,1 C 20,6 C 87 % 1023,8 hPa 0,0 l/m 2,9 km/h (1 Bft) W-SW 252 0 min 0,026 mm 0,0 UV-I 99 W/m 10,0 C 12,1 C 4,8 km/h (1 Bft) 94,00 %
16.07.2017 07:02 12,1 C 20,6 C 87 % 1023,9 hPa 0,0 l/m 3,0 km/h (1 Bft) W-SW 252 0 min 0,000 mm 0,0 UV-I 103 W/m 10,0 C 12,1 C 4,8 km/h (1 Bft) 98,00 %
16.07.2017 07:04 12,1 C 20,6 C 87 % 1023,8 hPa 0,0 l/m 2,9 km/h (1 Bft) W-SW 252 0 min 0,000 mm 0,0 UV-I 106 W/m 10,0 C 12,1 C 4,8 km/h (1 Bft) 94,74 %
16.07.2017 07:06 12,2 C 20,6 C 87 % 1023,9 hPa 0,0 l/m 3,5 km/h (1 Bft) W-SW 252 0 min 0,000 mm 0,0 UV-I 112 W/m 10,1 C 12,2 C 4,8 km/h (1 Bft) 100,00 %
16.07.2017 07:08 12,1 C 20,6 C 87 % 1023,9 hPa 0,0 l/m 3,2 km/h (1 Bft) W-SW 252 0 min 0,000 mm 0,0 UV-I 120 W/m 10,0 C 12,1 C 4,8 km/h (1 Bft) 97,56 %
16.07.2017 07:10 12,2 C 20,6 C 86 % 1023,9 hPa 0,0 l/m 4,0 km/h (1 Bft) W-SW 252 0 min 0,000 mm 0,0 UV-I 131 W/m 9,9 C 12,2 C 6,4 km/h (2 Bft) 90,57 %
16.07.2017 07:12 12,2 C 20,6 C 87 % 1023,9 hPa 0,0 l/m 2,8 km/h (1 Bft) W-SW 252 0 min 0,000 mm 0,0 UV-I 139 W/m 10,1 C 12,2 C 4,8 km/h (1 Bft) 92,11 %
16.07.2017 07:14 12,2 C 20,6 C 87 % 1023,9 hPa 0,0 l/m 3,4 km/h (1 Bft) W-SW 252 0 min 0,000 mm 0,0 UV-I 151 W/m 10,1 C 12,2 C 6,4 km/h (2 Bft) 96,43 %
16.07.2017 07:16 12,3 C 20,6 C 87 % 1024,0 hPa 0,0 l/m 2,4 km/h (1 Bft) W-SW 252 2 min 0,000 mm 0,0 UV-I 161 W/m 10,2 C 12,3 C 4,8 km/h (1 Bft) 100,00 %
16.07.2017 07:18 12,3 C 20,6 C 86 % 1024,0 hPa 0,0 l/m 3,0 km/h (1 Bft) W-SW 252 2 min 0,000 mm 0,0 UV-I 171 W/m 10,0 C 12,3 C 4,8 km/h (1 Bft) 98,21 %
16.07.2017 07:20 12,4 C 20,6 C 86 % 1024,0 hPa 0,0 l/m 3,2 km/h (1 Bft) W-SW 252 2 min 0,000 mm 0,0 UV-I 172 W/m 10,1 C 12,4 C 4,8 km/h (1 Bft) 97,56 %
16.07.2017 07:22 12,4 C 20,6 C 86 % 1024,0 hPa 0,0 l/m 2,8 km/h (1 Bft) W-SW 252 2 min 0,000 mm 0,0 UV-I 172 W/m 10,1 C 12,4 C 4,8 km/h (1 Bft) 95,74 %
16.07.2017 07:24 12,6 C 20,6 C 86 % 1024,0 hPa 0,0 l/m 3,8 km/h (1 Bft) W-SW 252 2 min 0,000 mm 0,0 UV-I 176 W/m 10,3 C 12,6 C 6,4 km/h (2 Bft) 92,00 %
16.07.2017 07:26 12,7 C 20,6 C 86 % 1024,1 hPa 0,0 l/m 3,3 km/h (1 Bft) W-SW 252 2 min 0,000 mm 0,0 UV-I 179 W/m 10,4 C 12,7 C 6,4 km/h (2 Bft) 100,00 %
16.07.2017 07:28 12,7 C 20,6 C 85 % 1024,1 hPa 0,0 l/m 2,1 km/h (1 Bft) W-SW 252 2 min 0,000 mm 0,0 UV-I 174 W/m 10,2 C 12,7 C 3,2 km/h (1 Bft) 91,49 %
16.07.2017 07:30 12,8 C 20,6 C 85 % 1024,1 hPa 0,0 l/m 2,1 km/h (1 Bft) W-SW 252 0 min 0,000 mm 0,3 UV-I 162 W/m 10,3 C 12,8 C 4,8 km/h (1 Bft) 94,87 %
16.07.2017 07:32 12,8 C 20,6 C 85 % 1024,0 hPa 0,0 l/m 1,4 km/h (1 Bft) W-SW 252 0 min 0,000 mm 0,5 UV-I 152 W/m 10,3 C 12,8 C 3,2 km/h (1 Bft) 95,74 %
16.07.2017 07:34 12,9 C 20,6 C 85 % 1024,1 hPa 0,0 l/m 1,8 km/h (1 Bft) W-SW 252 0 min 0,000 mm 0,5 UV-I 138 W/m 10,4 C 12,9 C 3,2 km/h (1 Bft) 96,00 %
16.07.2017 07:36 12,9 C 20,6 C 84 % 1024,1 hPa 0,0 l/m 2,2 km/h (1 Bft) W-SW 252 0 min 0,000 mm 0,5 UV-I 123 W/m 10,3 C 12,9 C 3,2 km/h (1 Bft) 94,00 %
16.07.2017 07:38 12,9 C 20,6 C 84 % 1024,2 hPa 0,0 l/m 2,0 km/h (1 Bft) W-SW 252 0 min 0,000 mm 0,5 UV-I 107 W/m 10,3 C 12,9 C 4,8 km/h (1 Bft) 97,87 %
16.07.2017 07:40 12,8 C 20,6 C 85 % 1024,2 hPa 0,0 l/m 2,1 km/h (1 Bft) W-SW 252 0 min 0,000 mm 0,5 UV-I 100 W/m 10,3 C 12,8 C 3,2 km/h (1 Bft) 100,00 %
16.07.2017 07:42 12,8 C 20,6 C 85 % 1024,2 hPa 0,0 l/m 0,5 km/h (0 Bft) W-SW 252 0 min 0,000 mm 0,5 UV-I 95 W/m 10,3 C 12,8 C 1,6 km/h (1 Bft) 97,87 %
16.07.2017 07:44 12,8 C 20,6 C 85 % 1024,2 hPa 0,0 l/m 1,5 km/h (1 Bft) W-SW 252 0 min 0,000 mm 0,5 UV-I 94 W/m 10,3 C 12,8 C 4,8 km/h (1 Bft) 97,87 %
16.07.2017 07:46 12,8 C 20,6 C 85 % 1024,2 hPa 0,0 l/m 1,5 km/h (1 Bft) W-SW 252 0 min 0,000 mm 0,5 UV-I 92 W/m 10,3 C 12,8 C 3,2 km/h (1 Bft) 95,74 %
16.07.2017 07:48 12,8 C 20,6 C 85 % 1024,2 hPa 0,0 l/m 1,6 km/h (1 Bft) W-SW 252 0 min 0,000 mm 0,6 UV-I 90 W/m 10,3 C 12,8 C 3,2 km/h (1 Bft) 90,00 %
16.07.2017 07:50 12,9 C 20,6 C 85 % 1024,2 hPa 0,0 l/m 2,8 km/h (1 Bft) W-SW 252 0 min 0,000 mm 0,6 UV-I 89 W/m 10,4 C 12,9 C 4,8 km/h (1 Bft) 98,11 %
16.07.2017 07:52 12,8 C 20,6 C 85 % 1024,2 hPa 0,0 l/m 2,4 km/h (1 Bft) W-SW 252 0 min 0,000 mm 0,6 UV-I 88 W/m 10,3 C 12,8 C 4,8 km/h (1 Bft) 94,74 %
16.07.2017 07:54 12,8 C 20,6 C 85 % 1024,2 hPa 0,0 l/m 2,4 km/h (1 Bft) W-SW 252 0 min 0,000 mm 0,6 UV-I 89 W/m 10,3 C 12,8 C 4,8 km/h (1 Bft) 94,00 %
16.07.2017 07:56 12,8 C 20,6 C 85 % 1024,3 hPa 0,0 l/m 2,4 km/h (1 Bft) W-SW 252 0 min 0,000 mm 0,6 UV-I 94 W/m 10,3 C 12,8 C 3,2 km/h (1 Bft) 92,45 %
16.07.2017 07:58 12,8 C 20,6 C 85 % 1024,3 hPa 0,0 l/m 1,0 km/h (0 Bft) W-SW 252 0 min 0,000 mm 0,6 UV-I 105 W/m 10,3 C 12,8 C 3,2 km/h (1 Bft) 95,74 %
16.07.2017 08:00 12,8 C 20,6 C 85 % 1024,3 hPa 0,0 l/m 2,6 km/h (1 Bft) W-SW 252 0 min 0,076 mm 0,6 UV-I 115 W/m 10,3 C 12,8 C 4,8 km/h (1 Bft) 97,37 %
16.07.2017 08:02 12,9 C 20,6 C 85 % 1024,3 hPa 0,0 l/m 2,0 km/h (1 Bft) W-SW 252 0 min 0,000 mm 0,6 UV-I 130 W/m 10,4 C 12,9 C 3,2 km/h (1 Bft) 93,62 %
16.07.2017 08:04 12,9 C 20,6 C 84 % 1024,3 hPa 0,0 l/m 3,6 km/h (1 Bft) W-SW 252 0 min 0,000 mm 0,7 UV-I 138 W/m 10,3 C 12,9 C 6,4 km/h (2 Bft) 94,00 %
16.07.2017 08:06 12,9 C 20,6 C 84 % 1024,3 hPa 0,0 l/m 4,5 km/h (1 Bft) W-SW 252 0 min 0,000 mm 0,7 UV-I 150 W/m 10,3 C 12,9 C 8,0 km/h (2 Bft) 92,00 %
16.07.2017 08:08 13,1 C 20,6 C 84 % 1024,3 hPa 0,0 l/m 4,5 km/h (1 Bft) W-SW 250 0 min 0,000 mm 0,8 UV-I 167 W/m 10,5 C 13,1 C 8,0 km/h (2 Bft) 95,83 %
16.07.2017 08:10 13,2 C 20,6 C 85 % 1024,3 hPa 0,0 l/m 5,1 km/h (1 Bft) W-SW 250 2 min 0,000 mm 0,9 UV-I 246 W/m 10,7 C 13,2 C 8,0 km/h (2 Bft) 96,92 %
16.07.2017 08:12 13,3 C 20,6 C 84 % 1024,2 hPa 0,0 l/m 5,6 km/h (1 Bft) SW 234 2 min 0,000 mm 0,9 UV-I 246 W/m 10,7 C 13,3 C 8,0 km/h (2 Bft) 91,43 %
16.07.2017 08:14 13,5 C 20,6 C 84 % 1024,3 hPa 0,0 l/m 4,8 km/h (1 Bft) SW 232 2 min 0,000 mm 1,0 UV-I 246 W/m 10,8 C 13,5 C 8,0 km/h (2 Bft) 91,53 %
16.07.2017 08:16 13,8 C 20,6 C 83 % 1024,2 hPa 0,0 l/m 7,1 km/h (2 Bft) W-SW 252 2 min 0,000 mm 1,1 UV-I 496 W/m 11,0 C 13,4 C 11,3 km/h (2 Bft) 98,00 %
16.07.2017 08:18 13,9 C 20,6 C 82 % 1024,3 hPa 0,0 l/m 7,0 km/h (2 Bft) W-SW 240 2 min 0,000 mm 0,9 UV-I 344 W/m 10,9 C 13,5 C 9,7 km/h (2 Bft) 95,74 %
16.07.2017 08:20 13,9 C 20,6 C 81 % 1024,3 hPa 0,0 l/m 6,9 km/h (2 Bft) W-SW 239 0 min 0,000 mm 1,0 UV-I 230 W/m 10,7 C 13,6 C 11,3 km/h (2 Bft) 97,56 %
16.07.2017 08:22 13,9 C 20,6 C 80 % 1024,3 hPa 0,0 l/m 7,6 km/h (2 Bft) W 269 0 min 0,000 mm 0,9 UV-I 164 W/m 10,5 C 13,2 C 11,3 km/h (2 Bft) 100,00 %
16.07.2017 08:24 13,9 C 20,6 C 81 % 1024,3 hPa 0,0 l/m 7,4 km/h (2 Bft) SW 234 0 min 0,000 mm 0,9 UV-I 148 W/m 10,7 C 13,3 C 11,3 km/h (2 Bft) 92,45 %
16.07.2017 08:26 13,9 C 20,6 C 80 % 1024,3 hPa 0,0 l/m 8,3 km/h (2 Bft) S-SW 213 0 min 0,000 mm 1,0 UV-I 224 W/m 10,5 C 12,8 C 11,3 km/h (2 Bft) 98,11 %
16.07.2017 08:28 14,0 C 20,6 C 80 % 1024,3 hPa 0,0 l/m 11,4 km/h (2 Bft) W-SW 242 2 min 0,000 mm 1,1 UV-I 281 W/m 10,6 C 11,4 C 17,7 km/h (3 Bft) 100,00 %
16.07.2017 08:30 14,2 C 20,6 C 81 % 1024,4 hPa 0,0 l/m 5,7 km/h (1 Bft) W 265 2 min 0,000 mm 1,2 UV-I 369 W/m 11,0 C 14,2 C 11,3 km/h (2 Bft) 98,00 %
16.07.2017 08:32 14,4 C 20,6 C 80 % 1024,3 hPa 0,0 l/m 4,8 km/h (1 Bft) W-SW 256 2 min 0,000 mm 1,3 UV-I 514 W/m 11,0 C 14,4 C 6,4 km/h (2 Bft) 92,68 %
16.07.2017 08:34 14,7 C 20,6 C 79 % 1024,3 hPa 0,0 l/m 4,6 km/h (1 Bft) W 267 2 min 0,000 mm 1,3 UV-I 529 W/m 11,1 C 14,7 C 8,0 km/h (2 Bft) 98,46 %
16.07.2017 08:36 14,8 C 20,6 C 77 % 1024,3 hPa 0,0 l/m 2,6 km/h (1 Bft) W 278 2 min 0,000 mm 1,1 UV-I 368 W/m 10,8 C 14,8 C 6,4 km/h (2 Bft) 97,73 %
16.07.2017 08:38 14,8 C 20,6 C 78 % 1024,4 hPa 0,0 l/m 4,3 km/h (1 Bft) W 261 0 min 0,000 mm 1,0 UV-I 148 W/m 11,0 C 14,8 C 11,3 km/h (2 Bft) 96,30 %
16.07.2017 08:40 14,8 C 20,6 C 77 % 1024,3 hPa 0,0 l/m 3,0 km/h (1 Bft) W 271 0 min 0,000 mm 1,1 UV-I 170 W/m 10,8 C 14,8 C 6,4 km/h (2 Bft) 100,00 %
16.07.2017 08:42 14,7 C 20,6 C 77 % 1024,4 hPa 0,0 l/m 3,1 km/h (1 Bft) W 261 0 min 0,000 mm 1,1 UV-I 193 W/m 10,7 C 14,7 C 6,4 km/h (2 Bft) 98,00 %
16.07.2017 08:44 14,6 C 20,6 C 77 % 1024,4 hPa 0,0 l/m 6,3 km/h (2 Bft) W 266 0 min 0,000 mm 1,2 UV-I 216 W/m 10,6 C 14,6 C 9,7 km/h (2 Bft) 94,00 %
16.07.2017 08:46 14,6 C 20,6 C 78 % 1024,4 hPa 0,0 l/m 4,1 km/h (1 Bft) W 259 0 min 0,000 mm 1,2 UV-I 204 W/m 10,8 C 14,6 C 9,7 km/h (2 Bft) 93,62 %
16.07.2017 08:48 14,6 C 20,6 C 78 % 1024,4 hPa 0,0 l/m 2,4 km/h (1 Bft) W 259 0 min 0,000 mm 1,2 UV-I 235 W/m 10,8 C 14,6 C 4,8 km/h (1 Bft) 100,00 %
16.07.2017 08:50 14,7 C 20,6 C 78 % 1024,4 hPa 0,0 l/m 2,7 km/h (1 Bft) W-SW 258 0 min 0,000 mm 1,3 UV-I 247 W/m 10,9 C 14,7 C 4,8 km/h (1 Bft) 100,00 %
16.07.2017 08:52 14,8 C 20,6 C 78 % 1024,4 hPa 0,0 l/m 1,8 km/h (1 Bft) W 277 0 min 0,000 mm 1,3 UV-I 265 W/m 11,0 C 14,8 C 4,8 km/h (1 Bft) 97,56 %
16.07.2017 08:54 14,8 C 20,6 C 77 % 1024,3 hPa 0,0 l/m 0,9 km/h (0 Bft) W 277 0 min 0,000 mm 1,3 UV-I 266 W/m 10,8 C 14,8 C 3,2 km/h (1 Bft) 92,45 %
16.07.2017 08:56 14,9 C 20,6 C 77 % 1024,3 hPa 0,0 l/m 5,7 km/h (1 Bft) W-SW 255 2 min 0,000 mm 1,7 UV-I 363 W/m 10,9 C 14,9 C 11,3 km/h (2 Bft) 100,00 %
16.07.2017 08:58 15,1 C 20,6 C 77 % 1024,3 hPa 0,0 l/m 5,2 km/h (1 Bft) W 260 2 min 0,000 mm 1,6 UV-I 686 W/m 11,1 C 15,1 C 8,0 km/h (2 Bft) 98,00 %
16.07.2017 09:00 15,2 C 20,6 C 76 % 1024,3 hPa 0,0 l/m 4,1 km/h (1 Bft) W 273 0 min 0,152 mm 1,3 UV-I 230 W/m 11,0 C 15,2 C 9,7 km/h (2 Bft) 97,37 %
16.07.2017 09:02 15,2 C 20,6 C 75 % 1024,3 hPa 0,0 l/m 5,3 km/h (1 Bft) W 269 0 min 0,000 mm 1,4 UV-I 210 W/m 10,8 C 15,2 C 11,3 km/h (2 Bft) 94,64 %
16.07.2017 09:04 15,2 C 20,6 C 76 % 1024,3 hPa 0,0 l/m 2,2 km/h (1 Bft) W 269 0 min 0,000 mm 1,6 UV-I 240 W/m 11,0 C 15,2 C 4,8 km/h (1 Bft) 100,00 %
16.07.2017 09:06 15,4 C 20,6 C 76 % 1024,3 hPa 0,0 l/m 3,4 km/h (1 Bft) W 266 2 min 0,000 mm 1,9 UV-I 548 W/m 11,2 C 15,4 C 11,3 km/h (2 Bft) 96,23 %
16.07.2017 09:08 15,6 C 20,6 C 75 % 1024,4 hPa 0,0 l/m 4,2 km/h (1 Bft) S-SW 210 2 min 0,000 mm 2,0 UV-I 563 W/m 11,2 C 15,6 C 6,4 km/h (2 Bft) 94,74 %
16.07.2017 09:10 15,8 C 20,6 C 75 % 1024,4 hPa 0,0 l/m 8,1 km/h (2 Bft) W 280 2 min 0,000 mm 2,0 UV-I 562 W/m 11,4 C 14,9 C 11,3 km/h (2 Bft) 95,74 %
16.07.2017 09:12 16,0 C 20,6 C 75 % 1024,4 hPa 0,0 l/m 5,1 km/h (1 Bft) W-SW 256 2 min 0,000 mm 2,1 UV-I 562 W/m 11,6 C 16,0 C 9,7 km/h (2 Bft) 100,00 %
16.07.2017 09:14 16,1 C 20,6 C 72 % 1024,4 hPa 0,0 l/m 4,5 km/h (1 Bft) W 275 2 min 0,000 mm 2,1 UV-I 566 W/m 11,0 C 16,1 C 9,7 km/h (2 Bft) 94,00 %
16.07.2017 09:16 16,1 C 20,6 C 73 % 1024,3 hPa 0,0 l/m 5,2 km/h (1 Bft) N-NW 333 2 min 0,000 mm 2,1 UV-I 571 W/m 11,3 C 16,1 C 9,7 km/h (2 Bft) 94,00 %
16.07.2017 09:18 16,2 C 20,6 C 72 % 1024,4 hPa 0,0 l/m 3,7 km/h (1 Bft) SW 218 2 min 0,000 mm 2,2 UV-I 576 W/m 11,1 C 16,2 C 8,0 km/h (2 Bft) 94,74 %
16.07.2017 09:20 16,3 C 20,6 C 74 % 1024,3 hPa 0,0 l/m 5,3 km/h (1 Bft) W 262 2 min 0,000 mm 2,3 UV-I 581 W/m 11,7 C 16,3 C 9,7 km/h (2 Bft) 98,11 %
16.07.2017 09:22 16,6 C 20,6 C 72 % 1024,4 hPa 0,0 l/m 6,5 km/h (2 Bft) SW 234 2 min 0,000 mm 2,3 UV-I 585 W/m 11,5 C 16,6 C 9,7 km/h (2 Bft) 92,68 %
16.07.2017 09:24 16,8 C 20,6 C 72 % 1024,4 hPa 0,0 l/m 4,9 km/h (1 Bft) S-SW 205 2 min 0,000 mm 2,4 UV-I 591 W/m 11,7 C 16,8 C 8,0 km/h (2 Bft) 94,00 %
16.07.2017 09:26 16,9 C 20,6 C 72 % 1024,4 hPa 0,0 l/m 2,1 km/h (1 Bft) S-SW 205 2 min 0,000 mm 2,4 UV-I 592 W/m 11,8 C 16,9 C 4,8 km/h (1 Bft) 94,00 %
16.07.2017 09:28 17,1 C 20,6 C 72 % 1024,4 hPa 0,0 l/m 2,7 km/h (1 Bft) S-SW 205 2 min 0,000 mm 2,5 UV-I 594 W/m 12,0 C 17,1 C 4,8 km/h (1 Bft) 94,87 %
16.07.2017 09:30 17,3 C 20,6 C 70 % 1024,4 hPa 0,0 l/m 4,5 km/h (1 Bft) W 259 2 min 0,000 mm 2,5 UV-I 602 W/m 11,8 C 17,3 C 9,7 km/h (2 Bft) 94,55 %
16.07.2017 09:32 17,3 C 20,6 C 70 % 1024,4 hPa 0,0 l/m 4,7 km/h (1 Bft) W-SW 252 2 min 0,000 mm 2,6 UV-I 609 W/m 11,8 C 17,3 C 6,4 km/h (2 Bft) 92,31 %
16.07.2017 09:34 17,3 C 20,6 C 70 % 1024,4 hPa 0,0 l/m 8,4 km/h (2 Bft) SW 215 2 min 0,000 mm 2,6 UV-I 614 W/m 11,8 C 16,3 C 16,1 km/h (3 Bft) 93,62 %
16.07.2017 09:36 17,3 C 20,6 C 70 % 1024,3 hPa 0,0 l/m 7,8 km/h (2 Bft) W-SW 242 2 min 0,000 mm 2,7 UV-I 614 W/m 11,8 C 16,6 C 12,9 km/h (3 Bft) 88,68 %
16.07.2017 09:38 17,4 C 20,6 C 68 % 1024,4 hPa 0,0 l/m 9,7 km/h (2 Bft) W 271 2 min 0,000 mm 2,7 UV-I 622 W/m 11,4 C 15,9 C 16,1 km/h (3 Bft) 100,00 %
16.07.2017 09:40 17,3 C 20,6 C 68 % 1024,3 hPa 0,0 l/m 8,6 km/h (2 Bft) W-NW 299 2 min 0,000 mm 2,8 UV-I 636 W/m 11,3 C 16,2 C 14,5 km/h (3 Bft) 93,22 %
16.07.2017 09:42 17,4 C 20,6 C 69 % 1024,3 hPa 0,0 l/m 7,8 km/h (2 Bft) SW 232 2 min 0,000 mm 2,8 UV-I 637 W/m 11,7 C 16,7 C 14,5 km/h (3 Bft) 93,62 %
16.07.2017 09:44 17,6 C 20,6 C 67 % 1024,3 hPa 0,0 l/m 10,1 km/h (2 Bft) W 268 2 min 0,000 mm 2,8 UV-I 634 W/m 11,4 C 16,0 C 14,5 km/h (3 Bft) 92,00 %
16.07.2017 09:46 17,7 C 20,6 C 67 % 1024,3 hPa 0,0 l/m 6,6 km/h (2 Bft) NW 325 2 min 0,000 mm 2,9 UV-I 640 W/m 11,5 C 17,6 C 14,5 km/h (3 Bft) 95,45 %
16.07.2017 09:48 17,7 C 20,6 C 66 % 1024,3 hPa 0,0 l/m 4,9 km/h (1 Bft) W-SW 241 2 min 0,000 mm 2,9 UV-I 646 W/m 11,3 C 17,7 C 9,7 km/h (2 Bft) 94,74 %
16.07.2017 09:50 17,7 C 20,6 C 66 % 1024,3 hPa 0,0 l/m 7,6 km/h (2 Bft) W 279 2 min 0,000 mm 3,0 UV-I 661 W/m 11,3 C 17,1 C 12,9 km/h (3 Bft) 92,00 %
16.07.2017 09:52 17,7 C 20,6 C 65 % 1024,4 hPa 0,0 l/m 7,5 km/h (2 Bft) SW 216 2 min 0,000 mm 3,1 UV-I 666 W/m 11,0 C 17,2 C 14,5 km/h (3 Bft) 94,00 %
16.07.2017 09:54 17,7 C 20,6 C 65 % 1024,3 hPa 0,0 l/m 6,5 km/h (2 Bft) NW 311 2 min 0,000 mm 3,1 UV-I 668 W/m 11,0 C 17,7 C 12,9 km/h (3 Bft) 87,23 %
16.07.2017 09:56 17,8 C 20,6 C 64 % 1024,4 hPa 0,0 l/m 6,5 km/h (2 Bft) SW 219 2 min 0,000 mm 3,1 UV-I 671 W/m 10,9 C 17,8 C 14,5 km/h (3 Bft) 94,00 %
16.07.2017 09:58 17,8 C 20,6 C 65 % 1024,4 hPa 0,0 l/m 12,4 km/h (3 Bft) W-SW 250 2 min 0,000 mm 3,2 UV-I 683 W/m 11,1 C 15,4 C 19,3 km/h (3 Bft) 94,74 %
16.07.2017 10:00 17,7 C 20,6 C 65 % 1024,3 hPa 0,0 l/m 10,3 km/h (2 Bft) W-NW 286 2 min 0,356 mm 3,3 UV-I 687 W/m 11,0 C 16,0 C 16,1 km/h (3 Bft) 93,18 %
16.07.2017 10:02 17,7 C 20,6 C 66 % 1024,4 hPa 0,0 l/m 5,7 km/h (1 Bft) W-SW 246 2 min 0,000 mm 3,3 UV-I 694 W/m 11,3 C 17,7 C 11,3 km/h (2 Bft) 88,68 %
16.07.2017 10:04 17,8 C 20,6 C 64 % 1024,3 hPa 0,0 l/m 4,4 km/h (1 Bft) S-SW 200 2 min 0,000 mm 3,4 UV-I 708 W/m 10,9 C 17,8 C 9,7 km/h (2 Bft) 92,45 %
16.07.2017 10:06 18,1 C 20,6 C 66 % 1024,3 hPa 0,0 l/m 6,9 km/h (2 Bft) W-SW 248 2 min 0,000 mm 3,5 UV-I 722 W/m 11,6 C 17,9 C 11,3 km/h (2 Bft) 90,91 %
16.07.2017 10:08 18,3 C 20,6 C 63 % 1024,3 hPa 0,0 l/m 6,9 km/h (2 Bft) SW 223 2 min 0,000 mm 3,4 UV-I 722 W/m 11,1 C 18,1 C 12,9 km/h (3 Bft) 90,00 %
16.07.2017 10:10 18,2 C 20,6 C 62 % 1024,3 hPa 0,0 l/m 9,2 km/h (2 Bft) SW 224 2 min 0,000 mm 3,5 UV-I 723 W/m 10,8 C 17,0 C 12,9 km/h (3 Bft) 89,74 %
16.07.2017 10:12 18,2 C 20,6 C 62 % 1024,4 hPa 0,0 l/m 6,8 km/h (2 Bft) SW 236 2 min 0,000 mm 3,6 UV-I 732 W/m 10,8 C 18,0 C 14,5 km/h (3 Bft) 90,57 %
16.07.2017 10:14 18,3 C 20,6 C 63 % 1024,4 hPa 0,0 l/m 4,5 km/h (1 Bft) W 276 2 min 0,000 mm 3,7 UV-I 745 W/m 11,1 C 18,3 C 6,4 km/h (2 Bft) 97,87 %
16.07.2017 10:16 18,3 C 20,6 C 63 % 1024,3 hPa 0,0 l/m 4,0 km/h (1 Bft) N-NW 340 2 min 0,000 mm 3,7 UV-I 756 W/m 11,1 C 18,3 C 9,7 km/h (2 Bft) 100,00 %
16.07.2017 10:18 18,3 C 20,6 C 63 % 1024,3 hPa 0,0 l/m 4,9 km/h (1 Bft) NW 326 2 min 0,000 mm 3,7 UV-I 767 W/m 11,1 C 18,3 C 12,9 km/h (3 Bft) 92,11 %
16.07.2017 10:20 18,6 C 20,6 C 64 % 1024,3 hPa 0,0 l/m 4,4 km/h (1 Bft) N 9 2 min 0,000 mm 3,8 UV-I 772 W/m 11,7 C 18,6 C 12,9 km/h (3 Bft) 92,45 %
16.07.2017 10:22 18,8 C 20,6 C 64 % 1024,3 hPa 0,0 l/m 3,7 km/h (1 Bft) N-NO 18 2 min 0,000 mm 3,8 UV-I 774 W/m 11,8 C 18,8 C 6,4 km/h (2 Bft) 93,62 %
16.07.2017 10:24 18,9 C 20,6 C 64 % 1024,4 hPa 0,0 l/m 4,8 km/h (1 Bft) NW 324 2 min 0,000 mm 3,9 UV-I 782 W/m 11,9 C 18,9 C 12,9 km/h (3 Bft) 95,74 %
16.07.2017 10:26 18,7 C 20,6 C 61 % 1024,3 hPa 0,0 l/m 1,5 km/h (1 Bft) NW 325 2 min 0,000 mm 4,0 UV-I 794 W/m 11,0 C 18,7 C 4,8 km/h (1 Bft) 100,00 %
16.07.2017 10:28 18,7 C 20,6 C 63 % 1024,3 hPa 0,0 l/m 3,5 km/h (1 Bft) W-NW 293 2 min 0,000 mm 4,1 UV-I 832 W/m 11,5 C 18,7 C 8,0 km/h (2 Bft) 100,00 %
16.07.2017 10:30 18,8 C 20,6 C 63 % 1024,3 hPa 0,0 l/m 6,1 km/h (2 Bft) W 262 2 min 0,000 mm 4,1 UV-I 835 W/m 11,6 C 18,8 C 16,1 km/h (3 Bft) 100,00 %
16.07.2017 10:32 18,6 C 20,6 C 63 % 1024,2 hPa 0,0 l/m 3,9 km/h (1 Bft) W 279 2 min 0,000 mm 3,7 UV-I 868 W/m 11,4 C 18,6 C 6,4 km/h (2 Bft) 100,00 %
16.07.2017 10:34 18,5 C 20,6 C 62 % 1024,2 hPa 0,0 l/m 4,0 km/h (1 Bft) N 355 2 min 0,000 mm 3,5 UV-I 868 W/m 11,1 C 18,5 C 12,9 km/h (3 Bft) 100,00 %
16.07.2017 10:36 18,5 C 20,6 C 63 % 1024,3 hPa 0,0 l/m 5,4 km/h (1 Bft) N-NW 336 2 min 0,000 mm 3,9 UV-I 873 W/m 11,3 C 18,5 C 12,9 km/h (3 Bft) 94,00 %
16.07.2017 10:38 18,3 C 21,1 C 63 % 1024,2 hPa 0,0 l/m 2,0 km/h (1 Bft) S-SO 151 2 min 0,000 mm 3,2 UV-I 877 W/m 11,1 C 18,3 C 3,2 km/h (1 Bft) 96,00 %
16.07.2017 10:40 18,5 C 20,6 C 63 % 1024,3 hPa 0,0 l/m 6,3 km/h (2 Bft) W-SW 254 2 min 0,000 mm 4,1 UV-I 793 W/m 11,3 C 18,5 C 14,5 km/h (3 Bft) 94,00 %
16.07.2017 10:42 18,4 C 20,6 C 60 % 1024,3 hPa 0,0 l/m 7,9 km/h (2 Bft) SW 223 0 min 0,000 mm 2,4 UV-I 146 W/m 10,5 C 17,7 C 12,9 km/h (3 Bft) 97,37 %
16.07.2017 10:44 18,1 C 20,6 C 60 % 1024,2 hPa 0,0 l/m 1,5 km/h (1 Bft) SW 223 0 min 0,000 mm 2,9 UV-I 148 W/m 10,2 C 18,1 C 4,8 km/h (1 Bft) 96,23 %
16.07.2017 10:46 18,2 C 20,6 C 63 % 1024,2 hPa 0,0 l/m 4,0 km/h (1 Bft) NW 313 2 min 0,000 mm 4,4 UV-I 523 W/m 11,0 C 18,2 C 14,5 km/h (3 Bft) 97,44 %
16.07.2017 10:48 18,4 C 20,6 C 63 % 1024,2 hPa 0,0 l/m 8,8 km/h (2 Bft) NW 325 2 min 0,000 mm 4,6 UV-I 847 W/m 11,2 C 17,3 C 20,9 km/h (4 Bft) 100,00 %
16.07.2017 10:50 18,8 C 20,6 C 63 % 1024,1 hPa 0,0 l/m 5,0 km/h (1 Bft) W-NW 294 2 min 0,000 mm 4,7 UV-I 860 W/m 11,6 C 18,8 C 9,7 km/h (2 Bft) 90,48 %
16.07.2017 10:52 19,1 C 20,6 C 62 % 1024,2 hPa 0,0 l/m 6,8 km/h (2 Bft) N 360 2 min 0,000 mm 4,7 UV-I 865 W/m 11,6 C 18,9 C 14,5 km/h (3 Bft) 98,11 %
16.07.2017 10:54 19,2 C 20,6 C 59 % 1024,1 hPa 0,0 l/m 7,4 km/h (2 Bft) N-NW 327 2 min 0,000 mm 4,7 UV-I 879 W/m 11,0 C 18,8 C 14,5 km/h (3 Bft) 96,00 %
16.07.2017 10:56 19,1 C 20,6 C 58 % 1024,1 hPa 0,0 l/m 4,6 km/h (1 Bft) W 259 2 min 0,000 mm 4,8 UV-I 898 W/m 10,6 C 19,1 C 8,0 km/h (2 Bft) 94,74 %
16.07.2017 10:58 19,2 C 20,6 C 59 % 1024,1 hPa 0,0 l/m 4,4 km/h (1 Bft) W-SW 258 2 min 0,000 mm 4,9 UV-I 900 W/m 11,0 C 19,2 C 9,7 km/h (2 Bft) 92,45 %
16.07.2017 11:00 19,4 C 20,6 C 61 % 1024,1 hPa 0,0 l/m 2,4 km/h (1 Bft) N-NO 27 2 min 0,000 mm 4,9 UV-I 926 W/m 11,7 C 19,4 C 6,4 km/h (2 Bft) 97,14 %
16.07.2017 11:02 19,7 C 20,6 C 58 % 1024,0 hPa 0,0 l/m 3,7 km/h (1 Bft) SW 224 2 min 0,432 mm 3,7 UV-I 933 W/m 11,2 C 19,7 C 11,3 km/h (2 Bft) 97,73 %
16.07.2017 11:04 19,5 C 20,6 C 57 % 1024,0 hPa 0,0 l/m 4,8 km/h (1 Bft) SW 234 0 min 0,000 mm 3,2 UV-I 348 W/m 10,8 C 19,5 C 11,3 km/h (2 Bft) 98,11 %
16.07.2017 11:06 19,3 C 20,6 C 59 % 1024,0 hPa 0,0 l/m 4,9 km/h (1 Bft) S-SW 204 0 min 0,000 mm 3,2 UV-I 230 W/m 11,1 C 19,3 C 9,7 km/h (2 Bft) 98,00 %
16.07.2017 11:08 19,2 C 21,1 C 58 % 1024,0 hPa 0,0 l/m 5,5 km/h (1 Bft) W 267 0 min 0,000 mm 4,0 UV-I 334 W/m 10,7 C 19,2 C 9,7 km/h (2 Bft) 95,74 %
16.07.2017 11:10 19,3 C 21,1 C 55 % 1024,0 hPa 0,0 l/m 5,9 km/h (2 Bft) W-NW 294 2 min 0,000 mm 5,1 UV-I 893 W/m 10,0 C 19,3 C 11,3 km/h (2 Bft) 94,34 %
16.07.2017 11:12 19,3 C 21,1 C 57 % 1024,0 hPa 0,0 l/m 4,1 km/h (1 Bft) W-NW 284 2 min 0,000 mm 5,2 UV-I 882 W/m 10,6 C 19,3 C 8,0 km/h (2 Bft) 94,74 %
16.07.2017 11:14 19,4 C 21,1 C 55 % 1024,0 hPa 0,0 l/m 7,5 km/h (2 Bft) W-NW 286 2 min 0,000 mm 5,1 UV-I 868 W/m 10,1 C 18,9 C 16,1 km/h (3 Bft) 96,23 %
16.07.2017 11:16 19,5 C 21,1 C 54 % 1024,0 hPa 0,0 l/m 6,1 km/h (2 Bft) W 275 2 min 0,000 mm 5,3 UV-I 885 W/m 9,9 C 19,5 C 11,3 km/h (2 Bft) 97,56 %
16.07.2017 11:18 19,6 C 21,1 C 56 % 1023,9 hPa 0,0 l/m 4,9 km/h (1 Bft) N 11 2 min 0,000 mm 5,2 UV-I 896 W/m 10,6 C 19,6 C 14,5 km/h (3 Bft) 96,00 %
16.07.2017 11:20 19,7 C 21,1 C 55 % 1023,9 hPa 0,0 l/m 4,0 km/h (1 Bft) W 280 2 min 0,000 mm 5,2 UV-I 859 W/m 10,4 C 19,7 C 11,3 km/h (2 Bft) 93,62 %
16.07.2017 11:22 19,8 C 21,1 C 57 % 1023,9 hPa 0,0 l/m 1,8 km/h (1 Bft) NW 323 2 min 0,000 mm 4,8 UV-I 782 W/m 11,0 C 19,8 C 3,2 km/h (1 Bft) 96,23 %
16.07.2017 11:24 19,9 C 21,1 C 54 % 1024,0 hPa 0,0 l/m 5,5 km/h (1 Bft) W 278 0 min 0,000 mm 4,0 UV-I 378 W/m 10,3 C 19,9 C 17,7 km/h (3 Bft) 100,00 %
16.07.2017 11:26 20,0 C 21,1 C 54 % 1024,0 hPa 0,0 l/m 9,1 km/h (2 Bft) W-SW 238 2 min 0,000 mm 4,5 UV-I 813 W/m 10,4 C 18,9 C 16,1 km/h (3 Bft) 98,08 %
16.07.2017 11:28 19,9 C 21,1 C 53 % 1024,0 hPa 0,0 l/m 11,6 km/h (2 Bft) W-SW 244 2 min 0,000 mm 5,5 UV-I 889 W/m 10,0 C 18,0 C 17,7 km/h (3 Bft) 97,62 %
16.07.2017 11:30 19,8 C 21,1 C 53 % 1024,0 hPa 0,0 l/m 13,1 km/h (3 Bft) W 265 2 min 0,000 mm 5,7 UV-I 926 W/m 9,9 C 17,5 C 19,3 km/h (3 Bft) 96,00 %
16.07.2017 11:32 19,8 C 21,1 C 53 % 1023,9 hPa 0,0 l/m 10,2 km/h (2 Bft) SW 236 2 min 0,000 mm 5,7 UV-I 929 W/m 9,9 C 18,4 C 17,7 km/h (3 Bft) 97,56 %
16.07.2017 11:34 20,0 C 21,1 C 54 % 1023,9 hPa 0,0 l/m 5,5 km/h (1 Bft) N 360 2 min 0,000 mm 5,7 UV-I 918 W/m 10,4 C 20,0 C 12,9 km/h (3 Bft) 95,74 %
16.07.2017 11:36 20,2 C 21,1 C 55 % 1024,0 hPa 0,0 l/m 3,2 km/h (1 Bft) W-NW 290 2 min 0,000 mm 5,8 UV-I 924 W/m 10,9 C 20,2 C 12,9 km/h (3 Bft) 97,87 %
16.07.2017 11:38 20,4 C 21,1 C 52 % 1024,0 hPa 0,0 l/m 5,5 km/h (1 Bft) W-SW 246 2 min 0,000 mm 5,8 UV-I 965 W/m 10,2 C 20,4 C 14,5 km/h (3 Bft) 96,43 %
16.07.2017 11:40 20,4 C 21,1 C 52 % 1024,0 hPa 0,0 l/m 11,6 km/h (2 Bft) W-SW 248 2 min 0,000 mm 5,8 UV-I 993 W/m 10,2 C 18,6 C 17,7 km/h (3 Bft) 95,45 %
16.07.2017 11:42 20,4 C 21,1 C 52 % 1023,9 hPa 0,0 l/m 3,6 km/h (1 Bft) W-NW 298 2 min 0,000 mm 6,0 UV-I 1012 W/m 10,2 C 20,4 C 6,4 km/h (2 Bft) 97,37 %
16.07.2017 11:44 20,6 C 21,1 C 51 % 1023,9 hPa 0,0 l/m 5,8 km/h (2 Bft) S-SW 194 2 min 0,000 mm 6,1 UV-I 1054 W/m 10,1 C 20,6 C 11,3 km/h (2 Bft) 94,64 %
16.07.2017 11:46 20,8 C 21,1 C 52 % 1023,9 hPa 0,0 l/m 4,8 km/h (1 Bft) W 279 2 min 0,000 mm 6,3 UV-I 1108 W/m 10,6 C 20,8 C 9,7 km/h (2 Bft) 92,68 %
16.07.2017 11:48 20,9 C 21,1 C 49 % 1023,9 hPa 0,0 l/m 12,3 km/h (3 Bft) SW 227 2 min 0,000 mm 5,1 UV-I 1109 W/m 9,8 C 19,0 C 17,7 km/h (3 Bft) 94,34 %
16.07.2017 11:50 20,7 C 21,1 C 50 % 1023,9 hPa 0,0 l/m 9,0 km/h (2 Bft) W 263 2 min 0,000 mm 4,4 UV-I 648 W/m 9,9 C 19,7 C 14,5 km/h (3 Bft) 97,56 %
16.07.2017 11:52 20,3 C 21,1 C 50 % 1023,9 hPa 0,0 l/m 4,6 km/h (1 Bft) N 355 2 min 0,000 mm 4,0 UV-I 468 W/m 9,5 C 20,3 C 9,7 km/h (2 Bft) 92,86 %
16.07.2017 11:54 20,3 C 21,1 C 52 % 1023,9 hPa 0,0 l/m 7,8 km/h (2 Bft) SW 223 0 min 0,000 mm 4,9 UV-I 450 W/m 10,1 C 19,7 C 17,7 km/h (3 Bft) 91,43 %
16.07.2017 11:56 20,3 C 21,1 C 51 % 1023,9 hPa 0,0 l/m 5,8 km/h (2 Bft) W 270 2 min 0,000 mm 4,9 UV-I 550 W/m 9,8 C 20,3 C 9,7 km/h (2 Bft) 94,64 %
16.07.2017 11:58 20,2 C 21,1 C 52 % 1023,8 hPa 0,0 l/m 13,9 km/h (3 Bft) SW 233 2 min 0,000 mm 4,6 UV-I 499 W/m 10,0 C 17,8 C 20,9 km/h (4 Bft) 97,56 %
16.07.2017 12:00 20,3 C 21,1 C 52 % 1023,8 hPa 0,0 l/m 13,4 km/h (3 Bft) S-SW 213 2 min 0,000 mm 6,2 UV-I 1097 W/m 10,1 C 18,0 C 19,3 km/h (3 Bft) 96,23 %
16.07.2017 12:02 20,5 C 21,1 C 51 % 1023,8 hPa 0,0 l/m 7,8 km/h (2 Bft) SW 234 2 min 0,482 mm 5,1 UV-I 726 W/m 10,0 C 20,0 C 12,9 km/h (3 Bft) 97,73 %
16.07.2017 12:04 20,5 C 21,1 C 52 % 1023,8 hPa 0,0 l/m 12,4 km/h (3 Bft) SW 224 2 min 0,000 mm 4,1 UV-I 605 W/m 10,3 C 18,5 C 16,1 km/h (3 Bft) 97,87 %
16.07.2017 12:06 20,4 C 21,1 C 51 % 1023,8 hPa 0,0 l/m 9,4 km/h (2 Bft) W-SW 254 0 min 0,000 mm 4,0 UV-I 452 W/m 9,9 C 19,3 C 16,1 km/h (3 Bft) 93,75 %
16.07.2017 12:08 20,3 C 21,1 C 50 % 1023,8 hPa 0,0 l/m 4,2 km/h (1 Bft) SW 227 0 min 0,000 mm 3,8 UV-I 335 W/m 9,5 C 20,3 C 9,7 km/h (2 Bft) 91,49 %
16.07.2017 12:10 20,1 C 21,1 C 51 % 1023,8 hPa 0,0 l/m 5,2 km/h (1 Bft) NW 326 0 min 0,000 mm 4,4 UV-I 331 W/m 9,6 C 20,1 C 9,7 km/h (2 Bft) 97,56 %
16.07.2017 12:12 20,3 C 21,1 C 54 % 1023,8 hPa 0,0 l/m 4,9 km/h (1 Bft) N-NO 22 2 min 0,000 mm 6,3 UV-I 649 W/m 10,7 C 20,3 C 14,5 km/h (3 Bft) 100,00 %
16.07.2017 12:14 20,8 C 21,1 C 53 % 1023,8 hPa 0,0 l/m 4,8 km/h (1 Bft) N-NW 338 2 min 0,000 mm 6,6 UV-I 1081 W/m 10,9 C 20,8 C 8,0 km/h (2 Bft) 97,37 %
16.07.2017 12:16 21,2 C 21,1 C 52 % 1023,8 hPa 0,0 l/m 7,1 km/h (2 Bft) W-NW 297 2 min 0,000 mm 6,6 UV-I 1090 W/m 10,9 C 20,9 C 14,5 km/h (3 Bft) 98,21 %
16.07.2017 12:18 21,2 C 21,1 C 49 % 1023,8 hPa 0,0 l/m 2,2 km/h (1 Bft) NO 34 2 min 0,000 mm 5,6 UV-I 1114 W/m 10,1 C 21,2 C 6,4 km/h (2 Bft) 97,87 %
16.07.2017 12:20 21,0 C 21,1 C 50 % 1023,8 hPa 0,0 l/m 4,2 km/h (1 Bft) W-NW 296 0 min 0,000 mm 3,9 UV-I 355 W/m 10,2 C 21,0 C 9,7 km/h (2 Bft) 90,24 %
16.07.2017 12:22 20,9 C 21,1 C 50 % 1023,8 hPa 0,0 l/m 1,4 km/h (1 Bft) N-NW 327 0 min 0,000 mm 3,9 UV-I 374 W/m 10,1 C 20,9 C 4,8 km/h (1 Bft) 96,00 %
16.07.2017 12:24 20,8 C 21,1 C 49 % 1023,8 hPa 0,0 l/m 5,2 km/h (1 Bft) N 355 0 min 0,000 mm 5,2 UV-I 400 W/m 9,7 C 20,8 C 11,3 km/h (2 Bft) 97,37 %
16.07.2017 12:26 20,7 C 21,1 C 50 % 1023,8 hPa 0,0 l/m 5,0 km/h (1 Bft) NW 318 2 min 0,000 mm 4,8 UV-I 569 W/m 9,9 C 20,7 C 9,7 km/h (2 Bft) 94,34 %
16.07.2017 12:28 20,8 C 21,1 C 52 % 1023,8 hPa 0,0 l/m 3,8 km/h (1 Bft) W-NW 295 2 min 0,000 mm 6,1 UV-I 829 W/m 10,6 C 20,8 C 9,7 km/h (2 Bft) 96,23 %
16.07.2017 12:30 21,2 C 21,1 C 49 % 1023,7 hPa 0,0 l/m 4,5 km/h (1 Bft) NW 319 2 min 0,000 mm 6,4 UV-I 911 W/m 10,1 C 21,2 C 12,9 km/h (3 Bft) 97,56 %
16.07.2017 12:32 21,2 C 21,1 C 46 % 1023,7 hPa 0,0 l/m 5,0 km/h (1 Bft) NW 322 2 min 0,000 mm 4,4 UV-I 755 W/m 9,1 C 21,2 C 11,3 km/h (2 Bft) 98,00 %
16.07.2017 12:34 20,9 C 21,1 C 48 % 1023,7 hPa 0,0 l/m 5,3 km/h (1 Bft) W-NW 292 2 min 0,000 mm 5,1 UV-I 504 W/m 9,5 C 20,9 C 12,9 km/h (3 Bft) 93,62 %
16.07.2017 12:36 20,9 C 21,1 C 48 % 1023,7 hPa 0,0 l/m 7,6 km/h (2 Bft) W-NW 300 2 min 0,000 mm 5,1 UV-I 504 W/m 9,5 C 20,4 C 16,1 km/h (3 Bft) 97,37 %
16.07.2017 12:38 20,7 C 21,1 C 48 % 1023,7 hPa 0,0 l/m 4,2 km/h (1 Bft) N-NW 328 2 min 0,000 mm 4,4 UV-I 499 W/m 9,3 C 20,7 C 11,3 km/h (2 Bft) 98,21 %
16.07.2017 12:40 20,6 C 21,1 C 48 % 1023,7 hPa 0,0 l/m 3,3 km/h (1 Bft) N-NW 327 0 min 0,000 mm 4,2 UV-I 451 W/m 9,2 C 20,6 C 6,4 km/h (2 Bft) 97,44 %
16.07.2017 12:42 20,4 C 21,1 C 49 % 1023,7 hPa 0,0 l/m 7,2 km/h (2 Bft) N-NW 340 0 min 0,000 mm 4,2 UV-I 433 W/m 9,3 C 20,1 C 14,5 km/h (3 Bft) 100,00 %
16.07.2017 12:44 20,8 C 21,1 C 56 % 1023,7 hPa 0,0 l/m 3,6 km/h (1 Bft) NW 306 0 min 0,000 mm 6,6 UV-I 446 W/m 11,7 C 20,8 C 8,0 km/h (2 Bft) 100,00 %
16.07.2017 12:46 21,0 C 21,1 C 48 % 1023,7 hPa 0,0 l/m 3,0 km/h (1 Bft) NW 319 0 min 0,000 mm 6,0 UV-I 446 W/m 9,6 C 21,0 C 8,0 km/h (2 Bft) 98,00 %
16.07.2017 12:48 21,0 C 21,1 C 45 % 1023,6 hPa 0,0 l/m 3,4 km/h (1 Bft) W 279 0 min 0,000 mm 5,8 UV-I 446 W/m 8,6 C 21,0 C 9,7 km/h (2 Bft) 94,34 %
16.07.2017 12:50 21,0 C 21,1 C 48 % 1023,6 hPa 0,0 l/m 2,4 km/h (1 Bft) NW 309 2 min 0,000 mm 6,3 UV-I 601 W/m 9,6 C 21,0 C 6,4 km/h (2 Bft) 100,00 %
16.07.2017 12:52 21,3 C 21,1 C 49 % 1023,6 hPa 0,0 l/m 5,9 km/h (2 Bft) W-NW 289 2 min 0,000 mm 6,9 UV-I 1071 W/m 10,1 C 21,3 C 11,3 km/h (2 Bft) 96,00 %
16.07.2017 12:54 21,6 C 21,7 C 50 % 1023,5 hPa 0,0 l/m 8,2 km/h (2 Bft) W 263 2 min 0,000 mm 6,9 UV-I 1051 W/m 10,7 C 21,0 C 14,5 km/h (3 Bft) 97,56 %
16.07.2017 12:56 21,6 C 21,1 C 46 % 1023,5 hPa 0,0 l/m 7,0 km/h (2 Bft) W-SW 255 2 min 0,000 mm 6,7 UV-I 1032 W/m 9,5 C 21,4 C 16,1 km/h (3 Bft) 96,23 %
16.07.2017 12:58 21,6 C 21,7 C 48 % 1023,4 hPa 0,0 l/m 8,4 km/h (2 Bft) SW 224 2 min 0,000 mm 6,7 UV-I 982 W/m 10,1 C 20,9 C 14,5 km/h (3 Bft) 94,00 %
16.07.2017 13:00 21,7 C 21,7 C 49 % 1023,5 hPa 0,0 l/m 2,2 km/h (1 Bft) W-NW 303 2 min 0,483 mm 6,4 UV-I 970 W/m 10,5 C 21,7 C 4,8 km/h (1 Bft) 93,62 %
16.07.2017 13:02 21,9 C 21,7 C 47 % 1023,5 hPa 0,0 l/m 2,8 km/h (1 Bft) W 267 2 min 0,000 mm 6,5 UV-I 927 W/m 10,1 C 21,9 C 9,7 km/h (2 Bft) 97,37 %
16.07.2017 13:04 21,9 C 21,7 C 46 % 1023,4 hPa 0,0 l/m 6,2 km/h (2 Bft) N-NO 22 2 min 0,000 mm 6,6 UV-I 950 W/m 9,7 C 21,9 C 14,5 km/h (3 Bft) 97,87 %
16.07.2017 13:06 21,8 C 21,7 C 44 % 1023,4 hPa 0,0 l/m 5,1 km/h (1 Bft) NW 306 2 min 0,000 mm 6,7 UV-I 969 W/m 9,0 C 21,8 C 16,1 km/h (3 Bft) 95,12 %
16.07.2017 13:08 21,8 C 21,7 C 46 % 1023,4 hPa 0,0 l/m 6,3 km/h (2 Bft) W 271 2 min 0,000 mm 6,6 UV-I 964 W/m 9,7 C 21,8 C 12,9 km/h (3 Bft) 96,36 %
16.07.2017 13:10 21,8 C 21,7 C 47 % 1023,4 hPa 0,0 l/m 7,7 km/h (2 Bft) W-SW 255 2 min 0,000 mm 6,5 UV-I 956 W/m 10,0 C 21,3 C 14,5 km/h (3 Bft) 95,12 %
16.07.2017 13:12 21,8 C 21,7 C 47 % 1023,4 hPa 0,0 l/m 4,2 km/h (1 Bft) W 259 2 min 0,000 mm 6,5 UV-I 910 W/m 10,0 C 21,8 C 9,7 km/h (2 Bft) 96,43 %
16.07.2017 13:14 21,9 C 21,7 C 45 % 1023,4 hPa 0,0 l/m 2,7 km/h (1 Bft) W-SW 257 2 min 0,000 mm 6,4 UV-I 825 W/m 9,4 C 21,9 C 8,0 km/h (2 Bft) 98,00 %
16.07.2017 13:16 21,8 C 21,7 C 46 % 1023,3 hPa 0,0 l/m 3,3 km/h (1 Bft) O 84 2 min 0,000 mm 6,4 UV-I 931 W/m 9,7 C 21,8 C 4,8 km/h (1 Bft) 97,56 %
16.07.2017 13:18 21,9 C 21,7 C 48 % 1023,3 hPa 0,0 l/m 5,5 km/h (1 Bft) NW 320 2 min 0,000 mm 6,5 UV-I 943 W/m 10,4 C 21,9 C 9,7 km/h (2 Bft) 97,87 %
16.07.2017 13:20 22,0 C 21,7 C 46 % 1023,3 hPa 0,0 l/m 3,0 km/h (1 Bft) NW 320 2 min 0,000 mm 6,5 UV-I 942 W/m 9,8 C 22,0 C 9,7 km/h (2 Bft) 92,00 %
16.07.2017 13:22 22,2 C 21,7 C 46 % 1023,3 hPa 0,0 l/m 9,5 km/h (2 Bft) S-SW 210 2 min 0,000 mm 6,1 UV-I 938 W/m 10,0 C 21,2 C 17,7 km/h (3 Bft) 97,62 %
16.07.2017 13:24 22,1 C 21,7 C 46 % 1023,3 hPa 0,0 l/m 8,7 km/h (2 Bft) W-SW 244 2 min 0,000 mm 6,5 UV-I 934 W/m 9,9 C 21,3 C 14,5 km/h (3 Bft) 93,18 %
16.07.2017 13:26 22,2 C 21,7 C 45 % 1023,3 hPa 0,0 l/m 7,1 km/h (2 Bft) W 273 2 min 0,000 mm 6,5 UV-I 941 W/m 9,7 C 22,0 C 12,9 km/h (3 Bft) 95,45 %
16.07.2017 13:28 22,1 C 21,7 C 46 % 1023,2 hPa 0,0 l/m 6,7 km/h (2 Bft) W-SW 258 2 min 0,000 mm 6,5 UV-I 943 W/m 9,9 C 22,0 C 11,3 km/h (2 Bft) 94,44 %
16.07.2017 13:30 22,1 C 21,7 C 45 % 1023,3 hPa 0,0 l/m 11,8 km/h (2 Bft) SW 234 2 min 0,000 mm 6,6 UV-I 956 W/m 9,6 C 20,5 C 19,3 km/h (3 Bft) 94,34 %
16.07.2017 13:32 22,2 C 21,7 C 44 % 1023,2 hPa 0,0 l/m 11,7 km/h (2 Bft) S-SW 201 2 min 0,000 mm 5,9 UV-I 971 W/m 9,4 C 20,6 C 17,7 km/h (3 Bft) 95,74 %
16.07.2017 13:34 22,1 C 21,7 C 44 % 1023,1 hPa 0,0 l/m 9,4 km/h (2 Bft) S-SW 213 2 min 0,000 mm 6,5 UV-I 980 W/m 9,3 C 21,1 C 16,1 km/h (3 Bft) 92,68 %
16.07.2017 13:36 22,0 C 21,7 C 44 % 1023,1 hPa 0,0 l/m 8,0 km/h (2 Bft) W-SW 252 2 min 0,000 mm 6,6 UV-I 995 W/m 9,2 C 21,5 C 16,1 km/h (3 Bft) 95,45 %
16.07.2017 13:38 22,0 C 21,7 C 44 % 1023,2 hPa 0,0 l/m 6,7 km/h (2 Bft) W 273 2 min 0,000 mm 6,5 UV-I 1016 W/m 9,2 C 21,9 C 16,1 km/h (3 Bft) 95,12 %
16.07.2017 13:40 21,9 C 21,7 C 45 % 1023,1 hPa 0,0 l/m 11,0 km/h (2 Bft) W 274 2 min 0,000 mm 6,4 UV-I 1036 W/m 9,4 C 20,5 C 17,7 km/h (3 Bft) 90,91 %
16.07.2017 13:42 22,2 C 21,7 C 44 % 1023,1 hPa 0,0 l/m 10,4 km/h (2 Bft) W 277 2 min 0,000 mm 6,4 UV-I 1044 W/m 9,4 C 21,0 C 16,1 km/h (3 Bft) 90,00 %
16.07.2017 13:44 22,1 C 21,7 C 43 % 1023,1 hPa 0,0 l/m 6,1 km/h (2 Bft) N 351 2 min 0,000 mm 4,8 UV-I 1018 W/m 8,9 C 22,1 C 11,3 km/h (2 Bft) 96,23 %
16.07.2017 13:46 21,9 C 21,7 C 44 % 1023,2 hPa 0,0 l/m 12,2 km/h (2 Bft) W-NW 283 2 min 0,000 mm 4,0 UV-I 481 W/m 9,1 C 20,2 C 19,3 km/h (3 Bft) 88,57 %
16.07.2017 13:48 21,8 C 21,7 C 43 % 1023,0 hPa 0,0 l/m 8,2 km/h (2 Bft) SW 234 2 min 0,000 mm 5,3 UV-I 568 W/m 8,7 C 21,2 C 12,9 km/h (3 Bft) 95,45 %
16.07.2017 13:50 21,8 C 21,7 C 43 % 1023,0 hPa 0,0 l/m 13,8 km/h (3 Bft) S-SW 202 2 min 0,000 mm 4,1 UV-I 568 W/m 8,7 C 19,7 C 22,5 km/h (4 Bft) 93,10 %
16.07.2017 13:52 21,8 C 21,7 C 44 % 1023,0 hPa 0,0 l/m 7,0 km/h (2 Bft) W 279 2 min 0,000 mm 5,8 UV-I 703 W/m 9,0 C 21,6 C 12,9 km/h (3 Bft) 93,55 %
16.07.2017 13:54 22,0 C 21,7 C 44 % 1022,9 hPa 0,0 l/m 4,1 km/h (1 Bft) SW 230 2 min 0,000 mm 6,5 UV-I 1019 W/m 9,2 C 22,0 C 11,3 km/h (2 Bft) 89,47 %
16.07.2017 13:56 22,4 C 21,7 C 44 % 1022,9 hPa 0,0 l/m 10,3 km/h (2 Bft) W-SW 238 2 min 0,000 mm 6,4 UV-I 1007 W/m 9,5 C 21,2 C 14,5 km/h (3 Bft) 90,00 %
16.07.2017 13:58 22,6 C 21,7 C 45 % 1023,0 hPa 0,0 l/m 10,5 km/h (2 Bft) W 264 2 min 0,000 mm 6,4 UV-I 1009 W/m 10,1 C 21,4 C 17,7 km/h (3 Bft) 89,36 %
16.07.2017 14:00 22,6 C 21,7 C 43 % 1022,9 hPa 0,0 l/m 7,4 km/h (2 Bft) W 261 2 min 0,584 mm 5,1 UV-I 1014 W/m 9,4 C 22,3 C 14,5 km/h (3 Bft) 96,23 %
16.07.2017 14:02 22,2 C 21,7 C 43 % 1022,9 hPa 0,0 l/m 5,6 km/h (1 Bft) W-NW 287 2 min 0,000 mm 3,7 UV-I 796 W/m 9,0 C 22,2 C 9,7 km/h (2 Bft) 92,31 %
16.07.2017 14:04 21,9 C 21,7 C 43 % 1022,9 hPa 0,0 l/m 5,3 km/h (1 Bft) SW 227 0 min 0,000 mm 3,2 UV-I 228 W/m 8,7 C 21,9 C 11,3 km/h (2 Bft) 91,49 %
16.07.2017 14:06 21,6 C 21,7 C 44 % 1022,9 hPa 0,0 l/m 4,2 km/h (1 Bft) W-NW 285 0 min 0,000 mm 3,1 UV-I 214 W/m 8,8 C 21,6 C 16,1 km/h (3 Bft) 94,34 %
16.07.2017 14:08 21,3 C 21,7 C 43 % 1022,9 hPa 0,0 l/m 2,5 km/h (1 Bft) O 98 0 min 0,000 mm 3,0 UV-I 220 W/m 8,2 C 21,3 C 6,4 km/h (2 Bft) 97,56 %
16.07.2017 14:10 21,2 C 21,7 C 45 % 1022,9 hPa 0,0 l/m 3,0 km/h (1 Bft) NW 322 0 min 0,000 mm 3,0 UV-I 227 W/m 8,8 C 21,2 C 12,9 km/h (3 Bft) 98,00 %
16.07.2017 14:12 21,1 C 21,7 C 45 % 1022,9 hPa 0,0 l/m 2,7 km/h (1 Bft) N-NW 338 0 min 0,000 mm 3,1 UV-I 239 W/m 8,7 C 21,1 C 6,4 km/h (2 Bft) 87,80 %
16.07.2017 14:14 21,2 C 21,7 C 46 % 1022,8 hPa 0,0 l/m 2,6 km/h (1 Bft) NO 35 0 min 0,000 mm 3,3 UV-I 327 W/m 9,1 C 21,2 C 6,4 km/h (2 Bft) 96,00 %
16.07.2017 14:16 21,3 C 21,7 C 45 % 1022,8 hPa 0,0 l/m 8,1 km/h (2 Bft) W 267 0 min 0,000 mm 4,0 UV-I 415 W/m 8,9 C 20,7 C 14,5 km/h (3 Bft) 98,11 %
16.07.2017 14:18 21,7 C 21,7 C 46 % 1022,9 hPa 0,0 l/m 11,0 km/h (2 Bft) W-NW 290 2 min 0,000 mm 5,0 UV-I 1065 W/m 9,6 C 20,2 C 20,9 km/h (4 Bft) 97,87 %
16.07.2017 14:20 21,8 C 21,7 C 46 % 1022,8 hPa 0,0 l/m 4,8 km/h (1 Bft) W-SW 243 2 min 0,000 mm 4,6 UV-I 1065 W/m 9,7 C 21,8 C 14,5 km/h (3 Bft) 100,00 %
16.07.2017 14:22 21,9 C 21,7 C 44 % 1022,8 hPa 0,0 l/m 5,2 km/h (1 Bft) W 274 2 min 0,000 mm 4,2 UV-I 1065 W/m 9,1 C 21,9 C 11,3 km/h (2 Bft) 96,23 %
16.07.2017 14:24 21,9 C 21,7 C 42 % 1022,8 hPa 0,0 l/m 2,8 km/h (1 Bft) W-NW 291 2 min 0,000 mm 4,8 UV-I 1065 W/m 8,4 C 21,9 C 6,4 km/h (2 Bft) 95,12 %
16.07.2017 14:26 22,0 C 22,2 C 42 % 1022,8 hPa 0,0 l/m 2,4 km/h (1 Bft) W 278 2 min 0,000 mm 5,5 UV-I 1042 W/m 8,5 C 22,0 C 4,8 km/h (1 Bft) 94,64 %
16.07.2017 14:28 22,3 C 22,2 C 43 % 1022,8 hPa 0,0 l/m 3,2 km/h (1 Bft) W-SW 252 2 min 0,000 mm 5,9 UV-I 1003 W/m 9,1 C 22,3 C 6,4 km/h (2 Bft) 94,74 %
16.07.2017 14:30 22,7 C 22,2 C 41 % 1022,7 hPa 0,0 l/m 2,6 km/h (1 Bft) W-NW 302 2 min 0,000 mm 5,7 UV-I 972 W/m 8,8 C 22,7 C 4,8 km/h (1 Bft) 97,87 %
16.07.2017 14:32 22,8 C 22,2 C 41 % 1022,7 hPa 0,0 l/m 5,8 km/h (2 Bft) N-NW 333 2 min 0,000 mm 4,8 UV-I 1020 W/m 8,9 C 22,8 C 12,9 km/h (3 Bft) 100,00 %
16.07.2017 14:34 22,4 C 22,2 C 41 % 1022,7 hPa 0,0 l/m 6,7 km/h (2 Bft) W-SW 246 0 min 0,000 mm 3,0 UV-I 309 W/m 8,5 C 22,3 C 16,1 km/h (3 Bft) 97,56 %
16.07.2017 14:36 22,1 C 21,7 C 41 % 1022,7 hPa 0,0 l/m 10,2 km/h (2 Bft) NW 313 0 min 0,000 mm 2,9 UV-I 284 W/m 8,2 C 20,9 C 16,1 km/h (3 Bft) 98,11 %
16.07.2017 14:38 21,9 C 22,2 C 43 % 1022,7 hPa 0,0 l/m 6,1 km/h (2 Bft) W-SW 254 0 min 0,000 mm 2,8 UV-I 294 W/m 8,7 C 21,9 C 12,9 km/h (3 Bft) 98,00 %
16.07.2017 14:40 21,8 C 22,2 C 43 % 1022,8 hPa 0,0 l/m 6,1 km/h (2 Bft) NW 313 0 min 0,000 mm 2,7 UV-I 292 W/m 8,7 C 21,8 C 11,3 km/h (2 Bft) 97,44 %
16.07.2017 14:42 21,7 C 22,2 C 42 % 1022,7 hPa 0,0 l/m 4,5 km/h (1 Bft) W-SW 252 0 min 0,000 mm 2,7 UV-I 303 W/m 8,2 C 21,7 C 11,3 km/h (2 Bft) 95,74 %
16.07.2017 14:44 21,6 C 22,2 C 42 % 1022,6 hPa 0,0 l/m 4,4 km/h (1 Bft) W-NW 296 0 min 0,000 mm 2,7 UV-I 318 W/m 8,1 C 21,6 C 8,0 km/h (2 Bft) 93,62 %
16.07.2017 14:46 21,5 C 22,2 C 43 % 1022,6 hPa 0,0 l/m 3,6 km/h (1 Bft) NW 307 0 min 0,000 mm 2,7 UV-I 301 W/m 8,4 C 21,5 C 6,4 km/h (2 Bft) 100,00 %
16.07.2017 14:48 21,6 C 22,2 C 44 % 1022,6 hPa 0,0 l/m 1,0 km/h (0 Bft) NW 313 0 min 0,000 mm 2,6 UV-I 290 W/m 8,8 C 21,6 C 3,2 km/h (1 Bft) 97,37 %
16.07.2017 14:50 21,6 C 22,2 C 42 % 1022,6 hPa 0,0 l/m 1,5 km/h (1 Bft) NW 316 0 min 0,000 mm 2,6 UV-I 277 W/m 8,1 C 21,6 C 4,8 km/h (1 Bft) 93,62 %
16.07.2017 14:52 21,5 C 22,2 C 42 % 1022,6 hPa 0,0 l/m 3,0 km/h (1 Bft) W-SW 245 0 min 0,000 mm 2,6 UV-I 271 W/m 8,0 C 21,5 C 11,3 km/h (2 Bft) 98,11 %
16.07.2017 14:54 21,4 C 22,2 C 42 % 1022,5 hPa 0,0 l/m 1,3 km/h (1 Bft) W-SW 247 0 min 0,000 mm 2,5 UV-I 257 W/m 8,0 C 21,4 C 8,0 km/h (2 Bft) 100,00 %
16.07.2017 14:56 21,4 C 22,2 C 44 % 1022,5 hPa 0,0 l/m 2,5 km/h (1 Bft) W-SW 248 0 min 0,000 mm 2,5 UV-I 234 W/m 8,6 C 21,4 C 6,4 km/h (2 Bft) 97,87 %
16.07.2017 14:58 21,5 C 22,2 C 45 % 1022,5 hPa 0,0 l/m 1,2 km/h (1 Bft) N-NW 340 0 min 0,000 mm 2,4 UV-I 225 W/m 9,1 C 21,5 C 3,2 km/h (1 Bft) 100,00 %
16.07.2017 15:00 21,6 C 22,2 C 43 % 1022,6 hPa 0,0 l/m 3,6 km/h (1 Bft) SW 236 0 min 0,305 mm 2,5 UV-I 225 W/m 8,5 C 21,6 C 6,4 km/h (2 Bft) 94,74 %
16.07.2017 15:02 21,6 C 22,2 C 43 % 1022,6 hPa 0,0 l/m 4,3 km/h (1 Bft) W-SW 252 0 min 0,000 mm 3,6 UV-I 279 W/m 8,5 C 21,6 C 8,0 km/h (2 Bft) 98,11 %
16.07.2017 15:04 21,7 C 22,2 C 44 % 1022,6 hPa 0,0 l/m 11,1 km/h (2 Bft) W-SW 258 2 min 0,000 mm 4,8 UV-I 717 W/m 8,9 C 20,2 C 17,7 km/h (3 Bft) 95,12 %
16.07.2017 15:06 22,1 C 22,2 C 44 % 1022,6 hPa 0,0 l/m 10,1 km/h (2 Bft) W 269 2 min 0,000 mm 4,8 UV-I 956 W/m 9,3 C 20,9 C 16,1 km/h (3 Bft) 97,87 %
16.07.2017 15:08 22,3 C 22,2 C 41 % 1022,6 hPa 0,0 l/m 8,0 km/h (2 Bft) S-SW 209 2 min 0,000 mm 4,9 UV-I 956 W/m 8,4 C 21,8 C 12,9 km/h (3 Bft) 98,11 %
16.07.2017 15:10 22,6 C 22,2 C 41 % 1022,6 hPa 0,0 l/m 8,4 km/h (2 Bft) W 259 2 min 0,000 mm 4,9 UV-I 969 W/m 8,7 C 22,0 C 12,9 km/h (3 Bft) 98,00 %
16.07.2017 15:12 22,7 C 22,2 C 42 % 1022,6 hPa 0,0 l/m 7,1 km/h (2 Bft) SW 223 2 min 0,000 mm 4,9 UV-I 979 W/m 9,1 C 22,5 C 14,5 km/h (3 Bft) 100,00 %
16.07.2017 15:14 22,9 C 22,2 C 41 % 1022,6 hPa 0,0 l/m 8,2 km/h (2 Bft) W-NW 302 2 min 0,000 mm 4,8 UV-I 984 W/m 8,9 C 22,3 C 14,5 km/h (3 Bft) 98,00 %
16.07.2017 15:16 23,0 C 22,2 C 40 % 1022,5 hPa 0,0 l/m 8,8 km/h (2 Bft) W-NW 295 2 min 0,000 mm 4,7 UV-I 1013 W/m 8,7 C 22,3 C 17,7 km/h (3 Bft) 100,00 %
16.07.2017 15:18 23,0 C 22,2 C 43 % 1022,5 hPa 0,0 l/m 4,0 km/h (1 Bft) W-SW 242 2 min 0,000 mm 4,1 UV-I 1025 W/m 9,7 C 23,0 C 11,3 km/h (2 Bft) 100,00 %
16.07.2017 15:20 23,1 C 22,2 C 40 % 1022,5 hPa 0,0 l/m 9,6 km/h (2 Bft) S 190 2 min 0,000 mm 3,2 UV-I 529 W/m 8,8 C 22,2 C 16,1 km/h (3 Bft) 100,00 %
16.07.2017 15:22 22,9 C 22,2 C 41 % 1022,6 hPa 0,0 l/m 3,5 km/h (1 Bft) SW 214 0 min 0,000 mm 2,1 UV-I 326 W/m 8,9 C 22,9 C 11,3 km/h (2 Bft) 98,36 %
16.07.2017 15:24 22,7 C 22,2 C 42 % 1022,5 hPa 0,0 l/m 6,2 km/h (2 Bft) W-SW 250 0 min 0,000 mm 1,9 UV-I 238 W/m 9,1 C 22,7 C 9,7 km/h (2 Bft) 97,62 %
16.07.2017 15:26 22,3 C 22,2 C 41 % 1022,5 hPa 0,0 l/m 8,3 km/h (2 Bft) W-NW 284 0 min 0,000 mm 1,9 UV-I 240 W/m 8,4 C 21,7 C 14,5 km/h (3 Bft) 98,11 %
16.07.2017 15:28 22,1 C 22,2 C 39 % 1022,5 hPa 0,0 l/m 2,5 km/h (1 Bft) W-NW 294 0 min 0,000 mm 2,1 UV-I 267 W/m 7,5 C 22,1 C 11,3 km/h (2 Bft) 95,12 %
16.07.2017 15:30 22,0 C 22,2 C 40 % 1022,5 hPa 0,0 l/m 3,4 km/h (1 Bft) W-NW 298 0 min 0,000 mm 2,3 UV-I 293 W/m 7,8 C 22,0 C 6,4 km/h (2 Bft) 96,23 %
16.07.2017 15:32 22,0 C 22,2 C 41 % 1022,4 hPa 0,0 l/m 3,1 km/h (1 Bft) W 271 0 min 0,000 mm 2,2 UV-I 283 W/m 8,1 C 22,0 C 6,4 km/h (2 Bft) 97,37 %
16.07.2017 15:34 21,9 C 22,2 C 42 % 1022,4 hPa 0,0 l/m 4,7 km/h (1 Bft) W-SW 243 0 min 0,000 mm 2,2 UV-I 285 W/m 8,4 C 21,9 C 9,7 km/h (2 Bft) 94,34 %
16.07.2017 15:36 22,0 C 22,2 C 41 % 1022,4 hPa 0,0 l/m 3,6 km/h (1 Bft) SW 233 0 min 0,000 mm 2,3 UV-I 302 W/m 8,1 C 22,0 C 6,4 km/h (2 Bft) 97,56 %
16.07.2017 15:38 22,1 C 22,2 C 42 % 1022,4 hPa 0,0 l/m 4,6 km/h (1 Bft) W 279 0 min 0,000 mm 3,4 UV-I 384 W/m 8,6 C 22,1 C 8,0 km/h (2 Bft) 95,45 %
16.07.2017 15:40 22,2 C 22,2 C 40 % 1022,3 hPa 0,0 l/m 6,4 km/h (2 Bft) W-NW 288 2 min 0,000 mm 4,0 UV-I 948 W/m 8,0 C 22,2 C 12,9 km/h (3 Bft) 96,23 %
16.07.2017 15:42 22,6 C 22,2 C 42 % 1022,4 hPa 0,0 l/m 7,1 km/h (2 Bft) W-NW 294 2 min 0,000 mm 4,1 UV-I 935 W/m 9,0 C 22,4 C 12,9 km/h (3 Bft) 95,56 %
16.07.2017 15:44 23,1 C 22,2 C 41 % 1022,4 hPa 0,0 l/m 6,8 km/h (2 Bft) W-SW 243 2 min 0,000 mm 3,7 UV-I 940 W/m 9,1 C 23,0 C 14,5 km/h (3 Bft) 95,74 %
16.07.2017 15:46 23,2 C 22,2 C 41 % 1022,2 hPa 0,0 l/m 6,6 km/h (2 Bft) W 261 2 min 0,000 mm 2,9 UV-I 940 W/m 9,2 C 23,1 C 11,3 km/h (2 Bft) 97,73 %
16.07.2017 15:48 22,9 C 22,2 C 39 % 1022,2 hPa 0,0 l/m 3,7 km/h (1 Bft) W-SW 255 2 min 0,000 mm 2,8 UV-I 741 W/m 8,2 C 22,9 C 8,0 km/h (2 Bft) 95,74 %
16.07.2017 15:50 22,8 C 22,2 C 40 % 1022,2 hPa 0,0 l/m 2,4 km/h (1 Bft) W-SW 256 0 min 0,000 mm 2,4 UV-I 281 W/m 8,5 C 22,8 C 6,4 km/h (2 Bft) 96,23 %
16.07.2017 15:52 22,5 C 22,2 C 41 % 1022,2 hPa 0,0 l/m 1,6 km/h (1 Bft) W 266 0 min 0,000 mm 2,3 UV-I 301 W/m 8,6 C 22,5 C 6,4 km/h (2 Bft) 90,24 %
16.07.2017 15:54 22,6 C 22,2 C 43 % 1022,1 hPa 0,0 l/m 1,1 km/h (1 Bft) NW 321 0 min 0,000 mm 2,9 UV-I 355 W/m 9,4 C 22,6 C 4,8 km/h (1 Bft) 96,23 %
16.07.2017 15:56 22,7 C 22,2 C 40 % 1022,1 hPa 0,0 l/m 2,0 km/h (1 Bft) SW 214 0 min 0,000 mm 3,0 UV-I 373 W/m 8,4 C 22,7 C 8,0 km/h (2 Bft) 94,87 %
16.07.2017 15:58 22,9 C 22,2 C 40 % 1022,1 hPa 0,0 l/m 2,5 km/h (1 Bft) SW 236 2 min 0,000 mm 3,5 UV-I 906 W/m 8,6 C 22,9 C 8,0 km/h (2 Bft) 98,18 %
16.07.2017 16:00 23,2 C 22,2 C 41 % 1022,1 hPa 0,0 l/m 8,4 km/h (2 Bft) S-SW 202 2 min 0,000 mm 3,3 UV-I 899 W/m 9,2 C 22,6 C 11,3 km/h (2 Bft) 95,24 %
16.07.2017 16:02 23,2 C 22,2 C 39 % 1022,1 hPa 0,0 l/m 5,7 km/h (1 Bft) S-SO 168 2 min 0,432 mm 3,1 UV-I 891 W/m 8,5 C 23,2 C 12,9 km/h (3 Bft) 97,73 %
16.07.2017 16:04 23,3 C 22,2 C 41 % 1022,2 hPa 0,0 l/m 4,0 km/h (1 Bft) W 276 2 min 0,000 mm 3,1 UV-I 888 W/m 9,3 C 23,3 C 9,7 km/h (2 Bft) 100,00 %
16.07.2017 16:06 23,6 C 22,2 C 39 % 1022,1 hPa 0,0 l/m 4,8 km/h (1 Bft) SW 234 2 min 0,000 mm 3,1 UV-I 883 W/m 8,8 C 23,6 C 8,0 km/h (2 Bft) 95,12 %
16.07.2017 16:08 23,9 C 22,2 C 39 % 1022,1 hPa 0,0 l/m 10,5 km/h (2 Bft) W 267 2 min 0,000 mm 3,1 UV-I 880 W/m 9,1 C 22,8 C 17,7 km/h (3 Bft) 98,11 %
16.07.2017 16:10 23,8 C 22,2 C 36 % 1022,0 hPa 0,0 l/m 3,9 km/h (1 Bft) W-NW 293 2 min 0,000 mm 2,3 UV-I 658 W/m 7,8 C 23,8 C 9,7 km/h (2 Bft) 94,00 %
16.07.2017 16:12 23,3 C 22,2 C 38 % 1022,0 hPa 0,0 l/m 3,2 km/h (1 Bft) S 188 0 min 0,000 mm 2,1 UV-I 309 W/m 8,2 C 23,3 C 6,4 km/h (2 Bft) 95,12 %
16.07.2017 16:14 23,0 C 22,2 C 39 % 1022,0 hPa 0,0 l/m 4,4 km/h (1 Bft) SW 226 0 min 0,000 mm 2,2 UV-I 317 W/m 8,3 C 23,0 C 6,4 km/h (2 Bft) 100,00 %
16.07.2017 16:16 23,1 C 22,2 C 39 % 1022,0 hPa 0,0 l/m 1,7 km/h (1 Bft) S-SW 196 2 min 0,000 mm 3,1 UV-I 658 W/m 8,4 C 23,1 C 4,8 km/h (1 Bft) 100,00 %
16.07.2017 16:18 23,1 C 22,2 C 38 % 1022,0 hPa 0,0 l/m 1,9 km/h (1 Bft) S-SW 211 2 min 0,000 mm 2,6 UV-I 789 W/m 8,0 C 23,1 C 6,4 km/h (2 Bft) 100,00 %
16.07.2017 16:20 23,2 C 22,2 C 40 % 1022,0 hPa 0,0 l/m 6,6 km/h (2 Bft) W-NW 289 2 min 0,000 mm 2,0 UV-I 480 W/m 8,8 C 23,1 C 11,3 km/h (2 Bft) 100,00 %
16.07.2017 16:22 23,1 C 22,2 C 41 % 1022,0 hPa 0,0 l/m 5,9 km/h (2 Bft) W-SW 254 0 min 0,000 mm 1,9 UV-I 263 W/m 9,1 C 23,1 C 16,1 km/h (3 Bft) 98,31 %
16.07.2017 16:24 22,9 C 22,2 C 40 % 1022,0 hPa 0,0 l/m 4,7 km/h (1 Bft) W-NW 300 0 min 0,000 mm 1,9 UV-I 241 W/m 8,6 C 22,9 C 11,3 km/h (2 Bft) 100,00 %
16.07.2017 16:26 22,7 C 22,2 C 41 % 1022,0 hPa 0,0 l/m 3,2 km/h (1 Bft) W-NW 284 0 min 0,000 mm 1,8 UV-I 215 W/m 8,8 C 22,7 C 8,0 km/h (2 Bft) 97,87 %
16.07.2017 16:28 22,5 C 22,2 C 42 % 1022,0 hPa 0,0 l/m 0,7 km/h (0 Bft) W-NW 286 0 min 0,000 mm 1,6 UV-I 191 W/m 8,9 C 22,5 C 3,2 km/h (1 Bft) 100,00 %
16.07.2017 16:30 22,4 C 22,2 C 41 % 1022,0 hPa 0,0 l/m 1,0 km/h (0 Bft) NW 315 0 min 0,000 mm 1,6 UV-I 178 W/m 8,5 C 22,4 C 4,8 km/h (1 Bft) 100,00 %
16.07.2017 16:32 22,2 C 22,2 C 43 % 1022,0 hPa 0,0 l/m 2,7 km/h (1 Bft) N 360 0 min 0,000 mm 1,5 UV-I 170 W/m 9,0 C 22,2 C 4,8 km/h (1 Bft) 98,11 %
16.07.2017 16:34 22,1 C 22,2 C 43 % 1021,9 hPa 0,0 l/m 1,1 km/h (1 Bft) NO 51 0 min 0,000 mm 1,5 UV-I 171 W/m 8,9 C 22,1 C 3,2 km/h (1 Bft) 100,00 %
16.07.2017 16:36 22,1 C 22,2 C 41 % 1021,9 hPa 0,0 l/m 1,5 km/h (1 Bft) N-NW 339 0 min 0,000 mm 1,4 UV-I 179 W/m 8,2 C 22,1 C 4,8 km/h (1 Bft) 97,92 %
16.07.2017 16:38 22,3 C 22,2 C 43 % 1022,0 hPa 0,0 l/m 0,0 km/h (0 Bft) N-NW 339 2 min 0,000 mm 2,2 UV-I 438 W/m 9,1 C 22,3 C 0,0 km/h (0 Bft) 97,37 %
16.07.2017 16:40 22,8 C 22,2 C 43 % 1021,9 hPa 0,0 l/m 1,5 km/h (1 Bft) N-NW 338 2 min 0,000 mm 2,4 UV-I 688 W/m 9,6 C 22,8 C 4,8 km/h (1 Bft) 98,11 %
16.07.2017 16:42 23,1 C 22,2 C 40 % 1021,9 hPa 0,0 l/m 4,1 km/h (1 Bft) S-SO 168 2 min 0,000 mm 2,4 UV-I 693 W/m 8,8 C 23,1 C 11,3 km/h (2 Bft) 100,00 %
16.07.2017 16:44 23,3 C 22,2 C 41 % 1021,9 hPa 0,0 l/m 6,7 km/h (2 Bft) W-SW 239 2 min 0,000 mm 2,2 UV-I 720 W/m 9,3 C 23,2 C 14,5 km/h (3 Bft) 92,45 %
16.07.2017 16:46 23,3 C 22,2 C 40 % 1022,0 hPa 0,0 l/m 10,9 km/h (2 Bft) SW 232 0 min 0,000 mm 1,5 UV-I 306 W/m 8,9 C 22,1 C 16,1 km/h (3 Bft) 97,56 %
16.07.2017 16:48 23,1 C 22,2 C 39 % 1022,0 hPa 0,0 l/m 7,3 km/h (2 Bft) SW 219 0 min 0,000 mm 1,4 UV-I 198 W/m 8,4 C 22,8 C 11,3 km/h (2 Bft) 98,11 %
16.07.2017 16:50 22,9 C 22,2 C 40 % 1022,0 hPa 0,0 l/m 11,4 km/h (2 Bft) SW 225 0 min 0,000 mm 1,4 UV-I 207 W/m 8,6 C 21,5 C 19,3 km/h (3 Bft) 100,00 %
16.07.2017 16:52 22,7 C 22,2 C 40 % 1022,0 hPa 0,0 l/m 9,2 km/h (2 Bft) W 261 0 min 0,000 mm 1,3 UV-I 213 W/m 8,4 C 21,8 C 16,1 km/h (3 Bft) 96,55 %
16.07.2017 16:54 22,6 C 22,2 C 41 % 1022,0 hPa 0,0 l/m 4,9 km/h (1 Bft) NW 306 0 min 0,000 mm 1,3 UV-I 207 W/m 8,7 C 22,6 C 8,0 km/h (2 Bft) 100,00 %
16.07.2017 16:56 22,4 C 22,2 C 41 % 1022,0 hPa 0,0 l/m 3,7 km/h (1 Bft) NW 313 0 min 0,000 mm 1,3 UV-I 213 W/m 8,5 C 22,4 C 6,4 km/h (2 Bft) 96,15 %
16.07.2017 16:58 22,3 C 22,2 C 40 % 1021,9 hPa 0,0 l/m 0,6 km/h (0 Bft) NW 315 0 min 0,000 mm 1,3 UV-I 220 W/m 8,0 C 22,3 C 3,2 km/h (1 Bft) 100,00 %
16.07.2017 17:00 22,2 C 22,2 C 43 % 1021,9 hPa 0,0 l/m 1,3 km/h (1 Bft) W-NW 302 0 min 0,000 mm 1,2 UV-I 207 W/m 9,0 C 22,2 C 4,8 km/h (1 Bft) 100,00 %
16.07.2017 17:02 22,2 C 22,2 C 41 % 1021,9 hPa 0,0 l/m 1,4 km/h (1 Bft) NW 311 0 min 0,279 mm 1,2 UV-I 193 W/m 8,3 C 22,2 C 3,2 km/h (1 Bft) 92,11 %
16.07.2017 17:04 22,2 C 22,2 C 43 % 1021,9 hPa 0,0 l/m 0,4 km/h (0 Bft) NW 311 0 min 0,000 mm 1,2 UV-I 189 W/m 9,0 C 22,2 C 1,6 km/h (1 Bft) 98,21 %
16.07.2017 17:06 22,2 C 22,2 C 41 % 1021,9 hPa 0,0 l/m 0,5 km/h (0 Bft) W 274 0 min 0,000 mm 1,2 UV-I 182 W/m 8,3 C 22,2 C 4,8 km/h (1 Bft) 94,74 %
16.07.2017 17:08 22,1 C 22,2 C 40 % 1021,9 hPa 0,0 l/m 1,0 km/h (0 Bft) W-SW 254 0 min 0,000 mm 1,1 UV-I 168 W/m 7,9 C 22,1 C 4,8 km/h (1 Bft) 98,21 %
16.07.2017 17:10 22,1 C 22,2 C 42 % 1021,9 hPa 0,0 l/m 1,3 km/h (1 Bft) W-SW 254 0 min 0,000 mm 1,1 UV-I 159 W/m 8,6 C 22,1 C 4,8 km/h (1 Bft) 94,74 %
16.07.2017 17:12 22,2 C 22,2 C 42 % 1021,9 hPa 0,0 l/m 4,4 km/h (1 Bft) W-SW 246 0 min 0,000 mm 1,0 UV-I 151 W/m 8,7 C 22,2 C 6,4 km/h (2 Bft) 96,43 %
16.07.2017 17:14 22,2 C 22,2 C 42 % 1021,9 hPa 0,0 l/m 4,2 km/h (1 Bft) SW 234 0 min 0,000 mm 1,0 UV-I 143 W/m 8,7 C 22,2 C 6,4 km/h (2 Bft) 97,87 %
16.07.2017 17:16 22,2 C 22,2 C 42 % 1021,8 hPa 0,0 l/m 3,3 km/h (1 Bft) SW 234 0 min 0,000 mm 0,9 UV-I 137 W/m 8,7 C 22,2 C 4,8 km/h (1 Bft) 97,44 %
16.07.2017 17:18 22,2 C 22,2 C 42 % 1021,8 hPa 0,0 l/m 3,1 km/h (1 Bft) SW 232 0 min 0,000 mm 0,8 UV-I 124 W/m 8,7 C 22,2 C 6,4 km/h (2 Bft) 94,00 %
16.07.2017 17:20 22,1 C 22,2 C 41 % 1021,8 hPa 0,0 l/m 2,2 km/h (1 Bft) SW 231 0 min 0,000 mm 0,8 UV-I 121 W/m 8,2 C 22,1 C 6,4 km/h (2 Bft) 93,62 %
16.07.2017 17:22 22,1 C 22,2 C 43 % 1021,8 hPa 0,0 l/m 2,2 km/h (1 Bft) SW 231 0 min 0,000 mm 0,8 UV-I 129 W/m 8,9 C 22,1 C 4,8 km/h (1 Bft) 94,00 %
16.07.2017 17:24 22,1 C 22,2 C 41 % 1021,8 hPa 0,0 l/m 1,8 km/h (1 Bft) SW 231 0 min 0,000 mm 0,8 UV-I 134 W/m 8,2 C 22,1 C 4,8 km/h (1 Bft) 92,11 %
16.07.2017 17:26 22,1 C 22,2 C 42 % 1021,7 hPa 0,0 l/m 3,0 km/h (1 Bft) S-SW 207 0 min 0,000 mm 0,9 UV-I 164 W/m 8,6 C 22,1 C 6,4 km/h (2 Bft) 94,00 %
16.07.2017 17:28 22,1 C 22,2 C 42 % 1021,7 hPa 0,0 l/m 2,7 km/h (1 Bft) S-SW 207 0 min 0,000 mm 0,9 UV-I 176 W/m 8,6 C 22,1 C 4,8 km/h (1 Bft) 96,00 %
16.07.2017 17:30 22,1 C 22,2 C 42 % 1021,7 hPa 0,0 l/m 2,4 km/h (1 Bft) S-SW 207 0 min 0,000 mm 0,9 UV-I 174 W/m 8,6 C 22,1 C 4,8 km/h (1 Bft) 92,00 %
16.07.2017 17:32 22,1 C 22,2 C 41 % 1021,7 hPa 0,0 l/m 1,3 km/h (1 Bft) S-SW 207 0 min 0,000 mm 0,8 UV-I 155 W/m 8,2 C 22,1 C 3,2 km/h (1 Bft) 94,74 %
16.07.2017 17:34 22,1 C 22,2 C 42 % 1021,6 hPa 0,0 l/m 2,6 km/h (1 Bft) S-SW 207 0 min 0,000 mm 0,8 UV-I 143 W/m 8,6 C 22,1 C 4,8 km/h (1 Bft) 94,34 %
16.07.2017 17:36 22,1 C 22,2 C 42 % 1021,6 hPa 0,0 l/m 1,7 km/h (1 Bft) S-SW 207 0 min 0,000 mm 0,7 UV-I 133 W/m 8,6 C 22,1 C 4,8 km/h (1 Bft) 95,12 %
16.07.2017 17:38 22,1 C 22,2 C 42 % 1021,6 hPa 0,0 l/m 2,5 km/h (1 Bft) S-SW 207 0 min 0,000 mm 0,7 UV-I 129 W/m 8,6 C 22,1 C 4,8 km/h (1 Bft) 94,00 %
16.07.2017 17:40 22,1 C 22,2 C 42 % 1021,6 hPa 0,0 l/m 1,6 km/h (1 Bft) S-SW 207 0 min 0,000 mm 0,7 UV-I 130 W/m 8,6 C 22,1 C 4,8 km/h (1 Bft) 94,00 %
16.07.2017 17:42 22,1 C 22,2 C 44 % 1021,6 hPa 0,0 l/m 4,1 km/h (1 Bft) S-SW 207 0 min 0,000 mm 0,7 UV-I 119 W/m 9,3 C 22,1 C 6,4 km/h (2 Bft) 94,00 %
16.07.2017 17:44 22,1 C 22,2 C 43 % 1021,6 hPa 0,0 l/m 4,1 km/h (1 Bft) S-SW 207 0 min 0,000 mm 0,6 UV-I 110 W/m 8,9 C 22,1 C 6,4 km/h (2 Bft) 92,68 %
16.07.2017 17:46 22,1 C 22,2 C 42 % 1021,6 hPa 0,0 l/m 6,8 km/h (2 Bft) S-SW 202 0 min 0,000 mm 0,6 UV-I 108 W/m 8,6 C 22,0 C 11,3 km/h (2 Bft) 94,74 %
16.07.2017 17:48 22,1 C 22,2 C 43 % 1021,6 hPa 0,0 l/m 5,2 km/h (1 Bft) S-SW 205 0 min 0,000 mm 0,6 UV-I 104 W/m 8,9 C 22,1 C 6,4 km/h (2 Bft) 95,08 %
16.07.2017 17:50 22,1 C 22,2 C 41 % 1021,6 hPa 0,0 l/m 3,9 km/h (1 Bft) S-SW 205 0 min 0,000 mm 0,6 UV-I 103 W/m 8,2 C 22,1 C 6,4 km/h (2 Bft) 93,33 %
16.07.2017 17:52 22,1 C 22,2 C 42 % 1021,6 hPa 0,0 l/m 4,3 km/h (1 Bft) S-SW 205 0 min 0,000 mm 0,5 UV-I 108 W/m 8,6 C 22,1 C 6,4 km/h (2 Bft) 93,44 %
16.07.2017 17:54 22,1 C 22,2 C 41 % 1021,6 hPa 0,0 l/m 1,3 km/h (1 Bft) S-SW 205 0 min 0,000 mm 0,5 UV-I 112 W/m 8,2 C 22,1 C 3,2 km/h (1 Bft) 97,44 %
16.07.2017 17:56 22,1 C 22,2 C 42 % 1021,6 hPa 0,0 l/m 2,1 km/h (1 Bft) S-SW 205 0 min 0,000 mm 0,5 UV-I 115 W/m 8,6 C 22,1 C 3,2 km/h (1 Bft) 89,36 %
16.07.2017 17:58 22,1 C 22,2 C 41 % 1021,6 hPa 0,0 l/m 3,3 km/h (1 Bft) S-SW 205 0 min 0,000 mm 0,6 UV-I 131 W/m 8,2 C 22,1 C 4,8 km/h (1 Bft) 98,00 %
16.07.2017 18:00 22,1 C 22,2 C 42 % 1021,5 hPa 0,0 l/m 2,8 km/h (1 Bft) S-SW 205 0 min 0,127 mm 0,7 UV-I 170 W/m 8,6 C 22,1 C 4,8 km/h (1 Bft) 98,11 %
16.07.2017 18:03 22,6 C 22,2 C 42 % 1021,5 hPa 0,0 l/m 3,0 km/h (1 Bft) S-SW 209 3 min 0,000 mm 0,9 UV-I 373 W/m 9,0 C 22,6 C 6,4 km/h (2 Bft) 97,26 %
16.07.2017 18:04 22,7 C 22,2 C 43 % 1021,5 hPa 0,0 l/m 2,9 km/h (1 Bft) SW 233 1 min 0,000 mm 0,9 UV-I 472 W/m 9,5 C 22,7 C 4,8 km/h (1 Bft) 100,00 %
16.07.2017 18:05 22,8 C 22,2 C 41 % 1021,5 hPa 0,0 l/m 3,2 km/h (1 Bft) S-SW 202 1 min 0,000 mm 0,9 UV-I 475 W/m 8,9 C 22,8 C 6,4 km/h (2 Bft) 94,74 %
16.07.2017 18:08 23,2 C 22,2 C 39 % 1021,5 hPa 0,0 l/m 5,3 km/h (1 Bft) SW 236 3 min 0,000 mm 1,0 UV-I 478 W/m 8,5 C 23,2 C 6,4 km/h (2 Bft) 95,35 %
16.07.2017 18:10 23,3 C 22,2 C 39 % 1021,5 hPa 0,0 l/m 7,8 km/h (2 Bft) W-SW 237 2 min 0,000 mm 1,0 UV-I 463 W/m 8,6 C 22,9 C 12,9 km/h (3 Bft) 91,67 %
16.07.2017 18:12 23,4 C 22,2 C 40 % 1021,5 hPa 0,0 l/m 7,1 km/h (2 Bft) S-SW 211 2 min 0,000 mm 1,0 UV-I 433 W/m 9,0 C 23,2 C 11,3 km/h (2 Bft) 90,62 %
16.07.2017 18:14 23,5 C 22,2 C 39 % 1021,5 hPa 0,0 l/m 5,6 km/h (1 Bft) W-SW 253 2 min 0,000 mm 1,0 UV-I 416 W/m 8,7 C 23,5 C 12,9 km/h (3 Bft) 96,23 %
16.07.2017 18:16 23,6 C 22,2 C 39 % 1021,5 hPa 0,0 l/m 8,9 km/h (2 Bft) SW 219 2 min 0,000 mm 1,0 UV-I 400 W/m 8,8 C 22,9 C 14,5 km/h (3 Bft) 100,00 %
16.07.2017 18:18 23,6 C 22,2 C 38 % 1021,5 hPa 0,0 l/m 8,4 km/h (2 Bft) W 267 2 min 0,000 mm 0,9 UV-I 385 W/m 8,4 C 23,0 C 14,5 km/h (3 Bft) 91,43 %
16.07.2017 18:20 23,4 C 22,2 C 39 % 1021,5 hPa 0,0 l/m 9,7 km/h (2 Bft) W 260 2 min 0,000 mm 0,9 UV-I 376 W/m 8,6 C 22,5 C 16,1 km/h (3 Bft) 95,24 %
16.07.2017 18:22 23,5 C 22,2 C 39 % 1021,5 hPa 0,0 l/m 7,2 km/h (2 Bft) W-SW 242 2 min 0,000 mm 0,9 UV-I 327 W/m 8,7 C 23,3 C 12,9 km/h (3 Bft) 100,00 %
16.07.2017 18:24 23,3 C 22,2 C 39 % 1021,5 hPa 0,0 l/m 10,2 km/h (2 Bft) SW 225 0 min 0,000 mm 0,7 UV-I 159 W/m 8,6 C 22,2 C 16,1 km/h (3 Bft) 100,00 %
16.07.2017 18:26 23,1 C 22,2 C 39 % 1021,5 hPa 0,0 l/m 6,3 km/h (2 Bft) SW 229 0 min 0,000 mm 0,7 UV-I 98 W/m 8,4 C 23,1 C 11,3 km/h (2 Bft) 91,49 %
16.07.2017 18:28 23,0 C 22,2 C 39 % 1021,5 hPa 0,0 l/m 6,8 km/h (2 Bft) SW 215 0 min 0,000 mm 0,7 UV-I 197 W/m 8,3 C 22,9 C 9,7 km/h (2 Bft) 91,49 %
16.07.2017 18:30 22,9 C 22,2 C 40 % 1021,5 hPa 0,0 l/m 5,0 km/h (1 Bft) W-SW 248 2 min 0,000 mm 0,8 UV-I 327 W/m 8,6 C 22,9 C 9,7 km/h (2 Bft) 100,00 %
16.07.2017 18:32 22,9 C 22,2 C 40 % 1021,4 hPa 0,0 l/m 5,4 km/h (1 Bft) SW 219 2 min 0,000 mm 0,7 UV-I 247 W/m 8,6 C 22,9 C 8,0 km/h (2 Bft) 94,64 %
16.07.2017 18:34 23,1 C 22,2 C 39 % 1021,4 hPa 0,0 l/m 6,1 km/h (2 Bft) W 271 2 min 0,000 mm 0,7 UV-I 246 W/m 8,4 C 23,1 C 9,7 km/h (2 Bft) 97,37 %
16.07.2017 18:36 23,2 C 22,2 C 39 % 1021,5 hPa 0,0 l/m 7,9 km/h (2 Bft) SW 227 2 min 0,000 mm 0,7 UV-I 376 W/m 8,5 C 22,7 C 14,5 km/h (3 Bft) 88,00 %
16.07.2017 18:38 23,2 C 22,2 C 40 % 1021,4 hPa 0,0 l/m 8,7 km/h (2 Bft) S-SW 210 2 min 0,000 mm 0,7 UV-I 385 W/m 8,8 C 22,5 C 14,5 km/h (3 Bft) 95,74 %
16.07.2017 18:40 23,2 C 22,2 C 40 % 1021,4 hPa 0,0 l/m 9,0 km/h (2 Bft) W-SW 252 2 min 0,000 mm 0,7 UV-I 209 W/m 8,8 C 22,4 C 12,9 km/h (3 Bft) 96,00 %
16.07.2017 18:42 23,2 C 22,2 C 39 % 1021,4 hPa 0,0 l/m 6,6 km/h (2 Bft) SW 225 2 min 0,000 mm 0,7 UV-I 317 W/m 8,5 C 23,1 C 14,5 km/h (3 Bft) 93,62 %
16.07.2017 18:44 23,2 C 22,2 C 39 % 1021,4 hPa 0,0 l/m 8,2 km/h (2 Bft) W-SW 242 2 min 0,000 mm 0,6 UV-I 305 W/m 8,5 C 22,7 C 12,9 km/h (3 Bft) 91,67 %
16.07.2017 18:46 23,1 C 22,2 C 39 % 1021,4 hPa 0,0 l/m 6,8 km/h (2 Bft) SW 227 2 min 0,000 mm 0,6 UV-I 221 W/m 8,4 C 23,0 C 11,3 km/h (2 Bft) 98,51 %
16.07.2017 18:48 23,0 C 22,2 C 40 % 1021,3 hPa 0,0 l/m 5,9 km/h (2 Bft) W-SW 252 0 min 0,000 mm 0,6 UV-I 140 W/m 8,7 C 23,0 C 11,3 km/h (2 Bft) 92,68 %
16.07.2017 18:50 22,8 C 22,2 C 41 % 1021,4 hPa 0,0 l/m 4,7 km/h (1 Bft) W-SW 244 0 min 0,000 mm 0,5 UV-I 124 W/m 8,9 C 22,8 C 11,3 km/h (2 Bft) 97,87 %
16.07.2017 18:52 22,7 C 22,2 C 41 % 1021,4 hPa 0,0 l/m 4,4 km/h (1 Bft) W 261 0 min 0,000 mm 0,5 UV-I 118 W/m 8,8 C 22,7 C 11,3 km/h (2 Bft) 91,49 %
16.07.2017 18:54 22,5 C 22,2 C 41 % 1021,3 hPa 0,0 l/m 5,1 km/h (1 Bft) W 278 0 min 0,000 mm 0,5 UV-I 120 W/m 8,6 C 22,5 C 11,3 km/h (2 Bft) 96,00 %
16.07.2017 18:56 22,4 C 22,2 C 42 % 1021,4 hPa 0,0 l/m 4,3 km/h (1 Bft) W 260 0 min 0,000 mm 0,1 UV-I 114 W/m 8,9 C 22,4 C 6,4 km/h (2 Bft) 97,62 %
16.07.2017 18:58 22,3 C 22,2 C 41 % 1021,3 hPa 0,0 l/m 5,3 km/h (1 Bft) S-SW 209 0 min 0,000 mm 0,0 UV-I 100 W/m 8,4 C 22,3 C 9,7 km/h (2 Bft) 96,15 %
16.07.2017 19:00 22,3 C 22,2 C 41 % 1021,4 hPa 0,0 l/m 6,2 km/h (2 Bft) W-SW 253 0 min 0,254 mm 0,0 UV-I 95 W/m 8,4 C 22,3 C 11,3 km/h (2 Bft) 93,33 %
16.07.2017 19:02 22,2 C 22,2 C 41 % 1021,4 hPa 0,0 l/m 4,6 km/h (1 Bft) SW 223 0 min 0,000 mm 0,0 UV-I 72 W/m 8,3 C 22,2 C 8,0 km/h (2 Bft) 94,55 %
16.07.2017 19:04 22,2 C 22,2 C 41 % 1021,4 hPa 0,0 l/m 5,5 km/h (1 Bft) W-SW 238 0 min 0,000 mm 0,0 UV-I 65 W/m 8,3 C 22,2 C 8,0 km/h (2 Bft) 97,73 %
16.07.2017 19:06 22,1 C 22,2 C 43 % 1021,3 hPa 0,0 l/m 4,6 km/h (1 Bft) S-SW 200 0 min 0,000 mm 0,0 UV-I 70 W/m 8,9 C 22,1 C 8,0 km/h (2 Bft) 91,49 %
16.07.2017 19:08 22,1 C 22,2 C 43 % 1021,3 hPa 0,0 l/m 4,7 km/h (1 Bft) SW 215 0 min 0,000 mm 0,0 UV-I 76 W/m 8,9 C 22,1 C 8,0 km/h (2 Bft) 95,74 %
16.07.2017 19:10 21,9 C 22,2 C 43 % 1021,3 hPa 0,0 l/m 4,5 km/h (1 Bft) S-SW 202 0 min 0,000 mm 0,0 UV-I 81 W/m 8,7 C 21,9 C 8,0 km/h (2 Bft) 96,00 %
16.07.2017 19:12 21,9 C 22,2 C 44 % 1021,3 hPa 0,0 l/m 5,2 km/h (1 Bft) SW 229 0 min 0,000 mm 0,0 UV-I 86 W/m 9,1 C 21,9 C 8,0 km/h (2 Bft) 100,00 %
16.07.2017 19:14 21,9 C 22,2 C 44 % 1021,3 hPa 0,0 l/m 5,0 km/h (1 Bft) SW 231 0 min 0,000 mm 0,0 UV-I 87 W/m 9,1 C 21,9 C 6,4 km/h (2 Bft) 100,00 %
16.07.2017 19:16 21,8 C 22,2 C 44 % 1021,4 hPa 0,0 l/m 4,5 km/h (1 Bft) W-SW 242 0 min 0,000 mm 0,0 UV-I 84 W/m 9,0 C 21,8 C 6,4 km/h (2 Bft) 96,15 %
16.07.2017 19:18 21,8 C 22,2 C 45 % 1021,4 hPa 0,0 l/m 4,8 km/h (1 Bft) SW 217 0 min 0,000 mm 0,0 UV-I 90 W/m 9,3 C 21,8 C 8,0 km/h (2 Bft) 96,92 %
16.07.2017 19:20 21,8 C 22,2 C 45 % 1021,4 hPa 0,0 l/m 5,7 km/h (1 Bft) SW 234 2 min 0,000 mm 0,0 UV-I 153 W/m 9,3 C 21,8 C 8,0 km/h (2 Bft) 94,00 %
16.07.2017 19:22 21,9 C 22,2 C 45 % 1021,4 hPa 0,0 l/m 3,9 km/h (1 Bft) SW 235 2 min 0,000 mm 0,0 UV-I 179 W/m 9,4 C 21,9 C 6,4 km/h (2 Bft) 97,56 %
16.07.2017 19:24 22,1 C 22,2 C 44 % 1021,3 hPa 0,0 l/m 4,1 km/h (1 Bft) SW 230 2 min 0,000 mm 0,0 UV-I 176 W/m 9,3 C 22,1 C 6,4 km/h (2 Bft) 96,00 %
16.07.2017 19:26 22,2 C 22,2 C 42 % 1021,4 hPa 0,0 l/m 7,4 km/h (2 Bft) SW 214 2 min 0,000 mm 0,0 UV-I 171 W/m 8,7 C 21,9 C 9,7 km/h (2 Bft) 96,23 %
16.07.2017 19:28 22,4 C 22,2 C 41 % 1021,3 hPa 0,0 l/m 5,2 km/h (1 Bft) SW 234 2 min 0,000 mm 0,0 UV-I 161 W/m 8,5 C 22,4 C 8,0 km/h (2 Bft) 95,12 %
16.07.2017 19:30 22,5 C 22,2 C 41 % 1021,3 hPa 0,0 l/m 3,6 km/h (1 Bft) SW 234 2 min 0,000 mm 0,0 UV-I 156 W/m 8,6 C 22,5 C 4,8 km/h (1 Bft) 96,15 %
16.07.2017 19:32 22,6 C 22,2 C 41 % 1021,3 hPa 0,0 l/m 5,2 km/h (1 Bft) SW 225 2 min 0,000 mm 0,0 UV-I 152 W/m 8,7 C 22,6 C 8,0 km/h (2 Bft) 97,56 %
16.07.2017 19:34 22,7 C 22,2 C 41 % 1021,3 hPa 0,0 l/m 5,6 km/h (1 Bft) SW 227 2 min 0,000 mm 0,0 UV-I 152 W/m 8,8 C 22,7 C 8,0 km/h (2 Bft) 96,23 %
16.07.2017 19:36 22,7 C 22,2 C 41 % 1021,3 hPa 0,0 l/m 5,1 km/h (1 Bft) W-SW 240 2 min 0,000 mm 0,0 UV-I 152 W/m 8,8 C 22,7 C 8,0 km/h (2 Bft) 91,49 %
16.07.2017 19:38 22,7 C 22,2 C 41 % 1021,3 hPa 0,0 l/m 3,8 km/h (1 Bft) W-SW 240 2 min 0,000 mm 0,0 UV-I 153 W/m 8,8 C 22,7 C 8,0 km/h (2 Bft) 95,74 %
16.07.2017 19:40 22,8 C 22,2 C 41 % 1021,3 hPa 0,0 l/m 4,2 km/h (1 Bft) W-SW 238 2 min 0,000 mm 0,0 UV-I 152 W/m 8,9 C 22,8 C 9,7 km/h (2 Bft) 94,44 %
16.07.2017 19:42 22,7 C 22,2 C 39 % 1021,2 hPa 0,0 l/m 5,5 km/h (1 Bft) S-SW 192 2 min 0,000 mm 0,0 UV-I 146 W/m 8,0 C 22,7 C 12,9 km/h (3 Bft) 98,31 %
16.07.2017 19:44 22,7 C 22,2 C 41 % 1021,2 hPa 0,0 l/m 6,8 km/h (2 Bft) S-SW 212 2 min 0,000 mm 0,0 UV-I 141 W/m 8,8 C 22,6 C 9,7 km/h (2 Bft) 95,12 %
16.07.2017 19:46 22,8 C 22,2 C 40 % 1021,2 hPa 0,0 l/m 8,2 km/h (2 Bft) SW 236 2 min 0,000 mm 0,0 UV-I 119 W/m 8,5 C 22,2 C 11,3 km/h (2 Bft) 100,00 %
16.07.2017 19:48 22,7 C 22,2 C 41 % 1021,2 hPa 0,0 l/m 6,3 km/h (2 Bft) W-NW 286 2 min 0,000 mm 0,0 UV-I 123 W/m 8,8 C 22,7 C 11,3 km/h (2 Bft) 97,87 %
16.07.2017 19:50 22,7 C 22,2 C 39 % 1021,2 hPa 0,0 l/m 5,1 km/h (1 Bft) W-SW 241 2 min 0,000 mm 0,0 UV-I 110 W/m 8,0 C 22,7 C 11,3 km/h (2 Bft) 98,18 %
16.07.2017 19:52 22,6 C 22,2 C 41 % 1021,2 hPa 0,0 l/m 2,6 km/h (1 Bft) W-SW 244 2 min 0,000 mm 0,0 UV-I 109 W/m 8,7 C 22,6 C 6,4 km/h (2 Bft) 100,00 %
16.07.2017 19:54 22,6 C 22,2 C 40 % 1021,3 hPa 0,0 l/m 1,6 km/h (1 Bft) W-SW 244 2 min 0,000 mm 0,0 UV-I 89 W/m 8,3 C 22,6 C 3,2 km/h (1 Bft) 98,11 %
16.07.2017 19:56 22,5 C 22,2 C 39 % 1021,3 hPa 0,0 l/m 4,9 km/h (1 Bft) W 273 0 min 0,000 mm 0,0 UV-I 65 W/m 7,8 C 22,5 C 9,7 km/h (2 Bft) 97,14 %
16.07.2017 19:58 22,4 C 22,2 C 40 % 1021,3 hPa 0,0 l/m 1,3 km/h (1 Bft) W 269 0 min 0,000 mm 0,0 UV-I 46 W/m 8,1 C 22,4 C 3,2 km/h (1 Bft) 100,00 %
16.07.2017 20:00 22,3 C 22,2 C 40 % 1021,3 hPa 0,0 l/m 2,9 km/h (1 Bft) W-SW 254 0 min 0,127 mm 0,0 UV-I 47 W/m 8,0 C 22,3 C 8,0 km/h (2 Bft) 96,15 %
16.07.2017 20:03 22,1 C 22,2 C 40 % 1021,3 hPa 0,0 l/m 4,2 km/h (1 Bft) W 262 0 min 0,000 mm 0,0 UV-I 49 W/m 7,9 C 22,1 C 9,7 km/h (2 Bft) 97,06 %
16.07.2017 20:04 22,0 C 22,2 C 41 % 1021,3 hPa 0,0 l/m 4,5 km/h (1 Bft) W 261 0 min 0,000 mm 0,0 UV-I 64 W/m 8,1 C 22,0 C 6,4 km/h (2 Bft) 100,00 %
16.07.2017 20:05 21,9 C 22,2 C 40 % 1021,3 hPa 0,0 l/m 4,8 km/h (1 Bft) W 270 0 min 0,000 mm 0,0 UV-I 59 W/m 7,7 C 21,9 C 9,7 km/h (2 Bft) 96,49 %
16.07.2017 20:08 21,9 C 22,2 C 41 % 1021,3 hPa 0,0 l/m 4,3 km/h (1 Bft) W 274 0 min 0,000 mm 0,0 UV-I 50 W/m 8,0 C 21,9 C 4,8 km/h (1 Bft) 97,50 %
16.07.2017 20:10 21,8 C 22,2 C 41 % 1021,3 hPa 0,0 l/m 3,9 km/h (1 Bft) W 274 0 min 0,000 mm 0,0 UV-I 42 W/m 8,0 C 21,8 C 6,4 km/h (2 Bft) 97,87 %
16.07.2017 20:12 21,7 C 22,2 C 43 % 1021,3 hPa 0,0 l/m 2,9 km/h (1 Bft) W 274 0 min 0,000 mm 0,0 UV-I 42 W/m 8,6 C 21,7 C 4,8 km/h (1 Bft) 100,00 %
16.07.2017 20:14 21,6 C 22,2 C 42 % 1021,3 hPa 0,0 l/m 3,4 km/h (1 Bft) W 274 0 min 0,000 mm 0,0 UV-I 42 W/m 8,1 C 21,6 C 4,8 km/h (1 Bft) 94,00 %
16.07.2017 20:16 21,5 C 22,2 C 43 % 1021,3 hPa 0,0 l/m 3,1 km/h (1 Bft) W 274 0 min 0,000 mm 0,0 UV-I 43 W/m 8,4 C 21,5 C 4,8 km/h (1 Bft) 97,37 %
16.07.2017 20:18 21,4 C 22,2 C 44 % 1021,3 hPa 0,0 l/m 2,8 km/h (1 Bft) W 274 0 min 0,000 mm 0,0 UV-I 43 W/m 8,6 C 21,4 C 3,2 km/h (1 Bft) 100,00 %
16.07.2017 20:20 21,3 C 22,2 C 43 % 1021,3 hPa 0,0 l/m 3,2 km/h (1 Bft) W 274 0 min 0,000 mm 0,0 UV-I 43 W/m 8,2 C 21,3 C 4,8 km/h (1 Bft) 98,08 %
16.07.2017 20:22 21,2 C 22,2 C 43 % 1021,3 hPa 0,0 l/m 3,1 km/h (1 Bft) W-SW 242 2 min 0,000 mm 0,0 UV-I 50 W/m 8,1 C 21,2 C 4,8 km/h (1 Bft) 100,00 %
16.07.2017 20:24 21,2 C 22,2 C 43 % 1021,2 hPa 0,0 l/m 3,8 km/h (1 Bft) W-SW 242 2 min 0,000 mm 0,0 UV-I 49 W/m 8,1 C 21,2 C 6,4 km/h (2 Bft) 97,87 %
16.07.2017 20:26 21,2 C 22,2 C 43 % 1021,2 hPa 0,0 l/m 5,0 km/h (1 Bft) W 260 2 min 0,000 mm 0,0 UV-I 48 W/m 8,1 C 21,2 C 8,0 km/h (2 Bft) 96,23 %
16.07.2017 20:28 21,2 C 22,2 C 43 % 1021,3 hPa 0,0 l/m 4,0 km/h (1 Bft) W-SW 250 2 min 0,000 mm 0,0 UV-I 47 W/m 8,1 C 21,2 C 6,4 km/h (2 Bft) 89,36 %
16.07.2017 20:30 21,2 C 22,2 C 44 % 1021,3 hPa 0,0 l/m 3,9 km/h (1 Bft) W-SW 248 2 min 0,000 mm 0,0 UV-I 46 W/m 8,5 C 21,2 C 6,4 km/h (2 Bft) 100,00 %
16.07.2017 20:32 21,1 C 22,2 C 43 % 1021,3 hPa 0,0 l/m 3,8 km/h (1 Bft) W-SW 248 2 min 0,000 mm 0,0 UV-I 41 W/m 8,0 C 21,1 C 4,8 km/h (1 Bft) 97,56 %
16.07.2017 20:34 21,1 C 22,2 C 45 % 1021,3 hPa 0,0 l/m 5,1 km/h (1 Bft) W-SW 248 2 min 0,000 mm 0,0 UV-I 33 W/m 8,7 C 21,1 C 6,4 km/h (2 Bft) 90,57 %
16.07.2017 20:36 21,1 C 22,2 C 44 % 1021,4 hPa 0,0 l/m 4,0 km/h (1 Bft) W-SW 248 2 min 0,000 mm 0,0 UV-I 28 W/m 8,4 C 21,1 C 6,4 km/h (2 Bft) 100,00 %
16.07.2017 20:38 21,1 C 22,2 C 44 % 1021,4 hPa 0,0 l/m 3,6 km/h (1 Bft) W-SW 250 2 min 0,000 mm 0,0 UV-I 27 W/m 8,4 C 21,1 C 6,4 km/h (2 Bft) 98,00 %
16.07.2017 20:40 21,0 C 22,2 C 45 % 1021,5 hPa 0,0 l/m 4,2 km/h (1 Bft) W-SW 250 2 min 0,000 mm 0,0 UV-I 26 W/m 8,6 C 21,0 C 6,4 km/h (2 Bft) 96,00 %
16.07.2017 20:43 20,9 C 22,2 C 46 % 1021,3 hPa 0,0 l/m 3,0 km/h (1 Bft) W-SW 249 3 min 0,000 mm 0,0 UV-I 24 W/m 8,8 C 20,9 C 4,8 km/h (1 Bft) 98,63 %
16.07.2017 20:44 20,8 C 22,2 C 46 % 1021,3 hPa 0,0 l/m 3,4 km/h (1 Bft) W-SW 249 1 min 0,000 mm 0,0 UV-I 20 W/m 8,8 C 20,8 C 4,8 km/h (1 Bft) 100,00 %
16.07.2017 20:46 20,7 C 22,2 C 48 % 1021,4 hPa 0,0 l/m 4,3 km/h (1 Bft) W-SW 249 2 min 0,000 mm 0,0 UV-I 19 W/m 9,3 C 20,7 C 4,8 km/h (1 Bft) 98,11 %
16.07.2017 20:48 20,6 C 22,2 C 48 % 1021,4 hPa 0,0 l/m 3,5 km/h (1 Bft) W-SW 249 0 min 0,000 mm 0,0 UV-I 16 W/m 9,2 C 20,6 C 4,8 km/h (1 Bft) 97,56 %
16.07.2017 20:50 20,5 C 22,2 C 48 % 1021,4 hPa 0,0 l/m 3,6 km/h (1 Bft) W-SW 249 0 min 0,000 mm 0,0 UV-I 14 W/m 9,1 C 20,5 C 4,8 km/h (1 Bft) 97,87 %
16.07.2017 20:52 20,4 C 22,2 C 48 % 1021,4 hPa 0,0 l/m 3,3 km/h (1 Bft) W-SW 249 0 min 0,000 mm 0,0 UV-I 12 W/m 9,0 C 20,4 C 4,8 km/h (1 Bft) 98,00 %
16.07.2017 20:54 20,4 C 22,2 C 48 % 1021,4 hPa 0,0 l/m 2,3 km/h (1 Bft) W-SW 249 0 min 0,000 mm 0,0 UV-I 11 W/m 9,0 C 20,4 C 3,2 km/h (1 Bft) 100,00 %
16.07.2017 20:56 20,3 C 22,2 C 48 % 1021,4 hPa 0,0 l/m 1,6 km/h (1 Bft) W-SW 249 0 min 0,000 mm 0,0 UV-I 11 W/m 8,9 C 20,3 C 4,8 km/h (1 Bft) 93,62 %
16.07.2017 20:58 20,3 C 22,2 C 49 % 1021,5 hPa 0,0 l/m 0,7 km/h (0 Bft) W-SW 249 0 min 0,000 mm 0,0 UV-I 8 W/m 9,2 C 20,3 C 3,2 km/h (1 Bft) 100,00 %
16.07.2017 21:00 20,2 C 22,2 C 49 % 1021,5 hPa 0,0 l/m 3,3 km/h (1 Bft) W-SW 249 0 min 0,051 mm 0,0 UV-I 7 W/m 9,1 C 20,2 C 4,8 km/h (1 Bft) 97,87 %
16.07.2017 21:02 20,1 C 22,2 C 50 % 1021,5 hPa 0,0 l/m 3,3 km/h (1 Bft) W-SW 249 0 min 0,000 mm 0,0 UV-I 7 W/m 9,3 C 20,1 C 4,8 km/h (1 Bft) 100,00 %
16.07.2017 21:04 20,1 C 22,2 C 52 % 1021,5 hPa 0,0 l/m 2,7 km/h (1 Bft) W-SW 249 0 min 0,000 mm 0,0 UV-I 5 W/m 9,9 C 20,1 C 4,8 km/h (1 Bft) 96,00 %
16.07.2017 21:06 19,9 C 22,2 C 51 % 1021,4 hPa 0,0 l/m 3,3 km/h (1 Bft) W-SW 249 0 min 0,000 mm 0,0 UV-I 5 W/m 9,5 C 19,9 C 4,8 km/h (1 Bft) 97,56 %
16.07.2017 21:08 19,8 C 22,2 C 52 % 1021,5 hPa 0,0 l/m 3,1 km/h (1 Bft) W-SW 249 0 min 0,000 mm 0,0 UV-I 5 W/m 9,7 C 19,8 C 4,8 km/h (1 Bft) 94,00 %
16.07.2017 21:10 19,8 C 22,2 C 55 % 1021,5 hPa 0,0 l/m 2,6 km/h (1 Bft) W-SW 249 0 min 0,000 mm 0,0 UV-I 5 W/m 10,5 C 19,8 C 4,8 km/h (1 Bft) 97,87 %
16.07.2017 21:12 19,6 C 22,2 C 57 % 1021,5 hPa 0,0 l/m 1,2 km/h (1 Bft) W-SW 249 0 min 0,000 mm 0,0 UV-I 5 W/m 10,8 C 19,6 C 3,2 km/h (1 Bft) 97,87 %
16.07.2017 21:14 19,3 C 22,2 C 56 % 1021,6 hPa 0,0 l/m 1,7 km/h (1 Bft) W-SW 249 0 min 0,000 mm 0,0 UV-I 2 W/m 10,3 C 19,3 C 4,8 km/h (1 Bft) 97,78 %
16.07.2017 21:16 19,1 C 22,2 C 58 % 1021,6 hPa 0,0 l/m 0,3 km/h (0 Bft) W-SW 249 0 min 0,000 mm 0,0 UV-I 0 W/m 10,6 C 19,1 C 1,6 km/h (1 Bft) 95,74 %
16.07.2017 21:18 18,9 C 22,2 C 57 % 1021,6 hPa 0,0 l/m 0,4 km/h (0 Bft) W-SW 249 0 min 0,000 mm 0,0 UV-I 0 W/m 10,2 C 18,9 C 1,6 km/h (1 Bft) 95,45 %
16.07.2017 21:20 18,9 C 22,2 C 58 % 1021,6 hPa 0,0 l/m 0,4 km/h (0 Bft) W-SW 249 0 min 0,000 mm 0,0 UV-I 0 W/m 10,5 C 18,9 C 3,2 km/h (1 Bft) 93,62 %
16.07.2017 21:22 18,9 C 22,2 C 57 % 1021,7 hPa 0,0 l/m 0,0 km/h (0 Bft) W-SW 249 0 min 0,000 mm 0,0 UV-I 0 W/m 10,2 C 18,9 C 0,0 km/h (0 Bft) 97,87 %
16.07.2017 21:24 18,8 C 22,2 C 57 % 1021,7 hPa 0,0 l/m 0,0 km/h (0 Bft) W-SW 249 0 min 0,000 mm 0,0 UV-I 0 W/m 10,1 C 18,8 C 0,0 km/h (0 Bft) 93,62 %
16.07.2017 21:26 18,7 C 22,2 C 57 % 1021,7 hPa 0,0 l/m 0,0 km/h (0 Bft) W-SW 249 0 min 0,000 mm 0,0 UV-I 0 W/m 10,0 C 18,7 C 0,0 km/h (0 Bft) 95,74 %
16.07.2017 21:28 18,6 C 22,2 C 57 % 1021,6 hPa 0,0 l/m 0,9 km/h (0 Bft) W-SW 249 0 min 0,000 mm 0,0 UV-I 0 W/m 9,9 C 18,6 C 3,2 km/h (1 Bft) 91,49 %
16.07.2017 21:30 18,6 C 22,2 C 58 % 1021,6 hPa 0,0 l/m 0,9 km/h (0 Bft) W-SW 249 0 min 0,000 mm 0,0 UV-I 0 W/m 10,2 C 18,6 C 3,2 km/h (1 Bft) 92,00 %
16.07.2017 21:32 18,4 C 22,2 C 59 % 1021,6 hPa 0,0 l/m 0,2 km/h (0 Bft) W-SW 249 0 min 0,000 mm 0,0 UV-I 0 W/m 10,2 C 18,4 C 1,6 km/h (1 Bft) 96,23 %
16.07.2017 21:34 18,2 C 22,2 C 61 % 1021,6 hPa 0,0 l/m 0,5 km/h (0 Bft) W-SW 249 0 min 0,000 mm 0,0 UV-I 0 W/m 10,6 C 18,2 C 1,6 km/h (1 Bft) 92,68 %
16.07.2017 21:36 18,1 C 22,2 C 61 % 1021,6 hPa 0,0 l/m 0,3 km/h (0 Bft) W-SW 249 0 min 0,000 mm 0,0 UV-I 0 W/m 10,5 C 18,1 C 1,6 km/h (1 Bft) 95,74 %
16.07.2017 21:40 17,6 C 22,2 C 64 % 1021,6 hPa 0,0 l/m 0,7 km/h (0 Bft) W-SW 249 0 min 0,000 mm 0,0 UV-I 0 W/m 10,7 C 17,6 C 1,6 km/h (1 Bft) 95,00 %
16.07.2017 21:42 17,5 C 22,2 C 64 % 1021,6 hPa 0,0 l/m 2,1 km/h (1 Bft) W-SW 249 0 min 0,000 mm 0,0 UV-I 0 W/m 10,6 C 17,5 C 4,8 km/h (1 Bft) 89,36 %
16.07.2017 21:44 17,4 C 22,2 C 63 % 1021,7 hPa 0,0 l/m 0,7 km/h (0 Bft) W-SW 249 0 min 0,000 mm 0,0 UV-I 0 W/m 10,3 C 17,4 C 3,2 km/h (1 Bft) 94,74 %
16.07.2017 21:46 17,4 C 22,2 C 62 % 1021,7 hPa 0,0 l/m 1,5 km/h (1 Bft) W-SW 249 0 min 0,000 mm 0,0 UV-I 0 W/m 10,0 C 17,4 C 3,2 km/h (1 Bft) 97,87 %
16.07.2017 21:48 17,5 C 22,2 C 61 % 1021,7 hPa 0,0 l/m 0,5 km/h (0 Bft) W-SW 249 0 min 0,000 mm 0,0 UV-I 0 W/m 9,9 C 17,5 C 1,6 km/h (1 Bft) 96,00 %
16.07.2017 21:50 17,5 C 22,2 C 62 % 1021,7 hPa 0,0 l/m 0,5 km/h (0 Bft) W-SW 249 0 min 0,000 mm 0,0 UV-I 0 W/m 10,1 C 17,5 C 3,2 km/h (1 Bft) 92,68 %
16.07.2017 21:52 17,4 C 22,2 C 62 % 1021,7 hPa 0,0 l/m 0,6 km/h (0 Bft) W-SW 249 0 min 0,000 mm 0,0 UV-I 0 W/m 10,0 C 17,4 C 3,2 km/h (1 Bft) 92,11 %
16.07.2017 21:54 17,4 C 22,2 C 61 % 1021,8 hPa 0,0 l/m 0,6 km/h (0 Bft) W-SW 249 0 min 0,000 mm 0,0 UV-I 0 W/m 9,8 C 17,4 C 3,2 km/h (1 Bft) 95,38 %
16.07.2017 21:56 17,4 C 22,2 C 62 % 1021,7 hPa 0,0 l/m 0,6 km/h (0 Bft) W-SW 249 0 min 0,000 mm 0,0 UV-I 0 W/m 10,0 C 17,4 C 1,6 km/h (1 Bft) 96,00 %
16.07.2017 21:58 17,4 C 22,2 C 62 % 1021,8 hPa 0,0 l/m 0,8 km/h (0 Bft) W-SW 249 0 min 0,000 mm 0,0 UV-I 0 W/m 10,0 C 17,4 C 3,2 km/h (1 Bft) 95,74 %
16.07.2017 22:00 17,3 C 22,2 C 64 % 1021,8 hPa 0,0 l/m 0,5 km/h (0 Bft) W-SW 249 0 min 0,000 mm 0,0 UV-I 0 W/m 10,4 C 17,3 C 1,6 km/h (1 Bft) 97,56 %
16.07.2017 22:02 17,2 C 22,2 C 64 % 1021,8 hPa 0,0 l/m 1,3 km/h (1 Bft) W-SW 249 0 min 0,025 mm 0,0 UV-I 0 W/m 10,3 C 17,2 C 3,2 km/h (1 Bft) 92,86 %
16.07.2017 22:04 17,1 C 22,2 C 65 % 1021,8 hPa 0,0 l/m 1,3 km/h (1 Bft) W-SW 249 0 min 0,000 mm 0,0 UV-I 0 W/m 10,5 C 17,1 C 3,2 km/h (1 Bft) 98,08 %
16.07.2017 22:06 16,9 C 22,2 C 66 % 1021,7 hPa 0,0 l/m 1,4 km/h (1 Bft) W-SW 249 0 min 0,000 mm 0,0 UV-I 0 W/m 10,5 C 16,9 C 3,2 km/h (1 Bft) 94,00 %
16.07.2017 22:08 16,8 C 22,2 C 66 % 1021,8 hPa 0,0 l/m 1,4 km/h (1 Bft) W-SW 249 0 min 0,000 mm 0,0 UV-I 0 W/m 10,4 C 16,8 C 3,2 km/h (1 Bft) 95,24 %
16.07.2017 22:10 16,7 C 22,2 C 67 % 1021,7 hPa 0,0 l/m 0,9 km/h (0 Bft) W-SW 249 0 min 0,000 mm 0,0 UV-I 0 W/m 10,5 C 16,7 C 3,2 km/h (1 Bft) 94,00 %
16.07.2017 22:12 16,6 C 22,2 C 68 % 1021,8 hPa 0,0 l/m 1,2 km/h (1 Bft) W-SW 249 0 min 0,000 mm 0,0 UV-I 0 W/m 10,7 C 16,6 C 1,6 km/h (1 Bft) 95,74 %
16.07.2017 22:14 16,5 C 22,2 C 67 % 1021,7 hPa 0,0 l/m 1,8 km/h (1 Bft) W-SW 249 0 min 0,000 mm 0,0 UV-I 0 W/m 10,4 C 16,5 C 3,2 km/h (1 Bft) 95,12 %
16.07.2017 22:16 16,4 C 22,2 C 68 % 1021,8 hPa 0,0 l/m 1,6 km/h (1 Bft) W-SW 249 0 min 0,000 mm 0,0 UV-I 0 W/m 10,5 C 16,4 C 3,2 km/h (1 Bft) 96,23 %
16.07.2017 22:18 16,4 C 22,2 C 68 % 1021,8 hPa 0,0 l/m 2,2 km/h (1 Bft) W-SW 248 0 min 0,000 mm 0,0 UV-I 0 W/m 10,5 C 16,4 C 4,8 km/h (1 Bft) 94,00 %
16.07.2017 22:20 16,3 C 22,2 C 67 % 1021,8 hPa 0,0 l/m 1,9 km/h (1 Bft) W-SW 248 0 min 0,000 mm 0,0 UV-I 0 W/m 10,2 C 16,3 C 3,2 km/h (1 Bft) 91,43 %
16.07.2017 22:22 16,3 C 22,2 C 66 % 1021,8 hPa 0,0 l/m 1,2 km/h (1 Bft) W-SW 246 0 min 0,000 mm 0,0 UV-I 0 W/m 9,9 C 16,3 C 3,2 km/h (1 Bft) 96,61 %
16.07.2017 22:24 16,4 C 22,2 C 66 % 1021,8 hPa 0,0 l/m 2,0 km/h (1 Bft) W-SW 244 0 min 0,000 mm 0,0 UV-I 0 W/m 10,0 C 16,4 C 3,2 km/h (1 Bft) 92,11 %
16.07.2017 22:26 16,6 C 22,2 C 64 % 1021,8 hPa 0,0 l/m 2,7 km/h (1 Bft) SW 234 0 min 0,000 mm 0,0 UV-I 0 W/m 9,8 C 16,6 C 4,8 km/h (1 Bft) 95,74 %
16.07.2017 22:28 16,7 C 22,2 C 64 % 1021,7 hPa 0,0 l/m 3,3 km/h (1 Bft) S-SW 198 0 min 0,000 mm 0,0 UV-I 0 W/m 9,9 C 16,7 C 4,8 km/h (1 Bft) 96,23 %
16.07.2017 22:30 16,9 C 22,2 C 62 % 1021,8 hPa 0,0 l/m 3,1 km/h (1 Bft) S-SW 198 0 min 0,000 mm 0,0 UV-I 0 W/m 9,6 C 16,9 C 6,4 km/h (2 Bft) 95,74 %
16.07.2017 22:32 17,1 C 22,2 C 62 % 1021,7 hPa 0,0 l/m 3,1 km/h (1 Bft) S-SW 194 0 min 0,000 mm 0,0 UV-I 0 W/m 9,8 C 17,1 C 6,4 km/h (2 Bft) 100,00 %
16.07.2017 22:34 17,3 C 22,2 C 61 % 1021,7 hPa 0,0 l/m 2,8 km/h (1 Bft) S-SW 192 0 min 0,000 mm 0,0 UV-I 0 W/m 9,7 C 17,3 C 4,8 km/h (1 Bft) 98,11 %
16.07.2017 22:36 17,3 C 22,2 C 61 % 1021,8 hPa 0,0 l/m 3,2 km/h (1 Bft) S 190 0 min 0,000 mm 0,0 UV-I 0 W/m 9,7 C 17,3 C 6,4 km/h (2 Bft) 97,56 %
16.07.2017 22:38 17,4 C 21,7 C 61 % 1021,8 hPa 0,0 l/m 3,3 km/h (1 Bft) S 190 0 min 0,000 mm 0,0 UV-I 0 W/m 9,8 C 17,4 C 6,4 km/h (2 Bft) 98,21 %
16.07.2017 22:40 17,4 C 22,2 C 61 % 1021,8 hPa 0,0 l/m 3,1 km/h (1 Bft) S 188 0 min 0,000 mm 0,0 UV-I 0 W/m 9,8 C 17,4 C 6,4 km/h (2 Bft) 100,00 %
16.07.2017 22:42 17,4 C 22,2 C 61 % 1021,7 hPa 0,0 l/m 4,1 km/h (1 Bft) S 188 0 min 0,000 mm 0,0 UV-I 0 W/m 9,8 C 17,4 C 6,4 km/h (2 Bft) 94,23 %
16.07.2017 22:44 17,4 C 21,7 C 62 % 1021,8 hPa 0,0 l/m 3,3 km/h (1 Bft) S 188 0 min 0,000 mm 0,0 UV-I 0 W/m 10,0 C 17,4 C 6,4 km/h (2 Bft) 100,00 %
16.07.2017 22:46 17,3 C 21,7 C 62 % 1021,8 hPa 0,0 l/m 4,5 km/h (1 Bft) S 181 0 min 0,000 mm 0,0 UV-I 0 W/m 9,9 C 17,3 C 6,4 km/h (2 Bft) 97,87 %
16.07.2017 22:48 17,3 C 21,7 C 63 % 1021,8 hPa 0,0 l/m 3,9 km/h (1 Bft) S 179 0 min 0,000 mm 0,0 UV-I 0 W/m 10,2 C 17,3 C 6,4 km/h (2 Bft) 97,56 %
16.07.2017 22:50 17,3 C 21,7 C 63 % 1021,8 hPa 0,0 l/m 4,6 km/h (1 Bft) S-SW 194 0 min 0,000 mm 0,0 UV-I 0 W/m 10,2 C 17,3 C 6,4 km/h (2 Bft) 98,11 %
16.07.2017 22:52 17,3 C 21,7 C 63 % 1021,8 hPa 0,0 l/m 3,0 km/h (1 Bft) S 177 0 min 0,000 mm 0,0 UV-I 0 W/m 10,2 C 17,3 C 6,4 km/h (2 Bft) 100,00 %
16.07.2017 22:54 17,3 C 21,7 C 63 % 1021,8 hPa 0,0 l/m 4,5 km/h (1 Bft) S-SO 167 0 min 0,000 mm 0,0 UV-I 0 W/m 10,2 C 17,3 C 9,7 km/h (2 Bft) 97,37 %
16.07.2017 22:56 17,3 C 21,7 C 63 % 1021,8 hPa 0,0 l/m 4,4 km/h (1 Bft) S-SO 167 0 min 0,000 mm 0,0 UV-I 0 W/m 10,2 C 17,3 C 8,0 km/h (2 Bft) 93,62 %
16.07.2017 22:58 17,3 C 21,7 C 63 % 1021,8 hPa 0,0 l/m 4,9 km/h (1 Bft) S-SW 205 0 min 0,000 mm 0,0 UV-I 0 W/m 10,2 C 17,3 C 8,0 km/h (2 Bft) 96,00 %
16.07.2017 23:00 17,3 C 21,7 C 64 % 1021,8 hPa 0,0 l/m 4,3 km/h (1 Bft) S-SO 165 0 min 0,000 mm 0,0 UV-I 0 W/m 10,4 C 17,3 C 8,0 km/h (2 Bft) 98,00 %
16.07.2017 23:02 17,2 C 21,7 C 64 % 1021,9 hPa 0,0 l/m 4,7 km/h (1 Bft) S 182 0 min 0,026 mm 0,0 UV-I 0 W/m 10,3 C 17,2 C 9,7 km/h (2 Bft) 97,87 %
16.07.2017 23:04 17,2 C 21,7 C 64 % 1021,9 hPa 0,0 l/m 3,4 km/h (1 Bft) S 184 0 min 0,000 mm 0,0 UV-I 0 W/m 10,3 C 17,2 C 4,8 km/h (1 Bft) 100,00 %
16.07.2017 23:06 17,1 C 21,7 C 64 % 1021,8 hPa 0,0 l/m 4,2 km/h (1 Bft) S 186 0 min 0,000 mm 0,0 UV-I 0 W/m 10,2 C 17,1 C 6,4 km/h (2 Bft) 97,56 %
16.07.2017 23:08 17,1 C 21,7 C 65 % 1021,8 hPa 0,0 l/m 4,3 km/h (1 Bft) S 188 0 min 0,000 mm 0,0 UV-I 0 W/m 10,5 C 17,1 C 6,4 km/h (2 Bft) 97,87 %
16.07.2017 23:10 16,9 C 21,7 C 65 % 1021,8 hPa 0,0 l/m 3,5 km/h (1 Bft) S 190 0 min 0,000 mm 0,0 UV-I 0 W/m 10,3 C 16,9 C 6,4 km/h (2 Bft) 97,87 %
16.07.2017 23:12 16,9 C 21,7 C 66 % 1021,8 hPa 0,0 l/m 3,3 km/h (1 Bft) S 190 0 min 0,000 mm 0,0 UV-I 0 W/m 10,5 C 16,9 C 6,4 km/h (2 Bft) 97,87 %
16.07.2017 23:14 16,8 C 21,7 C 66 % 1021,9 hPa 0,0 l/m 4,3 km/h (1 Bft) S 190 0 min 0,000 mm 0,0 UV-I 0 W/m 10,4 C 16,8 C 6,4 km/h (2 Bft) 98,00 %
16.07.2017 23:16 16,8 C 21,7 C 66 % 1021,9 hPa 0,0 l/m 4,2 km/h (1 Bft) S 190 0 min 0,000 mm 0,0 UV-I 0 W/m 10,4 C 16,8 C 6,4 km/h (2 Bft) 96,00 %
16.07.2017 23:18 16,7 C 21,7 C 66 % 1021,9 hPa 0,0 l/m 4,4 km/h (1 Bft) S 180 0 min 0,000 mm 0,0 UV-I 0 W/m 10,3 C 16,7 C 6,4 km/h (2 Bft) 97,87 %
16.07.2017 23:20 16,7 C 21,7 C 67 % 1021,9 hPa 0,0 l/m 4,1 km/h (1 Bft) S 180 0 min 0,000 mm 0,0 UV-I 0 W/m 10,5 C 16,7 C 6,4 km/h (2 Bft) 94,74 %
16.07.2017 23:22 16,6 C 21,7 C 67 % 1021,8 hPa 0,0 l/m 4,6 km/h (1 Bft) S 180 0 min 0,000 mm 0,0 UV-I 0 W/m 10,4 C 16,6 C 6,4 km/h (2 Bft) 94,34 %
16.07.2017 23:24 16,5 C 21,7 C 67 % 1021,8 hPa 0,0 l/m 4,9 km/h (1 Bft) S 184 0 min 0,000 mm 0,0 UV-I 0 W/m 10,4 C 16,5 C 6,4 km/h (2 Bft) 95,24 %
16.07.2017 23:26 16,4 C 21,7 C 67 % 1021,8 hPa 0,0 l/m 4,3 km/h (1 Bft) S 186 0 min 0,000 mm 0,0 UV-I 0 W/m 10,3 C 16,4 C 6,4 km/h (2 Bft) 95,74 %
16.07.2017 23:28 16,4 C 21,7 C 67 % 1021,8 hPa 0,0 l/m 4,4 km/h (1 Bft) S-SW 199 0 min 0,000 mm 0,0 UV-I 0 W/m 10,3 C 16,4 C 6,4 km/h (2 Bft) 96,23 %
16.07.2017 23:30 16,3 C 21,7 C 67 % 1021,8 hPa 0,0 l/m 4,3 km/h (1 Bft) S-SW 199 0 min 0,000 mm 0,0 UV-I 0 W/m 10,2 C 16,3 C 6,4 km/h (2 Bft) 94,29 %
16.07.2017 23:32 16,3 C 21,7 C 67 % 1021,8 hPa 0,0 l/m 4,4 km/h (1 Bft) S-SW 197 0 min 0,000 mm 0,0 UV-I 0 W/m 10,2 C 16,3 C 6,4 km/h (2 Bft) 94,00 %
16.07.2017 23:34 16,3 C 21,7 C 68 % 1021,8 hPa 0,0 l/m 4,9 km/h (1 Bft) S-SW 198 0 min 0,000 mm 0,0 UV-I 0 W/m 10,4 C 16,3 C 8,0 km/h (2 Bft) 94,64 %
16.07.2017 23:36 16,2 C 21,7 C 68 % 1021,8 hPa 0,0 l/m 6,4 km/h (2 Bft) S-SW 202 0 min 0,000 mm 0,0 UV-I 0 W/m 10,3 C 16,2 C 8,0 km/h (2 Bft) 94,74 %
16.07.2017 23:38 16,1 C 21,7 C 68 % 1021,7 hPa 0,0 l/m 6,0 km/h (2 Bft) S-SW 202 0 min 0,000 mm 0,0 UV-I 0 W/m 10,2 C 16,1 C 8,0 km/h (2 Bft) 96,00 %
16.07.2017 23:40 16,1 C 21,7 C 68 % 1021,7 hPa 0,0 l/m 6,7 km/h (2 Bft) S-SW 192 0 min 0,000 mm 0,0 UV-I 0 W/m 10,2 C 16,0 C 8,0 km/h (2 Bft) 94,34 %
16.07.2017 23:42 16,0 C 21,7 C 68 % 1021,7 hPa 0,0 l/m 5,4 km/h (1 Bft) S-SW 194 0 min 0,000 mm 0,0 UV-I 0 W/m 10,1 C 16,0 C 8,0 km/h (2 Bft) 95,12 %
16.07.2017 23:44 15,9 C 21,7 C 68 % 1021,7 hPa 0,0 l/m 4,7 km/h (1 Bft) S-SW 194 0 min 0,000 mm 0,0 UV-I 0 W/m 10,0 C 15,9 C 9,7 km/h (2 Bft) 96,00 %
16.07.2017 23:46 15,9 C 21,7 C 69 % 1021,7 hPa 0,0 l/m 5,4 km/h (1 Bft) S-SW 194 0 min 0,000 mm 0,0 UV-I 0 W/m 10,2 C 15,9 C 8,0 km/h (2 Bft) 89,47 %
16.07.2017 23:48 15,8 C 21,7 C 69 % 1021,8 hPa 0,0 l/m 4,2 km/h (1 Bft) S-SW 194 0 min 0,000 mm 0,0 UV-I 0 W/m 10,1 C 15,8 C 8,0 km/h (2 Bft) 95,45 %
16.07.2017 23:50 15,8 C 21,7 C 69 % 1021,8 hPa 0,0 l/m 5,1 km/h (1 Bft) S-SW 194 0 min 0,000 mm 0,0 UV-I 0 W/m 10,1 C 15,8 C 6,4 km/h (2 Bft) 98,08 %
16.07.2017 23:52 15,7 C 21,7 C 69 % 1021,8 hPa 0,0 l/m 3,9 km/h (1 Bft) S-SW 194 0 min 0,000 mm 0,0 UV-I 0 W/m 10,0 C 15,7 C 6,4 km/h (2 Bft) 98,00 %
16.07.2017 23:54 15,7 C 21,7 C 69 % 1021,8 hPa 0,0 l/m 4,2 km/h (1 Bft) S-SW 193 0 min 0,000 mm 0,0 UV-I 0 W/m 10,0 C 15,7 C 6,4 km/h (2 Bft) 96,00 %
16.07.2017 23:56 15,6 C 21,7 C 70 % 1021,8 hPa 0,0 l/m 5,3 km/h (1 Bft) S-SW 193 0 min 0,000 mm 0,0 UV-I 0 W/m 10,1 C 15,6 C 8,0 km/h (2 Bft) 96,00 %
16.07.2017 23:58 15,6 C 21,7 C 70 % 1021,8 hPa 0,0 l/m 5,4 km/h (1 Bft) S-SW 194 0 min 0,000 mm 0,0 UV-I 0 W/m 10,1 C 15,6 C 8,0 km/h (2 Bft) 94,74 %
_ Min-Zeit 05:24 02:58 16:10 19:42 - 06:10 - - - - - - 15:28 04:04 06:10 00:02
Minimum _ 10,7 C 20,6 C 36 % 1021,2 hPa - 0,0 km/h (0 Bft) - - - - - - 7,5 C 10,3 C 0,0 km/h (0 Bft) 9,52 %
_ Max-Zeit 16:08 14:26 06:02 08:30 00:00 11:58 - - 18:03 14:00 12:52 12:18 09:28 16:10 13:50 00:08
Maximum _ 23,9 C 22,2 C 92 % 1024,4 hPa 0,0 l/m 13,9 km/h
SW (3 Bft)
- - 3 min 0,584 mm 6,9 UV-I 1114 W/m 12,0 C 23,8 C 22,5 km/h
SW (4 Bft)
100,00 %
Durchschnitt _ 17,4 C 21,4 C 64 % 1022,8 hPa #0,0 l/m 4,9 km/h (1 Bft) SW - #7:58 h #4,293 mm 3,0 UV-I 390 W/m 9,7 C 17,2 C 8,6 km/h (2 Bft) 96,11 %